<?xml version="1.0" encoding="UTF-8" standalone="no" ?>
<gpx xmlns="http://www.topografix.com/GPX/1/1" xmlns:xsi="http://www.w3.org/2001/XMLSchema-instance" xsi:schemaLocation="http://www.topografix.com/GPX/1/1 http://www.topografix.com/GPX/1/1/gpx.xsd" version="1.1" creator="VisuGPX - https://www.visugpx.com">
  <metadata>
    <name>Montagne de Liausson - crête des Lousses - Mourèze</name>
    <desc><![CDATA[2015-03 - village de Liausson - col de Portes - crête des Lousses - Mont Mars - village et cirque de Mourèze - Baume Nègre - Montagne de Liausson

[b]album[/b] : [url]https://goo.gl/photos/HsxkzU3Kwxp5VSc99[/url]
[img]https://3.bp.blogspot.com/-Llk_KJVzRaA/WNQpXDHDO5I/AAAAAAAARTk/I0r2mg6blTof78kAjb1jM6TW5XPUNXsTgCLcB/s1600/2015-03_Liausson_les-Lousses_Moureze_photos_i.JPG[/img]
[b]Idées de randonnées dans la même région[/b]
Parcours : [url]https://www.visugpx.com/membres/24856/causses/salagou/[/url]
Photos : [url]https://jcvertygo.blogspot.com/p/salagou.html[/url]]]></desc>
  </metadata>
  <trk>
    <name><![CDATA[Montagne de Liausson - crête des Lousses - Mourèze_1]]></name>
    <trkseg>
      <trkpt lat="43.63552" lon="3.36919">
        <ele>216.9</ele>
        <time>2015-03-31T09:52:53Z</time>
      </trkpt>
      <trkpt lat="43.63557" lon="3.36914">
        <ele>216.9</ele>
        <time>2015-03-31T09:52:58Z</time>
      </trkpt>
      <trkpt lat="43.6356" lon="3.36918">
        <ele>211.56897761771</ele>
        <time>2015-03-31T09:53:03Z</time>
      </trkpt>
      <trkpt lat="43.63562" lon="3.36922">
        <ele>211.56897761771</ele>
        <time>2015-03-31T09:53:08Z</time>
      </trkpt>
      <trkpt lat="43.63564" lon="3.36927">
        <ele>211.56897761771</ele>
        <time>2015-03-31T09:53:13Z</time>
      </trkpt>
      <trkpt lat="43.63568" lon="3.36931">
        <ele>211.60401332149</ele>
        <time>2015-03-31T09:53:19Z</time>
      </trkpt>
      <trkpt lat="43.63574" lon="3.36932">
        <ele>211.60401332149</ele>
        <time>2015-03-31T09:53:25Z</time>
      </trkpt>
      <trkpt lat="43.6358" lon="3.36925">
        <ele>211.93275676372</ele>
        <time>2015-03-31T09:53:33Z</time>
      </trkpt>
      <trkpt lat="43.63583" lon="3.36918">
        <ele>211.93275676372</ele>
        <time>2015-03-31T09:53:42Z</time>
      </trkpt>
      <trkpt lat="43.63583" lon="3.36915">
        <ele>211.93275676372</ele>
        <time>2015-03-31T09:53:44Z</time>
      </trkpt>
      <trkpt lat="43.63587" lon="3.36906">
        <ele>212.26922605303</ele>
        <time>2015-03-31T09:53:48Z</time>
      </trkpt>
      <trkpt lat="43.63588" lon="3.36898">
        <ele>212.26922605303</ele>
        <time>2015-03-31T09:53:54Z</time>
      </trkpt>
      <trkpt lat="43.63588" lon="3.36887">
        <ele>212.5800198257</ele>
        <time>2015-03-31T09:54:01Z</time>
      </trkpt>
      <trkpt lat="43.63589" lon="3.36884">
        <ele>212.5800198257</ele>
        <time>2015-03-31T09:54:03Z</time>
      </trkpt>
      <trkpt lat="43.6359" lon="3.36877">
        <ele>212.5800198257</ele>
        <time>2015-03-31T09:54:08Z</time>
      </trkpt>
      <trkpt lat="43.63589" lon="3.3687">
        <ele>212.80606139446</ele>
        <time>2015-03-31T09:54:13Z</time>
      </trkpt>
      <trkpt lat="43.6359" lon="3.36862">
        <ele>212.80606139446</ele>
        <time>2015-03-31T09:54:18Z</time>
      </trkpt>
      <trkpt lat="43.63588" lon="3.36855">
        <ele>212.86481991432</ele>
        <time>2015-03-31T09:54:23Z</time>
      </trkpt>
      <trkpt lat="43.63587" lon="3.36846">
        <ele>212.86481991432</ele>
        <time>2015-03-31T09:54:28Z</time>
      </trkpt>
      <trkpt lat="43.6359" lon="3.36837">
        <ele>212.74826298414</ele>
        <time>2015-03-31T09:54:33Z</time>
      </trkpt>
      <trkpt lat="43.63593" lon="3.36829">
        <ele>212.74826298414</ele>
        <time>2015-03-31T09:54:38Z</time>
      </trkpt>
      <trkpt lat="43.63597" lon="3.36822">
        <ele>212.44313187502</ele>
        <time>2015-03-31T09:54:43Z</time>
      </trkpt>
      <trkpt lat="43.63596" lon="3.36813">
        <ele>212.44313187502</ele>
        <time>2015-03-31T09:54:48Z</time>
      </trkpt>
      <trkpt lat="43.63596" lon="3.36805">
        <ele>211.88873552456</ele>
        <time>2015-03-31T09:54:53Z</time>
      </trkpt>
      <trkpt lat="43.63598" lon="3.36752">
        <ele>211.1143029859</ele>
        <time>2015-03-31T09:55:33Z</time>
      </trkpt>
      <trkpt lat="43.63579" lon="3.36677">
        <ele>211.24443043464</ele>
        <time>2015-03-31T09:56:33Z</time>
      </trkpt>
      <trkpt lat="43.63588" lon="3.36642">
        <ele>211.42996143423</ele>
        <time>2015-03-31T09:57:33Z</time>
      </trkpt>
      <trkpt lat="43.63588" lon="3.36576">
        <ele>213.57562304619</ele>
        <time>2015-03-31T09:57:38Z</time>
      </trkpt>
      <trkpt lat="43.63587" lon="3.36565">
        <ele>213.57562304619</ele>
        <time>2015-03-31T09:57:43Z</time>
      </trkpt>
      <trkpt lat="43.63584" lon="3.36557">
        <ele>215.68595831515</ele>
        <time>2015-03-31T09:57:48Z</time>
      </trkpt>
      <trkpt lat="43.6358" lon="3.36547">
        <ele>215.68595831515</ele>
        <time>2015-03-31T09:57:53Z</time>
      </trkpt>
      <trkpt lat="43.63577" lon="3.3654">
        <ele>217.73723269786</ele>
        <time>2015-03-31T09:57:58Z</time>
      </trkpt>
      <trkpt lat="43.63575" lon="3.3652">
        <ele>219.59665258106</ele>
        <time>2015-03-31T09:58:13Z</time>
      </trkpt>
      <trkpt lat="43.63574" lon="3.36511">
        <ele>219.59665258106</ele>
        <time>2015-03-31T09:58:20Z</time>
      </trkpt>
      <trkpt lat="43.63568" lon="3.36494">
        <ele>221.26366106344</ele>
        <time>2015-03-31T09:58:34Z</time>
      </trkpt>
      <trkpt lat="43.63567" lon="3.36482">
        <ele>221.26366106344</ele>
        <time>2015-03-31T09:58:42Z</time>
      </trkpt>
      <trkpt lat="43.63567" lon="3.3648">
        <ele>222.72528323663</ele>
        <time>2015-03-31T09:58:44Z</time>
      </trkpt>
      <trkpt lat="43.63565" lon="3.3647">
        <ele>222.72528323663</ele>
        <time>2015-03-31T09:58:54Z</time>
      </trkpt>
      <trkpt lat="43.63557" lon="3.36449">
        <ele>224.05119212407</ele>
        <time>2015-03-31T09:59:03Z</time>
      </trkpt>
      <trkpt lat="43.63551" lon="3.36396">
        <ele>225.44244783985</ele>
        <time>2015-03-31T09:59:33Z</time>
      </trkpt>
      <trkpt lat="43.63548" lon="3.36389">
        <ele>225.44244783985</ele>
        <time>2015-03-31T09:59:42Z</time>
      </trkpt>
      <trkpt lat="43.63537" lon="3.36316">
        <ele>227.80411646522</ele>
        <time>2015-03-31T10:00:33Z</time>
      </trkpt>
      <trkpt lat="43.63535" lon="3.3631">
        <ele>227.80411646522</ele>
        <time>2015-03-31T10:00:42Z</time>
      </trkpt>
      <trkpt lat="43.6353" lon="3.36287">
        <ele>230.1388042728</ele>
        <time>2015-03-31T10:01:16Z</time>
      </trkpt>
      <trkpt lat="43.63531" lon="3.36258">
        <ele>232.18137455847</ele>
        <time>2015-03-31T10:01:32Z</time>
      </trkpt>
      <trkpt lat="43.63522" lon="3.36233">
        <ele>233.86024805629</ele>
        <time>2015-03-31T10:01:33Z</time>
      </trkpt>
      <trkpt lat="43.63474" lon="3.36171">
        <ele>234.65143370942</ele>
        <time>2015-03-31T10:02:38Z</time>
      </trkpt>
      <trkpt lat="43.63479" lon="3.36161">
        <ele>234.65143370942</ele>
        <time>2015-03-31T10:03:08Z</time>
      </trkpt>
      <trkpt lat="43.6347" lon="3.36124">
        <ele>234.81515598714</ele>
        <time>2015-03-31T10:03:40Z</time>
      </trkpt>
      <trkpt lat="43.63473" lon="3.3607">
        <ele>234.94775404919</ele>
        <time>2015-03-31T10:04:33Z</time>
      </trkpt>
      <trkpt lat="43.63474" lon="3.36069">
        <ele>234.94775404919</ele>
        <time>2015-03-31T10:07:38Z</time>
      </trkpt>
      <trkpt lat="43.63492" lon="3.36036">
        <ele>235.92004245493</ele>
        <time>2015-03-31T10:08:40Z</time>
      </trkpt>
      <trkpt lat="43.63471" lon="3.35979">
        <ele>237.21175002774</ele>
        <time>2015-03-31T10:09:34Z</time>
      </trkpt>
      <trkpt lat="43.63469" lon="3.35974">
        <ele>237.21175002774</ele>
        <time>2015-03-31T10:09:38Z</time>
      </trkpt>
      <trkpt lat="43.63471" lon="3.35957">
        <ele>238.4205457747</ele>
        <time>2015-03-31T10:10:34Z</time>
      </trkpt>
      <trkpt lat="43.63462" lon="3.35871">
        <ele>240.35682383011</ele>
        <time>2015-03-31T10:10:59Z</time>
      </trkpt>
      <trkpt lat="43.63463" lon="3.3585">
        <ele>242.36972395078</ele>
        <time>2015-03-31T10:11:24Z</time>
      </trkpt>
      <trkpt lat="43.63463" lon="3.35821">
        <ele>244.28587622515</ele>
        <time>2015-03-31T10:11:35Z</time>
      </trkpt>
      <trkpt lat="43.63463" lon="3.35808">
        <ele>246.05434803251</ele>
        <time>2015-03-31T10:11:43Z</time>
      </trkpt>
      <trkpt lat="43.63438" lon="3.35781">
        <ele>248.31354780529</ele>
        <time>2015-03-31T10:12:24Z</time>
      </trkpt>
      <trkpt lat="43.63437" lon="3.35781">
        <ele>248.31354780529</ele>
        <time>2015-03-31T10:12:33Z</time>
      </trkpt>
      <trkpt lat="43.63425" lon="3.35779">
        <ele>250.35531481132</ele>
        <time>2015-03-31T10:12:38Z</time>
      </trkpt>
      <trkpt lat="43.63392" lon="3.35747">
        <ele>252.98398112163</ele>
        <time>2015-03-31T10:13:23Z</time>
      </trkpt>
      <trkpt lat="43.63388" lon="3.35742">
        <ele>252.98398112163</ele>
        <time>2015-03-31T10:13:32Z</time>
      </trkpt>
      <trkpt lat="43.63388" lon="3.35742">
        <ele>252.98398112163</ele>
        <time>2015-03-31T10:13:33Z</time>
      </trkpt>
      <trkpt lat="43.63383" lon="3.3574">
        <ele>255.87666903447</ele>
        <time>2015-03-31T10:13:39Z</time>
      </trkpt>
      <trkpt lat="43.63351" lon="3.35705">
        <ele>259.9186912386</ele>
        <time>2015-03-31T10:14:23Z</time>
      </trkpt>
      <trkpt lat="43.63342" lon="3.35697">
        <ele>263.8486997383</ele>
        <time>2015-03-31T10:14:35Z</time>
      </trkpt>
      <trkpt lat="43.63339" lon="3.35695">
        <ele>263.8486997383</ele>
        <time>2015-03-31T10:14:39Z</time>
      </trkpt>
      <trkpt lat="43.63336" lon="3.3569">
        <ele>263.8486997383</ele>
        <time>2015-03-31T10:14:49Z</time>
      </trkpt>
      <trkpt lat="43.6331" lon="3.35692">
        <ele>267.86703394656</ele>
        <time>2015-03-31T10:14:56Z</time>
      </trkpt>
      <trkpt lat="43.63306" lon="3.35692">
        <ele>267.86703394656</ele>
        <time>2015-03-31T10:15:05Z</time>
      </trkpt>
      <trkpt lat="43.63328" lon="3.35691">
        <ele>271.65003944987</ele>
        <time>2015-03-31T10:15:08Z</time>
      </trkpt>
      <trkpt lat="43.63329" lon="3.35691">
        <ele>271.65003944987</ele>
        <time>2015-03-31T10:15:13Z</time>
      </trkpt>
      <trkpt lat="43.63331" lon="3.35691">
        <ele>271.65003944987</ele>
        <time>2015-03-31T10:15:18Z</time>
      </trkpt>
      <trkpt lat="43.63323" lon="3.35685">
        <ele>275.48239710922</ele>
        <time>2015-03-31T10:15:38Z</time>
      </trkpt>
      <trkpt lat="43.63323" lon="3.35685">
        <ele>275.48239710922</ele>
        <time>2015-03-31T10:15:46Z</time>
      </trkpt>
      <trkpt lat="43.63318" lon="3.3569">
        <ele>275.48239710922</ele>
        <time>2015-03-31T10:16:29Z</time>
      </trkpt>
      <trkpt lat="43.63316" lon="3.35687">
        <ele>280.3599023839</ele>
        <time>2015-03-31T10:16:35Z</time>
      </trkpt>
      <trkpt lat="43.63315" lon="3.35683">
        <ele>280.3599023839</ele>
        <time>2015-03-31T10:16:38Z</time>
      </trkpt>
      <trkpt lat="43.63308" lon="3.35669">
        <ele>284.66809559753</ele>
        <time>2015-03-31T10:17:09Z</time>
      </trkpt>
      <trkpt lat="43.63289" lon="3.35668">
        <ele>288.71720468341</ele>
        <time>2015-03-31T10:17:25Z</time>
      </trkpt>
      <trkpt lat="43.63276" lon="3.35678">
        <ele>292.62046527675</ele>
        <time>2015-03-31T10:17:38Z</time>
      </trkpt>
      <trkpt lat="43.6327" lon="3.35682">
        <ele>292.62046527675</ele>
        <time>2015-03-31T10:17:49Z</time>
      </trkpt>
      <trkpt lat="43.63258" lon="3.35701">
        <ele>297.1773368773</ele>
        <time>2015-03-31T10:18:07Z</time>
      </trkpt>
      <trkpt lat="43.63258" lon="3.35702">
        <ele>297.1773368773</ele>
        <time>2015-03-31T10:18:17Z</time>
      </trkpt>
      <trkpt lat="43.63247" lon="3.3572">
        <ele>301.92415616515</ele>
        <time>2015-03-31T10:18:28Z</time>
      </trkpt>
      <trkpt lat="43.63244" lon="3.35724">
        <ele>301.92415616515</ele>
        <time>2015-03-31T10:18:33Z</time>
      </trkpt>
      <trkpt lat="43.6324" lon="3.35727">
        <ele>301.92415616515</ele>
        <time>2015-03-31T10:18:38Z</time>
      </trkpt>
      <trkpt lat="43.6324" lon="3.35732">
        <ele>306.59515911484</ele>
        <time>2015-03-31T10:18:43Z</time>
      </trkpt>
      <trkpt lat="43.6324" lon="3.35737">
        <ele>306.59515911484</ele>
        <time>2015-03-31T10:18:50Z</time>
      </trkpt>
      <trkpt lat="43.63237" lon="3.35742">
        <ele>306.59515911484</ele>
        <time>2015-03-31T10:19:00Z</time>
      </trkpt>
      <trkpt lat="43.63233" lon="3.35753">
        <ele>310.96004399084</ele>
        <time>2015-03-31T10:19:15Z</time>
      </trkpt>
      <trkpt lat="43.6323" lon="3.35757">
        <ele>310.96004399084</ele>
        <time>2015-03-31T10:19:18Z</time>
      </trkpt>
      <trkpt lat="43.63222" lon="3.35753">
        <ele>315.14015712653</ele>
        <time>2015-03-31T10:19:25Z</time>
      </trkpt>
      <trkpt lat="43.63224" lon="3.35747">
        <ele>315.14015712653</ele>
        <time>2015-03-31T10:19:34Z</time>
      </trkpt>
      <trkpt lat="43.63226" lon="3.35737">
        <ele>319.02273850282</ele>
        <time>2015-03-31T10:19:39Z</time>
      </trkpt>
      <trkpt lat="43.63226" lon="3.35734">
        <ele>319.02273850282</ele>
        <time>2015-03-31T10:19:45Z</time>
      </trkpt>
      <trkpt lat="43.63228" lon="3.35727">
        <ele>319.02273850282</ele>
        <time>2015-03-31T10:19:48Z</time>
      </trkpt>
      <trkpt lat="43.63227" lon="3.3572">
        <ele>322.67158336141</ele>
        <time>2015-03-31T10:20:00Z</time>
      </trkpt>
      <trkpt lat="43.63217" lon="3.35669">
        <ele>326.65860368197</ele>
        <time>2015-03-31T10:20:37Z</time>
      </trkpt>
      <trkpt lat="43.63217" lon="3.35668">
        <ele>326.65860368197</ele>
        <time>2015-03-31T10:20:38Z</time>
      </trkpt>
      <trkpt lat="43.63205" lon="3.35596">
        <ele>332.03403248265</ele>
        <time>2015-03-31T10:21:38Z</time>
      </trkpt>
      <trkpt lat="43.63201" lon="3.35592">
        <ele>332.03403248265</ele>
        <time>2015-03-31T10:21:44Z</time>
      </trkpt>
      <trkpt lat="43.63183" lon="3.35547">
        <ele>337.11686664389</ele>
        <time>2015-03-31T10:22:36Z</time>
      </trkpt>
      <trkpt lat="43.63181" lon="3.35545">
        <ele>337.11686664389</ele>
        <time>2015-03-31T10:22:39Z</time>
      </trkpt>
      <trkpt lat="43.63158" lon="3.35494">
        <ele>343.49476653114</ele>
        <time>2015-03-31T10:23:45Z</time>
      </trkpt>
      <trkpt lat="43.6313" lon="3.35463">
        <ele>350.57311693137</ele>
        <time>2015-03-31T10:24:43Z</time>
      </trkpt>
      <trkpt lat="43.63142" lon="3.35431">
        <ele>357.50750672086</ele>
        <time>2015-03-31T10:25:43Z</time>
      </trkpt>
      <trkpt lat="43.63152" lon="3.35425">
        <ele>363.61470358877</ele>
        <time>2015-03-31T10:26:13Z</time>
      </trkpt>
      <trkpt lat="43.63171" lon="3.35415">
        <ele>369.3833441658</ele>
        <time>2015-03-31T10:26:26Z</time>
      </trkpt>
      <trkpt lat="43.63179" lon="3.35414">
        <ele>369.3833441658</ele>
        <time>2015-03-31T10:26:28Z</time>
      </trkpt>
      <trkpt lat="43.63185" lon="3.35407">
        <ele>374.71528377347</ele>
        <time>2015-03-31T10:26:38Z</time>
      </trkpt>
      <trkpt lat="43.63191" lon="3.35401">
        <ele>374.71528377347</ele>
        <time>2015-03-31T10:26:46Z</time>
      </trkpt>
      <trkpt lat="43.63191" lon="3.35399">
        <ele>374.71528377347</ele>
        <time>2015-03-31T10:26:48Z</time>
      </trkpt>
      <trkpt lat="43.63198" lon="3.35388">
        <ele>379.757975426</ele>
        <time>2015-03-31T10:27:00Z</time>
      </trkpt>
      <trkpt lat="43.63211" lon="3.35373">
        <ele>384.41211304159</ele>
        <time>2015-03-31T10:27:09Z</time>
      </trkpt>
      <trkpt lat="43.63214" lon="3.35367">
        <ele>384.41211304159</ele>
        <time>2015-03-31T10:27:18Z</time>
      </trkpt>
      <trkpt lat="43.63215" lon="3.35344">
        <ele>389.05749001478</ele>
        <time>2015-03-31T10:27:40Z</time>
      </trkpt>
      <trkpt lat="43.63214" lon="3.35339">
        <ele>389.05749001478</ele>
        <time>2015-03-31T10:27:43Z</time>
      </trkpt>
      <trkpt lat="43.63214" lon="3.35336">
        <ele>389.05749001478</ele>
        <time>2015-03-31T10:27:53Z</time>
      </trkpt>
      <trkpt lat="43.63225" lon="3.3528">
        <ele>394.21848489327</ele>
        <time>2015-03-31T10:28:39Z</time>
      </trkpt>
      <trkpt lat="43.63223" lon="3.35274">
        <ele>394.21848489327</ele>
        <time>2015-03-31T10:28:45Z</time>
      </trkpt>
      <trkpt lat="43.63223" lon="3.35272">
        <ele>394.21848489327</ele>
        <time>2015-03-31T10:28:53Z</time>
      </trkpt>
      <trkpt lat="43.63222" lon="3.35264">
        <ele>398.94294471911</ele>
        <time>2015-03-31T10:28:53Z</time>
      </trkpt>
      <trkpt lat="43.63231" lon="3.35205">
        <ele>403.61224605707</ele>
        <time>2015-03-31T10:29:36Z</time>
      </trkpt>
      <trkpt lat="43.63232" lon="3.35202">
        <ele>403.61224605707</ele>
        <time>2015-03-31T10:29:40Z</time>
      </trkpt>
      <trkpt lat="43.63231" lon="3.35194">
        <ele>403.61224605707</ele>
        <time>2015-03-31T10:29:45Z</time>
      </trkpt>
      <trkpt lat="43.63234" lon="3.35152">
        <ele>408.76656461666</ele>
        <time>2015-03-31T10:30:19Z</time>
      </trkpt>
      <trkpt lat="43.63235" lon="3.35147">
        <ele>408.76656461666</ele>
        <time>2015-03-31T10:30:30Z</time>
      </trkpt>
      <trkpt lat="43.63236" lon="3.35141">
        <ele>408.76656461666</ele>
        <time>2015-03-31T10:30:35Z</time>
      </trkpt>
      <trkpt lat="43.6324" lon="3.3513">
        <ele>413.50581184503</ele>
        <time>2015-03-31T10:30:39Z</time>
      </trkpt>
      <trkpt lat="43.6324" lon="3.35125">
        <ele>413.50581184503</ele>
        <time>2015-03-31T10:30:44Z</time>
      </trkpt>
      <trkpt lat="43.63241" lon="3.35119">
        <ele>413.50581184503</ele>
        <time>2015-03-31T10:30:49Z</time>
      </trkpt>
      <trkpt lat="43.63242" lon="3.35117">
        <ele>417.75778036675</ele>
        <time>2015-03-31T10:30:57Z</time>
      </trkpt>
      <trkpt lat="43.63244" lon="3.35111">
        <ele>417.75778036675</ele>
        <time>2015-03-31T10:30:59Z</time>
      </trkpt>
      <trkpt lat="43.63246" lon="3.351">
        <ele>421.63122599889</ele>
        <time>2015-03-31T10:31:10Z</time>
      </trkpt>
      <trkpt lat="43.63249" lon="3.35085">
        <ele>425.169430461</ele>
        <time>2015-03-31T10:31:26Z</time>
      </trkpt>
      <trkpt lat="43.63252" lon="3.35077">
        <ele>425.169430461</ele>
        <time>2015-03-31T10:31:28Z</time>
      </trkpt>
      <trkpt lat="43.63254" lon="3.35064">
        <ele>428.48560045042</ele>
        <time>2015-03-31T10:31:43Z</time>
      </trkpt>
      <trkpt lat="43.63261" lon="3.35044">
        <ele>431.2799700659</ele>
        <time>2015-03-31T10:32:43Z</time>
      </trkpt>
      <trkpt lat="43.63264" lon="3.34978">
        <ele>435.02572316835</ele>
        <time>2015-03-31T10:33:05Z</time>
      </trkpt>
      <trkpt lat="43.63269" lon="3.34956">
        <ele>438.5976775695</ele>
        <time>2015-03-31T10:33:23Z</time>
      </trkpt>
      <trkpt lat="43.6327" lon="3.34956">
        <ele>438.5976775695</ele>
        <time>2015-03-31T10:33:23Z</time>
      </trkpt>
      <trkpt lat="43.63277" lon="3.34913">
        <ele>442.09687548508</ele>
        <time>2015-03-31T10:33:48Z</time>
      </trkpt>
      <trkpt lat="43.63284" lon="3.34857">
        <ele>445.99224831585</ele>
        <time>2015-03-31T10:34:38Z</time>
      </trkpt>
      <trkpt lat="43.63287" lon="3.34849">
        <ele>445.99224831585</ele>
        <time>2015-03-31T10:34:44Z</time>
      </trkpt>
      <trkpt lat="43.63286" lon="3.34843">
        <ele>449.50497992778</ele>
        <time>2015-03-31T10:34:49Z</time>
      </trkpt>
      <trkpt lat="43.63294" lon="3.34821">
        <ele>452.80964289009</ele>
        <time>2015-03-31T10:35:10Z</time>
      </trkpt>
      <trkpt lat="43.63294" lon="3.34815">
        <ele>452.80964289009</ele>
        <time>2015-03-31T10:35:19Z</time>
      </trkpt>
      <trkpt lat="43.63301" lon="3.34792">
        <ele>456.24149649912</ele>
        <time>2015-03-31T10:35:33Z</time>
      </trkpt>
      <trkpt lat="43.63305" lon="3.3478">
        <ele>459.33210657247</ele>
        <time>2015-03-31T10:35:46Z</time>
      </trkpt>
      <trkpt lat="43.63306" lon="3.34776">
        <ele>459.33210657247</ele>
        <time>2015-03-31T10:35:50Z</time>
      </trkpt>
      <trkpt lat="43.63307" lon="3.34775">
        <ele>459.33210657247</ele>
        <time>2015-03-31T10:36:00Z</time>
      </trkpt>
      <trkpt lat="43.63319" lon="3.34748">
        <ele>462.34068246627</ele>
        <time>2015-03-31T10:36:11Z</time>
      </trkpt>
      <trkpt lat="43.63333" lon="3.34724">
        <ele>465.29133360657</ele>
        <time>2015-03-31T10:36:39Z</time>
      </trkpt>
      <trkpt lat="43.63342" lon="3.34718">
        <ele>467.91824240779</ele>
        <time>2015-03-31T10:36:46Z</time>
      </trkpt>
      <trkpt lat="43.63343" lon="3.34717">
        <ele>467.91824240779</ele>
        <time>2015-03-31T10:36:48Z</time>
      </trkpt>
      <trkpt lat="43.63349" lon="3.34715">
        <ele>467.91824240779</ele>
        <time>2015-03-31T10:37:08Z</time>
      </trkpt>
      <trkpt lat="43.63358" lon="3.3471">
        <ele>470.04812380803</ele>
        <time>2015-03-31T10:38:11Z</time>
      </trkpt>
      <trkpt lat="43.63359" lon="3.34708">
        <ele>470.04812380803</ele>
        <time>2015-03-31T10:38:13Z</time>
      </trkpt>
      <trkpt lat="43.63359" lon="3.34708">
        <ele>470.04812380803</ele>
        <time>2015-03-31T10:38:44Z</time>
      </trkpt>
      <trkpt lat="43.63357" lon="3.34709">
        <ele>470.04812380803</ele>
        <time>2015-03-31T10:40:04Z</time>
      </trkpt>
      <trkpt lat="43.63354" lon="3.34697">
        <ele>471.68039265286</ele>
        <time>2015-03-31T10:45:51Z</time>
      </trkpt>
      <trkpt lat="43.63353" lon="3.34695">
        <ele>471.68039265286</ele>
        <time>2015-03-31T10:45:55Z</time>
      </trkpt>
      <trkpt lat="43.63346" lon="3.34679">
        <ele>472.96006875376</ele>
        <time>2015-03-31T10:46:28Z</time>
      </trkpt>
      <trkpt lat="43.63347" lon="3.3465">
        <ele>473.93596834434</ele>
        <time>2015-03-31T10:46:46Z</time>
      </trkpt>
      <trkpt lat="43.63347" lon="3.34648">
        <ele>473.93596834434</ele>
        <time>2015-03-31T10:46:48Z</time>
      </trkpt>
      <trkpt lat="43.6335" lon="3.34638">
        <ele>474.61086174908</ele>
        <time>2015-03-31T10:46:53Z</time>
      </trkpt>
      <trkpt lat="43.6335" lon="3.34632">
        <ele>474.61086174908</ele>
        <time>2015-03-31T10:46:58Z</time>
      </trkpt>
      <trkpt lat="43.6335" lon="3.34628">
        <ele>474.61086174908</ele>
        <time>2015-03-31T10:47:03Z</time>
      </trkpt>
      <trkpt lat="43.6335" lon="3.34628">
        <ele>474.61086174908</ele>
        <time>2015-03-31T10:47:08Z</time>
      </trkpt>
      <trkpt lat="43.63352" lon="3.34619">
        <ele>474.85828463889</ele>
        <time>2015-03-31T10:48:28Z</time>
      </trkpt>
      <trkpt lat="43.63353" lon="3.34613">
        <ele>474.85828463889</ele>
        <time>2015-03-31T10:48:33Z</time>
      </trkpt>
      <trkpt lat="43.63353" lon="3.34608">
        <ele>474.85828463889</ele>
        <time>2015-03-31T10:48:38Z</time>
      </trkpt>
      <trkpt lat="43.63354" lon="3.34603">
        <ele>474.83617366686</ele>
        <time>2015-03-31T10:48:43Z</time>
      </trkpt>
      <trkpt lat="43.63353" lon="3.34597">
        <ele>474.83617366686</ele>
        <time>2015-03-31T10:48:48Z</time>
      </trkpt>
      <trkpt lat="43.63351" lon="3.3459">
        <ele>474.61939113762</ele>
        <time>2015-03-31T10:49:00Z</time>
      </trkpt>
      <trkpt lat="43.63346" lon="3.34567">
        <ele>474.24884462018</ele>
        <time>2015-03-31T10:49:09Z</time>
      </trkpt>
      <trkpt lat="43.63346" lon="3.34558">
        <ele>474.24884462018</ele>
        <time>2015-03-31T10:49:22Z</time>
      </trkpt>
      <trkpt lat="43.63347" lon="3.34553">
        <ele>473.76268113157</ele>
        <time>2015-03-31T10:49:22Z</time>
      </trkpt>
      <trkpt lat="43.63347" lon="3.34552">
        <ele>473.76268113157</ele>
        <time>2015-03-31T10:49:30Z</time>
      </trkpt>
      <trkpt lat="43.63347" lon="3.34518">
        <ele>473.28290057628</ele>
        <time>2015-03-31T10:49:48Z</time>
      </trkpt>
      <trkpt lat="43.63346" lon="3.34504">
        <ele>472.74918469084</ele>
        <time>2015-03-31T10:49:56Z</time>
      </trkpt>
      <trkpt lat="43.63346" lon="3.34501">
        <ele>472.74918469084</ele>
        <time>2015-03-31T10:49:58Z</time>
      </trkpt>
      <trkpt lat="43.63347" lon="3.34493">
        <ele>472.74918469084</ele>
        <time>2015-03-31T10:50:03Z</time>
      </trkpt>
      <trkpt lat="43.63346" lon="3.34478">
        <ele>472.30747889752</ele>
        <time>2015-03-31T10:50:12Z</time>
      </trkpt>
      <trkpt lat="43.63346" lon="3.34477">
        <ele>472.30747889752</ele>
        <time>2015-03-31T10:50:14Z</time>
      </trkpt>
      <trkpt lat="43.63348" lon="3.34457">
        <ele>471.91936395373</ele>
        <time>2015-03-31T10:50:46Z</time>
      </trkpt>
      <trkpt lat="43.63363" lon="3.34451">
        <ele>471.83727701187</ele>
        <time>2015-03-31T10:50:48Z</time>
      </trkpt>
      <trkpt lat="43.634" lon="3.34453">
        <ele>473.39008841377</ele>
        <time>2015-03-31T10:51:51Z</time>
      </trkpt>
      <trkpt lat="43.63403" lon="3.34457">
        <ele>473.39008841377</ele>
        <time>2015-03-31T10:51:54Z</time>
      </trkpt>
      <trkpt lat="43.6341" lon="3.34457">
        <ele>475.09239457836</ele>
        <time>2015-03-31T10:52:02Z</time>
      </trkpt>
      <trkpt lat="43.63418" lon="3.34454">
        <ele>475.09239457836</ele>
        <time>2015-03-31T10:52:18Z</time>
      </trkpt>
      <trkpt lat="43.6343" lon="3.34449">
        <ele>477.71638100049</ele>
        <time>2015-03-31T10:52:32Z</time>
      </trkpt>
      <trkpt lat="43.6343" lon="3.34448">
        <ele>477.71638100049</ele>
        <time>2015-03-31T10:52:42Z</time>
      </trkpt>
      <trkpt lat="43.63431" lon="3.34447">
        <ele>477.71638100049</ele>
        <time>2015-03-31T10:52:42Z</time>
      </trkpt>
      <trkpt lat="43.63435" lon="3.34443">
        <ele>477.71638100049</ele>
        <time>2015-03-31T10:52:58Z</time>
      </trkpt>
      <trkpt lat="43.63458" lon="3.34437">
        <ele>480.51788227694</ele>
        <time>2015-03-31T10:53:43Z</time>
      </trkpt>
      <trkpt lat="43.63467" lon="3.34442">
        <ele>483.23941450052</ele>
        <time>2015-03-31T10:54:18Z</time>
      </trkpt>
      <trkpt lat="43.63469" lon="3.34441">
        <ele>483.23941450052</ele>
        <time>2015-03-31T10:54:23Z</time>
      </trkpt>
      <trkpt lat="43.6347" lon="3.34439">
        <ele>483.23941450052</ele>
        <time>2015-03-31T10:54:30Z</time>
      </trkpt>
      <trkpt lat="43.63483" lon="3.3443">
        <ele>485.70012020393</ele>
        <time>2015-03-31T10:54:48Z</time>
      </trkpt>
      <trkpt lat="43.63487" lon="3.34429">
        <ele>485.70012020393</ele>
        <time>2015-03-31T10:54:53Z</time>
      </trkpt>
      <trkpt lat="43.63486" lon="3.34425">
        <ele>485.70012020393</ele>
        <time>2015-03-31T10:54:59Z</time>
      </trkpt>
      <trkpt lat="43.63498" lon="3.34422">
        <ele>487.97809895759</ele>
        <time>2015-03-31T10:55:46Z</time>
      </trkpt>
      <trkpt lat="43.63505" lon="3.34428">
        <ele>487.97809895759</ele>
        <time>2015-03-31T10:55:48Z</time>
      </trkpt>
      <trkpt lat="43.63511" lon="3.34418">
        <ele>490.23250231027</ele>
        <time>2015-03-31T10:56:33Z</time>
      </trkpt>
      <trkpt lat="43.63514" lon="3.34415">
        <ele>490.23250231027</ele>
        <time>2015-03-31T10:56:47Z</time>
      </trkpt>
      <trkpt lat="43.63537" lon="3.34406">
        <ele>492.06272790985</ele>
        <time>2015-03-31T10:57:04Z</time>
      </trkpt>
      <trkpt lat="43.63541" lon="3.34404">
        <ele>492.06272790985</ele>
        <time>2015-03-31T10:57:14Z</time>
      </trkpt>
      <trkpt lat="43.63546" lon="3.344">
        <ele>493.57444862961</ele>
        <time>2015-03-31T10:57:22Z</time>
      </trkpt>
      <trkpt lat="43.63566" lon="3.34382">
        <ele>494.73650358447</ele>
        <time>2015-03-31T10:57:35Z</time>
      </trkpt>
      <trkpt lat="43.63575" lon="3.34367">
        <ele>495.7082268067</ele>
        <time>2015-03-31T10:57:53Z</time>
      </trkpt>
      <trkpt lat="43.63579" lon="3.34364">
        <ele>495.7082268067</ele>
        <time>2015-03-31T10:57:58Z</time>
      </trkpt>
      <trkpt lat="43.63582" lon="3.34358">
        <ele>496.43575235219</ele>
        <time>2015-03-31T10:58:08Z</time>
      </trkpt>
      <trkpt lat="43.63613" lon="3.34331">
        <ele>497.27329545779</ele>
        <time>2015-03-31T10:58:48Z</time>
      </trkpt>
      <trkpt lat="43.63628" lon="3.34315">
        <ele>498.0728374254</ele>
        <time>2015-03-31T10:59:19Z</time>
      </trkpt>
      <trkpt lat="43.63623" lon="3.3429">
        <ele>498.78366418776</ele>
        <time>2015-03-31T10:59:33Z</time>
      </trkpt>
      <trkpt lat="43.63627" lon="3.34281">
        <ele>498.78366418776</ele>
        <time>2015-03-31T10:59:44Z</time>
      </trkpt>
      <trkpt lat="43.63628" lon="3.34278">
        <ele>499.37327627767</ele>
        <time>2015-03-31T10:59:50Z</time>
      </trkpt>
      <trkpt lat="43.63629" lon="3.34275">
        <ele>499.37327627767</ele>
        <time>2015-03-31T10:59:55Z</time>
      </trkpt>
      <trkpt lat="43.63622" lon="3.34252">
        <ele>499.66759625712</ele>
        <time>2015-03-31T11:00:19Z</time>
      </trkpt>
      <trkpt lat="43.63621" lon="3.34244">
        <ele>499.66759625712</ele>
        <time>2015-03-31T11:00:25Z</time>
      </trkpt>
      <trkpt lat="43.63619" lon="3.34239">
        <ele>499.85190057622</ele>
        <time>2015-03-31T11:00:30Z</time>
      </trkpt>
      <trkpt lat="43.63618" lon="3.34217">
        <ele>499.92501876601</ele>
        <time>2015-03-31T11:00:47Z</time>
      </trkpt>
      <trkpt lat="43.63618" lon="3.34214">
        <ele>499.92501876601</ele>
        <time>2015-03-31T11:00:49Z</time>
      </trkpt>
      <trkpt lat="43.6362" lon="3.34207">
        <ele>499.92501876601</ele>
        <time>2015-03-31T11:00:53Z</time>
      </trkpt>
      <trkpt lat="43.63619" lon="3.34196">
        <ele>499.84275991649</ele>
        <time>2015-03-31T11:01:08Z</time>
      </trkpt>
      <trkpt lat="43.63612" lon="3.34176">
        <ele>499.59325674927</ele>
        <time>2015-03-31T11:01:22Z</time>
      </trkpt>
      <trkpt lat="43.63608" lon="3.34144">
        <ele>499.30991259937</ele>
        <time>2015-03-31T11:01:38Z</time>
      </trkpt>
      <trkpt lat="43.63609" lon="3.34144">
        <ele>499.30991259937</ele>
        <time>2015-03-31T11:01:45Z</time>
      </trkpt>
      <trkpt lat="43.63603" lon="3.34131">
        <ele>498.71270738019</ele>
        <time>2015-03-31T11:02:23Z</time>
      </trkpt>
      <trkpt lat="43.63602" lon="3.34128">
        <ele>498.71270738019</ele>
        <time>2015-03-31T11:02:23Z</time>
      </trkpt>
      <trkpt lat="43.63603" lon="3.34121">
        <ele>498.71270738019</ele>
        <time>2015-03-31T11:02:32Z</time>
      </trkpt>
      <trkpt lat="43.63602" lon="3.341">
        <ele>498.04728640677</ele>
        <time>2015-03-31T11:02:52Z</time>
      </trkpt>
      <trkpt lat="43.63602" lon="3.34098">
        <ele>498.04728640677</ele>
        <time>2015-03-31T11:02:56Z</time>
      </trkpt>
      <trkpt lat="43.63606" lon="3.34067">
        <ele>497.08007339165</ele>
        <time>2015-03-31T11:03:29Z</time>
      </trkpt>
      <trkpt lat="43.63604" lon="3.34051">
        <ele>495.63853134673</ele>
        <time>2015-03-31T11:03:35Z</time>
      </trkpt>
      <trkpt lat="43.63603" lon="3.34046">
        <ele>495.63853134673</ele>
        <time>2015-03-31T11:03:49Z</time>
      </trkpt>
      <trkpt lat="43.63596" lon="3.34031">
        <ele>493.88096689965</ele>
        <time>2015-03-31T11:03:54Z</time>
      </trkpt>
      <trkpt lat="43.63596" lon="3.34028">
        <ele>493.88096689965</ele>
        <time>2015-03-31T11:04:05Z</time>
      </trkpt>
      <trkpt lat="43.6359" lon="3.33995">
        <ele>491.78178848115</ele>
        <time>2015-03-31T11:04:20Z</time>
      </trkpt>
      <trkpt lat="43.6359" lon="3.33993">
        <ele>491.78178848115</ele>
        <time>2015-03-31T11:04:48Z</time>
      </trkpt>
      <trkpt lat="43.63583" lon="3.33985">
        <ele>489.54859450998</ele>
        <time>2015-03-31T11:05:18Z</time>
      </trkpt>
      <trkpt lat="43.63577" lon="3.33974">
        <ele>486.97035502292</ele>
        <time>2015-03-31T11:06:53Z</time>
      </trkpt>
      <trkpt lat="43.63575" lon="3.33971">
        <ele>486.97035502292</ele>
        <time>2015-03-31T11:07:04Z</time>
      </trkpt>
      <trkpt lat="43.63555" lon="3.33912">
        <ele>483.78020227684</ele>
        <time>2015-03-31T11:08:06Z</time>
      </trkpt>
      <trkpt lat="43.63543" lon="3.33854">
        <ele>479.84761291039</ele>
        <time>2015-03-31T11:08:57Z</time>
      </trkpt>
      <trkpt lat="43.6354" lon="3.3385">
        <ele>479.84761291039</ele>
        <time>2015-03-31T11:08:58Z</time>
      </trkpt>
      <trkpt lat="43.63536" lon="3.33822">
        <ele>475.80284132975</ele>
        <time>2015-03-31T11:09:18Z</time>
      </trkpt>
      <trkpt lat="43.63529" lon="3.33794">
        <ele>471.66782105255</ele>
        <time>2015-03-31T11:09:39Z</time>
      </trkpt>
      <trkpt lat="43.63523" lon="3.33787">
        <ele>471.66782105255</ele>
        <time>2015-03-31T11:09:51Z</time>
      </trkpt>
      <trkpt lat="43.63518" lon="3.33775">
        <ele>467.59251455871</ele>
        <time>2015-03-31T11:09:51Z</time>
      </trkpt>
      <trkpt lat="43.63518" lon="3.33773">
        <ele>467.59251455871</ele>
        <time>2015-03-31T11:09:53Z</time>
      </trkpt>
      <trkpt lat="43.63511" lon="3.33771">
        <ele>467.59251455871</ele>
        <time>2015-03-31T11:10:01Z</time>
      </trkpt>
      <trkpt lat="43.63511" lon="3.33772">
        <ele>467.59251455871</ele>
        <time>2015-03-31T11:10:05Z</time>
      </trkpt>
      <trkpt lat="43.63507" lon="3.33774">
        <ele>463.47037535576</ele>
        <time>2015-03-31T11:10:14Z</time>
      </trkpt>
      <trkpt lat="43.63477" lon="3.33808">
        <ele>458.85659276296</ele>
        <time>2015-03-31T11:10:53Z</time>
      </trkpt>
      <trkpt lat="43.63474" lon="3.33812">
        <ele>458.85659276296</ele>
        <time>2015-03-31T11:11:06Z</time>
      </trkpt>
      <trkpt lat="43.63452" lon="3.33823">
        <ele>454.1759110538</ele>
        <time>2015-03-31T11:11:19Z</time>
      </trkpt>
      <trkpt lat="43.63446" lon="3.33835">
        <ele>449.83609903306</ele>
        <time>2015-03-31T11:11:28Z</time>
      </trkpt>
      <trkpt lat="43.63438" lon="3.33851">
        <ele>445.62275950748</ele>
        <time>2015-03-31T11:11:34Z</time>
      </trkpt>
      <trkpt lat="43.63434" lon="3.33856">
        <ele>445.62275950748</ele>
        <time>2015-03-31T11:11:52Z</time>
      </trkpt>
      <trkpt lat="43.63425" lon="3.33863">
        <ele>441.4373755092</ele>
        <time>2015-03-31T11:11:53Z</time>
      </trkpt>
      <trkpt lat="43.63423" lon="3.33863">
        <ele>441.4373755092</ele>
        <time>2015-03-31T11:11:58Z</time>
      </trkpt>
      <trkpt lat="43.63419" lon="3.33867">
        <ele>441.4373755092</ele>
        <time>2015-03-31T11:12:03Z</time>
      </trkpt>
      <trkpt lat="43.63417" lon="3.33872">
        <ele>437.47641826818</ele>
        <time>2015-03-31T11:12:08Z</time>
      </trkpt>
      <trkpt lat="43.63411" lon="3.33881">
        <ele>437.47641826818</ele>
        <time>2015-03-31T11:12:30Z</time>
      </trkpt>
      <trkpt lat="43.63398" lon="3.33905">
        <ele>432.91208858533</ele>
        <time>2015-03-31T11:12:45Z</time>
      </trkpt>
      <trkpt lat="43.63396" lon="3.33925">
        <ele>428.44865632737</ele>
        <time>2015-03-31T11:12:53Z</time>
      </trkpt>
      <trkpt lat="43.63396" lon="3.3393">
        <ele>428.44865632737</ele>
        <time>2015-03-31T11:13:03Z</time>
      </trkpt>
      <trkpt lat="43.63392" lon="3.33937">
        <ele>424.36326574086</ele>
        <time>2015-03-31T11:13:30Z</time>
      </trkpt>
      <trkpt lat="43.63361" lon="3.3398">
        <ele>419.57096603215</ele>
        <time>2015-03-31T11:13:53Z</time>
      </trkpt>
      <trkpt lat="43.63355" lon="3.33979">
        <ele>419.57096603215</ele>
        <time>2015-03-31T11:14:06Z</time>
      </trkpt>
      <trkpt lat="43.63325" lon="3.34">
        <ele>413.99041712131</ele>
        <time>2015-03-31T11:14:50Z</time>
      </trkpt>
      <trkpt lat="43.63321" lon="3.33996">
        <ele>413.99041712131</ele>
        <time>2015-03-31T11:15:18Z</time>
      </trkpt>
      <trkpt lat="43.63306" lon="3.33992">
        <ele>408.74420402105</ele>
        <time>2015-03-31T11:15:23Z</time>
      </trkpt>
      <trkpt lat="43.63305" lon="3.33992">
        <ele>408.74420402105</ele>
        <time>2015-03-31T11:15:28Z</time>
      </trkpt>
      <trkpt lat="43.63294" lon="3.3399">
        <ele>403.7181764341</ele>
        <time>2015-03-31T11:15:53Z</time>
      </trkpt>
      <trkpt lat="43.63248" lon="3.33956">
        <ele>398.79112560627</ele>
        <time>2015-03-31T11:16:57Z</time>
      </trkpt>
      <trkpt lat="43.63246" lon="3.33952">
        <ele>398.79112560627</ele>
        <time>2015-03-31T11:16:58Z</time>
      </trkpt>
      <trkpt lat="43.63235" lon="3.33929">
        <ele>394.29680778313</ele>
        <time>2015-03-31T11:17:15Z</time>
      </trkpt>
      <trkpt lat="43.63232" lon="3.33918">
        <ele>394.29680778313</ele>
        <time>2015-03-31T11:17:23Z</time>
      </trkpt>
      <trkpt lat="43.63219" lon="3.3389">
        <ele>389.86550042061</ele>
        <time>2015-03-31T11:17:53Z</time>
      </trkpt>
      <trkpt lat="43.63183" lon="3.33828">
        <ele>384.99553526281</ele>
        <time>2015-03-31T11:18:53Z</time>
      </trkpt>
      <trkpt lat="43.63179" lon="3.33826">
        <ele>384.99553526281</ele>
        <time>2015-03-31T11:19:01Z</time>
      </trkpt>
      <trkpt lat="43.63176" lon="3.33822">
        <ele>384.99553526281</ele>
        <time>2015-03-31T11:19:04Z</time>
      </trkpt>
      <trkpt lat="43.63137" lon="3.33791">
        <ele>380.02996422228</ele>
        <time>2015-03-31T11:19:28Z</time>
      </trkpt>
      <trkpt lat="43.63136" lon="3.33791">
        <ele>380.02996422228</ele>
        <time>2015-03-31T11:19:28Z</time>
      </trkpt>
      <trkpt lat="43.63106" lon="3.33788">
        <ele>374.73888216005</ele>
        <time>2015-03-31T11:19:53Z</time>
      </trkpt>
      <trkpt lat="43.63063" lon="3.33797">
        <ele>370.00505747035</ele>
        <time>2015-03-31T11:20:50Z</time>
      </trkpt>
      <trkpt lat="43.63035" lon="3.33779">
        <ele>364.2233685746</ele>
        <time>2015-03-31T11:20:54Z</time>
      </trkpt>
      <trkpt lat="43.6303" lon="3.33776">
        <ele>364.2233685746</ele>
        <time>2015-03-31T11:21:06Z</time>
      </trkpt>
      <trkpt lat="43.63007" lon="3.33758">
        <ele>358.44555397222</ele>
        <time>2015-03-31T11:21:19Z</time>
      </trkpt>
      <trkpt lat="43.63003" lon="3.33756">
        <ele>358.44555397222</ele>
        <time>2015-03-31T11:21:31Z</time>
      </trkpt>
      <trkpt lat="43.62973" lon="3.33745">
        <ele>352.95396340671</ele>
        <time>2015-03-31T11:21:50Z</time>
      </trkpt>
      <trkpt lat="43.62966" lon="3.33747">
        <ele>352.95396340671</ele>
        <time>2015-03-31T11:21:53Z</time>
      </trkpt>
      <trkpt lat="43.62963" lon="3.33749">
        <ele>347.90815396752</ele>
        <time>2015-03-31T11:22:00Z</time>
      </trkpt>
      <trkpt lat="43.62931" lon="3.33756">
        <ele>343.45434835842</ele>
        <time>2015-03-31T11:22:23Z</time>
      </trkpt>
      <trkpt lat="43.62925" lon="3.33758">
        <ele>343.45434835842</ele>
        <time>2015-03-31T11:22:26Z</time>
      </trkpt>
      <trkpt lat="43.62896" lon="3.33761">
        <ele>339.50984682945</ele>
        <time>2015-03-31T11:22:48Z</time>
      </trkpt>
      <trkpt lat="43.62888" lon="3.33759">
        <ele>339.50984682945</ele>
        <time>2015-03-31T11:22:53Z</time>
      </trkpt>
      <trkpt lat="43.62854" lon="3.33756">
        <ele>335.56392271891</ele>
        <time>2015-03-31T11:23:21Z</time>
      </trkpt>
      <trkpt lat="43.62852" lon="3.33755">
        <ele>335.56392271891</ele>
        <time>2015-03-31T11:23:23Z</time>
      </trkpt>
      <trkpt lat="43.62834" lon="3.3372">
        <ele>332.12301052843</ele>
        <time>2015-03-31T11:23:52Z</time>
      </trkpt>
      <trkpt lat="43.62833" lon="3.33719">
        <ele>332.12301052843</ele>
        <time>2015-03-31T11:23:53Z</time>
      </trkpt>
      <trkpt lat="43.62829" lon="3.33713">
        <ele>332.12301052843</ele>
        <time>2015-03-31T11:24:06Z</time>
      </trkpt>
      <trkpt lat="43.62826" lon="3.33708">
        <ele>329.40963440747</ele>
        <time>2015-03-31T11:24:13Z</time>
      </trkpt>
      <trkpt lat="43.62827" lon="3.33701">
        <ele>329.40963440747</ele>
        <time>2015-03-31T11:24:33Z</time>
      </trkpt>
      <trkpt lat="43.62834" lon="3.33697">
        <ele>327.13767490282</ele>
        <time>2015-03-31T11:24:38Z</time>
      </trkpt>
      <trkpt lat="43.62841" lon="3.33696">
        <ele>327.13767490282</ele>
        <time>2015-03-31T11:24:47Z</time>
      </trkpt>
      <trkpt lat="43.62848" lon="3.33695">
        <ele>325.24229855059</ele>
        <time>2015-03-31T11:24:53Z</time>
      </trkpt>
      <trkpt lat="43.6285" lon="3.33694">
        <ele>325.24229855059</ele>
        <time>2015-03-31T11:24:58Z</time>
      </trkpt>
      <trkpt lat="43.62854" lon="3.33689">
        <ele>325.24229855059</ele>
        <time>2015-03-31T11:25:09Z</time>
      </trkpt>
      <trkpt lat="43.62846" lon="3.33672">
        <ele>323.80626852078</ele>
        <time>2015-03-31T11:25:53Z</time>
      </trkpt>
      <trkpt lat="43.62841" lon="3.33667">
        <ele>323.80626852078</ele>
        <time>2015-03-31T11:26:06Z</time>
      </trkpt>
      <trkpt lat="43.62825" lon="3.33642">
        <ele>323.09213558584</ele>
        <time>2015-03-31T11:26:47Z</time>
      </trkpt>
      <trkpt lat="43.62823" lon="3.33639">
        <ele>323.09213558584</ele>
        <time>2015-03-31T11:26:53Z</time>
      </trkpt>
      <trkpt lat="43.62814" lon="3.33628">
        <ele>323.12481779314</ele>
        <time>2015-03-31T11:27:21Z</time>
      </trkpt>
      <trkpt lat="43.62803" lon="3.33613">
        <ele>323.66579148134</ele>
        <time>2015-03-31T11:27:46Z</time>
      </trkpt>
      <trkpt lat="43.62801" lon="3.33608">
        <ele>323.66579148134</ele>
        <time>2015-03-31T11:27:58Z</time>
      </trkpt>
      <trkpt lat="43.6281" lon="3.33569">
        <ele>325.35722181458</ele>
        <time>2015-03-31T11:28:44Z</time>
      </trkpt>
      <trkpt lat="43.6281" lon="3.33568">
        <ele>325.35722181458</ele>
        <time>2015-03-31T11:28:53Z</time>
      </trkpt>
      <trkpt lat="43.62803" lon="3.33532">
        <ele>328.22881048659</ele>
        <time>2015-03-31T11:29:48Z</time>
      </trkpt>
      <trkpt lat="43.62805" lon="3.33528">
        <ele>328.22881048659</ele>
        <time>2015-03-31T11:29:58Z</time>
      </trkpt>
      <trkpt lat="43.62807" lon="3.33515">
        <ele>331.74275321807</ele>
        <time>2015-03-31T11:30:19Z</time>
      </trkpt>
      <trkpt lat="43.6282" lon="3.33481">
        <ele>336.17722470405</ele>
        <time>2015-03-31T11:30:55Z</time>
      </trkpt>
      <trkpt lat="43.62819" lon="3.33479">
        <ele>336.17722470405</ele>
        <time>2015-03-31T11:30:58Z</time>
      </trkpt>
      <trkpt lat="43.62815" lon="3.33455">
        <ele>342.06132559201</ele>
        <time>2015-03-31T11:31:54Z</time>
      </trkpt>
      <trkpt lat="43.62812" lon="3.33455">
        <ele>342.06132559201</ele>
        <time>2015-03-31T11:31:58Z</time>
      </trkpt>
      <trkpt lat="43.62808" lon="3.33458">
        <ele>342.06132559201</ele>
        <time>2015-03-31T11:32:13Z</time>
      </trkpt>
      <trkpt lat="43.62798" lon="3.33461">
        <ele>348.09443531079</ele>
        <time>2015-03-31T11:32:26Z</time>
      </trkpt>
      <trkpt lat="43.62794" lon="3.33466">
        <ele>348.09443531079</ele>
        <time>2015-03-31T11:32:35Z</time>
      </trkpt>
      <trkpt lat="43.62791" lon="3.33446">
        <ele>354.61330152886</ele>
        <time>2015-03-31T11:32:57Z</time>
      </trkpt>
      <trkpt lat="43.62791" lon="3.33445">
        <ele>354.61330152886</ele>
        <time>2015-03-31T11:32:58Z</time>
      </trkpt>
      <trkpt lat="43.62776" lon="3.33432">
        <ele>362.33240036206</ele>
        <time>2015-03-31T11:33:58Z</time>
      </trkpt>
      <trkpt lat="43.62756" lon="3.33423">
        <ele>370.33992372404</ele>
        <time>2015-03-31T11:35:02Z</time>
      </trkpt>
      <trkpt lat="43.62717" lon="3.33421">
        <ele>378.91474494349</ele>
        <time>2015-03-31T11:36:00Z</time>
      </trkpt>
      <trkpt lat="43.62708" lon="3.33426">
        <ele>387.07480531928</ele>
        <time>2015-03-31T11:36:38Z</time>
      </trkpt>
      <trkpt lat="43.62703" lon="3.33431">
        <ele>387.07480531928</ele>
        <time>2015-03-31T11:36:43Z</time>
      </trkpt>
      <trkpt lat="43.62703" lon="3.33432">
        <ele>387.07480531928</ele>
        <time>2015-03-31T11:36:48Z</time>
      </trkpt>
      <trkpt lat="43.62698" lon="3.33434">
        <ele>395.58360040658</ele>
        <time>2015-03-31T11:37:03Z</time>
      </trkpt>
      <trkpt lat="43.62697" lon="3.33437">
        <ele>395.58360040658</ele>
        <time>2015-03-31T11:37:08Z</time>
      </trkpt>
      <trkpt lat="43.62694" lon="3.33441">
        <ele>395.58360040658</ele>
        <time>2015-03-31T11:37:14Z</time>
      </trkpt>
      <trkpt lat="43.62679" lon="3.33458">
        <ele>404.16821637577</ele>
        <time>2015-03-31T11:37:49Z</time>
      </trkpt>
      <trkpt lat="43.6267" lon="3.3346">
        <ele>412.27359878691</ele>
        <time>2015-03-31T11:38:06Z</time>
      </trkpt>
      <trkpt lat="43.62666" lon="3.33462">
        <ele>412.27359878691</ele>
        <time>2015-03-31T11:38:08Z</time>
      </trkpt>
      <trkpt lat="43.6266" lon="3.33456">
        <ele>420.07924322814</ele>
        <time>2015-03-31T11:38:31Z</time>
      </trkpt>
      <trkpt lat="43.6266" lon="3.33457">
        <ele>420.07924322814</ele>
        <time>2015-03-31T11:38:55Z</time>
      </trkpt>
      <trkpt lat="43.6266" lon="3.33451">
        <ele>420.07924322814</ele>
        <time>2015-03-31T11:39:36Z</time>
      </trkpt>
      <trkpt lat="43.62659" lon="3.33433">
        <ele>428.14213308666</ele>
        <time>2015-03-31T11:39:58Z</time>
      </trkpt>
      <trkpt lat="43.6266" lon="3.33429">
        <ele>428.14213308666</ele>
        <time>2015-03-31T11:40:03Z</time>
      </trkpt>
      <trkpt lat="43.6266" lon="3.33406">
        <ele>435.95518472908</ele>
        <time>2015-03-31T11:40:35Z</time>
      </trkpt>
      <trkpt lat="43.6266" lon="3.33404">
        <ele>435.95518472908</ele>
        <time>2015-03-31T11:40:41Z</time>
      </trkpt>
      <trkpt lat="43.6266" lon="3.33399">
        <ele>435.95518472908</ele>
        <time>2015-03-31T11:40:47Z</time>
      </trkpt>
      <trkpt lat="43.6266" lon="3.33395">
        <ele>435.95518472908</ele>
        <time>2015-03-31T11:40:50Z</time>
      </trkpt>
      <trkpt lat="43.6266" lon="3.33391">
        <ele>443.26621435504</ele>
        <time>2015-03-31T11:40:55Z</time>
      </trkpt>
      <trkpt lat="43.6266" lon="3.33389">
        <ele>443.26621435504</ele>
        <time>2015-03-31T11:41:00Z</time>
      </trkpt>
      <trkpt lat="43.62656" lon="3.3337">
        <ele>450.30492596906</ele>
        <time>2015-03-31T11:41:27Z</time>
      </trkpt>
      <trkpt lat="43.62656" lon="3.33367">
        <ele>450.30492596906</ele>
        <time>2015-03-31T11:41:28Z</time>
      </trkpt>
      <trkpt lat="43.62658" lon="3.33344">
        <ele>457.17043337279</ele>
        <time>2015-03-31T11:41:58Z</time>
      </trkpt>
      <trkpt lat="43.6265" lon="3.33293">
        <ele>464.17203659964</ele>
        <time>2015-03-31T11:42:59Z</time>
      </trkpt>
      <trkpt lat="43.62654" lon="3.3329">
        <ele>464.17203659964</ele>
        <time>2015-03-31T11:43:09Z</time>
      </trkpt>
      <trkpt lat="43.62656" lon="3.33288">
        <ele>464.17203659964</ele>
        <time>2015-03-31T11:43:09Z</time>
      </trkpt>
      <trkpt lat="43.62657" lon="3.33288">
        <ele>464.17203659964</ele>
        <time>2015-03-31T11:43:17Z</time>
      </trkpt>
      <trkpt lat="43.62657" lon="3.33277">
        <ele>471.27970379284</ele>
        <time>2015-03-31T11:44:00Z</time>
      </trkpt>
      <trkpt lat="43.62658" lon="3.33273">
        <ele>471.27970379284</ele>
        <time>2015-03-31T11:44:06Z</time>
      </trkpt>
      <trkpt lat="43.62657" lon="3.3327">
        <ele>471.27970379284</ele>
        <time>2015-03-31T11:44:08Z</time>
      </trkpt>
      <trkpt lat="43.62655" lon="3.33267">
        <ele>471.27970379284</ele>
        <time>2015-03-31T11:44:15Z</time>
      </trkpt>
      <trkpt lat="43.62655" lon="3.33265">
        <ele>478.01938038004</ele>
        <time>2015-03-31T11:44:18Z</time>
      </trkpt>
      <trkpt lat="43.62654" lon="3.33262">
        <ele>478.01938038004</ele>
        <time>2015-03-31T11:44:23Z</time>
      </trkpt>
      <trkpt lat="43.62644" lon="3.33245">
        <ele>484.38600998921</ele>
        <time>2015-03-31T11:44:48Z</time>
      </trkpt>
      <trkpt lat="43.62643" lon="3.33244">
        <ele>484.38600998921</ele>
        <time>2015-03-31T11:44:57Z</time>
      </trkpt>
      <trkpt lat="43.6264" lon="3.3324">
        <ele>484.38600998921</ele>
        <time>2015-03-31T11:44:58Z</time>
      </trkpt>
      <trkpt lat="43.62633" lon="3.33232">
        <ele>490.34793133797</ele>
        <time>2015-03-31T11:45:24Z</time>
      </trkpt>
      <trkpt lat="43.62636" lon="3.33236">
        <ele>490.34793133797</ele>
        <time>2015-03-31T11:46:19Z</time>
      </trkpt>
      <trkpt lat="43.62637" lon="3.33241">
        <ele>490.34793133797</ele>
        <time>2015-03-31T11:46:29Z</time>
      </trkpt>
      <trkpt lat="43.62638" lon="3.33248">
        <ele>496.52623209751</ele>
        <time>2015-03-31T11:46:41Z</time>
      </trkpt>
      <trkpt lat="43.62634" lon="3.33259">
        <ele>496.52623209751</ele>
        <time>2015-03-31T11:47:43Z</time>
      </trkpt>
      <trkpt lat="43.62637" lon="3.33253">
        <ele>502.5598166303</ele>
        <time>2015-03-31T11:48:41Z</time>
      </trkpt>
      <trkpt lat="43.62634" lon="3.33254">
        <ele>502.5598166303</ele>
        <time>2015-03-31T11:48:48Z</time>
      </trkpt>
      <trkpt lat="43.62638" lon="3.33246">
        <ele>507.81263995885</ele>
        <time>2015-03-31T11:48:54Z</time>
      </trkpt>
      <trkpt lat="43.62639" lon="3.33244">
        <ele>507.81263995885</ele>
        <time>2015-03-31T11:48:59Z</time>
      </trkpt>
      <trkpt lat="43.62639" lon="3.33243">
        <ele>507.81263995885</ele>
        <time>2015-03-31T11:49:05Z</time>
      </trkpt>
      <trkpt lat="43.6263" lon="3.3325">
        <ele>512.86560237494</ele>
        <time>2015-03-31T11:52:53Z</time>
      </trkpt>
      <trkpt lat="43.62638" lon="3.33244">
        <ele>512.86560237494</ele>
        <time>2015-03-31T11:54:45Z</time>
      </trkpt>
      <trkpt lat="43.62631" lon="3.33235">
        <ele>517.5376416379</ele>
        <time>2015-03-31T12:00:59Z</time>
      </trkpt>
      <trkpt lat="43.62631" lon="3.33235">
        <ele>517.5376416379</ele>
        <time>2015-03-31T12:01:03Z</time>
      </trkpt>
      <trkpt lat="43.62623" lon="3.33235">
        <ele>517.5376416379</ele>
        <time>2015-03-31T12:01:43Z</time>
      </trkpt>
      <trkpt lat="43.62619" lon="3.33236">
        <ele>521.4609856107</ele>
        <time>2015-03-31T12:01:48Z</time>
      </trkpt>
      <trkpt lat="43.62613" lon="3.33239">
        <ele>521.4609856107</ele>
        <time>2015-03-31T12:02:00Z</time>
      </trkpt>
      <trkpt lat="43.62609" lon="3.33241">
        <ele>524.68672213765</ele>
        <time>2015-03-31T12:02:00Z</time>
      </trkpt>
      <trkpt lat="43.62605" lon="3.33244">
        <ele>524.68672213765</ele>
        <time>2015-03-31T12:02:03Z</time>
      </trkpt>
      <trkpt lat="43.62601" lon="3.33245">
        <ele>524.68672213765</ele>
        <time>2015-03-31T12:02:08Z</time>
      </trkpt>
      <trkpt lat="43.62596" lon="3.33248">
        <ele>527.26474874763</ele>
        <time>2015-03-31T12:02:17Z</time>
      </trkpt>
      <trkpt lat="43.62593" lon="3.3325">
        <ele>527.26474874763</ele>
        <time>2015-03-31T12:02:18Z</time>
      </trkpt>
      <trkpt lat="43.62568" lon="3.33288">
        <ele>529.08515574356</ele>
        <time>2015-03-31T12:03:08Z</time>
      </trkpt>
      <trkpt lat="43.62572" lon="3.33298">
        <ele>529.08515574356</ele>
        <time>2015-03-31T12:03:17Z</time>
      </trkpt>
      <trkpt lat="43.62573" lon="3.33318">
        <ele>530.35138344889</ele>
        <time>2015-03-31T12:03:30Z</time>
      </trkpt>
      <trkpt lat="43.62573" lon="3.3332">
        <ele>530.35138344889</ele>
        <time>2015-03-31T12:03:33Z</time>
      </trkpt>
      <trkpt lat="43.62559" lon="3.33355">
        <ele>531.06660508867</ele>
        <time>2015-03-31T12:04:03Z</time>
      </trkpt>
      <trkpt lat="43.62553" lon="3.33362">
        <ele>531.06660508867</ele>
        <time>2015-03-31T12:04:11Z</time>
      </trkpt>
      <trkpt lat="43.62549" lon="3.33366">
        <ele>531.46629961778</ele>
        <time>2015-03-31T12:04:19Z</time>
      </trkpt>
      <trkpt lat="43.62524" lon="3.33403">
        <ele>531.61137222094</ele>
        <time>2015-03-31T12:04:57Z</time>
      </trkpt>
      <trkpt lat="43.6252" lon="3.33404">
        <ele>531.61137222094</ele>
        <time>2015-03-31T12:04:57Z</time>
      </trkpt>
      <trkpt lat="43.62513" lon="3.33405">
        <ele>531.35752002205</ele>
        <time>2015-03-31T12:05:03Z</time>
      </trkpt>
      <trkpt lat="43.62485" lon="3.33427">
        <ele>530.2841898246</ele>
        <time>2015-03-31T12:05:38Z</time>
      </trkpt>
      <trkpt lat="43.62479" lon="3.33429">
        <ele>530.2841898246</ele>
        <time>2015-03-31T12:05:43Z</time>
      </trkpt>
      <trkpt lat="43.62472" lon="3.33429">
        <ele>528.68154076293</ele>
        <time>2015-03-31T12:05:48Z</time>
      </trkpt>
      <trkpt lat="43.62468" lon="3.33431">
        <ele>528.68154076293</ele>
        <time>2015-03-31T12:05:53Z</time>
      </trkpt>
      <trkpt lat="43.62464" lon="3.33436">
        <ele>526.51740966978</ele>
        <time>2015-03-31T12:05:58Z</time>
      </trkpt>
      <trkpt lat="43.62461" lon="3.3344">
        <ele>526.51740966978</ele>
        <time>2015-03-31T12:06:03Z</time>
      </trkpt>
      <trkpt lat="43.62459" lon="3.33444">
        <ele>526.51740966978</ele>
        <time>2015-03-31T12:06:08Z</time>
      </trkpt>
      <trkpt lat="43.62454" lon="3.33448">
        <ele>523.61954367311</ele>
        <time>2015-03-31T12:06:13Z</time>
      </trkpt>
      <trkpt lat="43.62451" lon="3.3345">
        <ele>523.61954367311</ele>
        <time>2015-03-31T12:06:18Z</time>
      </trkpt>
      <trkpt lat="43.62449" lon="3.33456">
        <ele>523.61954367311</ele>
        <time>2015-03-31T12:06:23Z</time>
      </trkpt>
      <trkpt lat="43.62448" lon="3.33464">
        <ele>520.17629364057</ele>
        <time>2015-03-31T12:06:28Z</time>
      </trkpt>
      <trkpt lat="43.6244" lon="3.33484">
        <ele>515.91692484195</ele>
        <time>2015-03-31T12:06:51Z</time>
      </trkpt>
      <trkpt lat="43.62439" lon="3.33487">
        <ele>515.91692484195</ele>
        <time>2015-03-31T12:07:00Z</time>
      </trkpt>
      <trkpt lat="43.62428" lon="3.33497">
        <ele>510.8089509659</ele>
        <time>2015-03-31T12:07:07Z</time>
      </trkpt>
      <trkpt lat="43.62416" lon="3.3351">
        <ele>505.25682865469</ele>
        <time>2015-03-31T12:07:27Z</time>
      </trkpt>
      <trkpt lat="43.62408" lon="3.33516">
        <ele>498.78607303386</ele>
        <time>2015-03-31T12:07:41Z</time>
      </trkpt>
      <trkpt lat="43.62403" lon="3.33517">
        <ele>498.78607303386</ele>
        <time>2015-03-31T12:07:43Z</time>
      </trkpt>
      <trkpt lat="43.62396" lon="3.33522">
        <ele>492.21311583196</ele>
        <time>2015-03-31T12:08:00Z</time>
      </trkpt>
      <trkpt lat="43.62379" lon="3.33531">
        <ele>485.27116699562</ele>
        <time>2015-03-31T12:08:08Z</time>
      </trkpt>
      <trkpt lat="43.62364" lon="3.33553">
        <ele>478.073943703</ele>
        <time>2015-03-31T12:08:37Z</time>
      </trkpt>
      <trkpt lat="43.62363" lon="3.33554">
        <ele>478.073943703</ele>
        <time>2015-03-31T12:08:41Z</time>
      </trkpt>
      <trkpt lat="43.62359" lon="3.33556">
        <ele>478.073943703</ele>
        <time>2015-03-31T12:08:46Z</time>
      </trkpt>
      <trkpt lat="43.62345" lon="3.33574">
        <ele>470.98646562952</ele>
        <time>2015-03-31T12:08:59Z</time>
      </trkpt>
      <trkpt lat="43.62341" lon="3.33581">
        <ele>470.98646562952</ele>
        <time>2015-03-31T12:09:06Z</time>
      </trkpt>
      <trkpt lat="43.6233" lon="3.33595">
        <ele>463.9281963377</ele>
        <time>2015-03-31T12:09:27Z</time>
      </trkpt>
      <trkpt lat="43.62329" lon="3.33595">
        <ele>463.9281963377</ele>
        <time>2015-03-31T12:09:27Z</time>
      </trkpt>
      <trkpt lat="43.62328" lon="3.33596">
        <ele>463.9281963377</ele>
        <time>2015-03-31T12:09:29Z</time>
      </trkpt>
      <trkpt lat="43.62305" lon="3.33628">
        <ele>456.70858580341</ele>
        <time>2015-03-31T12:10:00Z</time>
      </trkpt>
      <trkpt lat="43.62303" lon="3.33629">
        <ele>456.70858580341</ele>
        <time>2015-03-31T12:10:01Z</time>
      </trkpt>
      <trkpt lat="43.62298" lon="3.33632">
        <ele>456.70858580341</ele>
        <time>2015-03-31T12:10:14Z</time>
      </trkpt>
      <trkpt lat="43.62284" lon="3.33644">
        <ele>449.42474439701</ele>
        <time>2015-03-31T12:10:27Z</time>
      </trkpt>
      <trkpt lat="43.62283" lon="3.33644">
        <ele>449.42474439701</ele>
        <time>2015-03-31T12:10:30Z</time>
      </trkpt>
      <trkpt lat="43.62263" lon="3.33654">
        <ele>442.3103019175</ele>
        <time>2015-03-31T12:10:52Z</time>
      </trkpt>
      <trkpt lat="43.62259" lon="3.33655">
        <ele>442.3103019175</ele>
        <time>2015-03-31T12:10:53Z</time>
      </trkpt>
      <trkpt lat="43.62246" lon="3.33669">
        <ele>435.37882451679</ele>
        <time>2015-03-31T12:11:05Z</time>
      </trkpt>
      <trkpt lat="43.62241" lon="3.33674">
        <ele>435.37882451679</ele>
        <time>2015-03-31T12:11:08Z</time>
      </trkpt>
      <trkpt lat="43.62236" lon="3.33696">
        <ele>428.36785916415</ele>
        <time>2015-03-31T12:11:39Z</time>
      </trkpt>
      <trkpt lat="43.62236" lon="3.33708">
        <ele>428.36785916415</ele>
        <time>2015-03-31T12:11:48Z</time>
      </trkpt>
      <trkpt lat="43.62235" lon="3.33711">
        <ele>421.84075781735</ele>
        <time>2015-03-31T12:12:00Z</time>
      </trkpt>
      <trkpt lat="43.62233" lon="3.33724">
        <ele>415.75536145706</ele>
        <time>2015-03-31T12:12:04Z</time>
      </trkpt>
      <trkpt lat="43.62228" lon="3.33743">
        <ele>409.73916563005</ele>
        <time>2015-03-31T12:12:30Z</time>
      </trkpt>
      <trkpt lat="43.62228" lon="3.33751">
        <ele>409.73916563005</ele>
        <time>2015-03-31T12:13:00Z</time>
      </trkpt>
      <trkpt lat="43.6222" lon="3.33759">
        <ele>403.59019293293</ele>
        <time>2015-03-31T12:13:06Z</time>
      </trkpt>
      <trkpt lat="43.62219" lon="3.33761">
        <ele>403.59019293293</ele>
        <time>2015-03-31T12:13:08Z</time>
      </trkpt>
      <trkpt lat="43.62203" lon="3.3378">
        <ele>397.76942039205</ele>
        <time>2015-03-31T12:13:28Z</time>
      </trkpt>
      <trkpt lat="43.62199" lon="3.33783">
        <ele>397.76942039205</ele>
        <time>2015-03-31T12:13:42Z</time>
      </trkpt>
      <trkpt lat="43.62188" lon="3.33795">
        <ele>392.28436578055</ele>
        <time>2015-03-31T12:13:55Z</time>
      </trkpt>
      <trkpt lat="43.62183" lon="3.338">
        <ele>392.28436578055</ele>
        <time>2015-03-31T12:14:00Z</time>
      </trkpt>
      <trkpt lat="43.62178" lon="3.33802">
        <ele>387.29882836307</ele>
        <time>2015-03-31T12:14:03Z</time>
      </trkpt>
      <trkpt lat="43.62175" lon="3.33806">
        <ele>387.29882836307</ele>
        <time>2015-03-31T12:14:09Z</time>
      </trkpt>
      <trkpt lat="43.62175" lon="3.33806">
        <ele>387.29882836307</ele>
        <time>2015-03-31T12:14:15Z</time>
      </trkpt>
      <trkpt lat="43.62165" lon="3.3381">
        <ele>381.88160216018</ele>
        <time>2015-03-31T12:14:43Z</time>
      </trkpt>
      <trkpt lat="43.62149" lon="3.33825">
        <ele>376.7555961011</ele>
        <time>2015-03-31T12:14:58Z</time>
      </trkpt>
      <trkpt lat="43.62144" lon="3.33827">
        <ele>376.7555961011</ele>
        <time>2015-03-31T12:15:06Z</time>
      </trkpt>
      <trkpt lat="43.62143" lon="3.33833">
        <ele>371.11915301489</ele>
        <time>2015-03-31T12:15:53Z</time>
      </trkpt>
      <trkpt lat="43.62142" lon="3.33835">
        <ele>371.11915301489</ele>
        <time>2015-03-31T12:15:58Z</time>
      </trkpt>
      <trkpt lat="43.62142" lon="3.33836">
        <ele>371.11915301489</ele>
        <time>2015-03-31T12:16:03Z</time>
      </trkpt>
      <trkpt lat="43.62139" lon="3.33843">
        <ele>371.11915301489</ele>
        <time>2015-03-31T12:16:18Z</time>
      </trkpt>
      <trkpt lat="43.6214" lon="3.33846">
        <ele>365.65694191855</ele>
        <time>2015-03-31T12:16:23Z</time>
      </trkpt>
      <trkpt lat="43.62143" lon="3.3385">
        <ele>365.65694191855</ele>
        <time>2015-03-31T12:16:28Z</time>
      </trkpt>
      <trkpt lat="43.62147" lon="3.33853">
        <ele>365.65694191855</ele>
        <time>2015-03-31T12:16:33Z</time>
      </trkpt>
      <trkpt lat="43.62147" lon="3.33854">
        <ele>365.65694191855</ele>
        <time>2015-03-31T12:16:38Z</time>
      </trkpt>
      <trkpt lat="43.6215" lon="3.33858">
        <ele>360.23837827421</ele>
        <time>2015-03-31T12:16:58Z</time>
      </trkpt>
      <trkpt lat="43.62149" lon="3.3386">
        <ele>360.23837827421</ele>
        <time>2015-03-31T12:17:03Z</time>
      </trkpt>
      <trkpt lat="43.62146" lon="3.33862">
        <ele>360.23837827421</ele>
        <time>2015-03-31T12:17:08Z</time>
      </trkpt>
      <trkpt lat="43.62143" lon="3.33865">
        <ele>355.26048459122</ele>
        <time>2015-03-31T12:17:13Z</time>
      </trkpt>
      <trkpt lat="43.62135" lon="3.33881">
        <ele>350.75778176876</ele>
        <time>2015-03-31T12:17:28Z</time>
      </trkpt>
      <trkpt lat="43.6213" lon="3.33922">
        <ele>346.08297540848</ele>
        <time>2015-03-31T12:18:05Z</time>
      </trkpt>
      <trkpt lat="43.6213" lon="3.33927">
        <ele>346.08297540848</ele>
        <time>2015-03-31T12:18:08Z</time>
      </trkpt>
      <trkpt lat="43.62125" lon="3.33936">
        <ele>341.70262585646</ele>
        <time>2015-03-31T12:18:24Z</time>
      </trkpt>
      <trkpt lat="43.62121" lon="3.33941">
        <ele>341.70262585646</ele>
        <time>2015-03-31T12:18:38Z</time>
      </trkpt>
      <trkpt lat="43.62121" lon="3.33942">
        <ele>341.70262585646</ele>
        <time>2015-03-31T12:18:44Z</time>
      </trkpt>
      <trkpt lat="43.62111" lon="3.33954">
        <ele>336.95237300506</ele>
        <time>2015-03-31T12:19:05Z</time>
      </trkpt>
      <trkpt lat="43.6211" lon="3.33956">
        <ele>336.95237300506</ele>
        <time>2015-03-31T12:19:14Z</time>
      </trkpt>
      <trkpt lat="43.62131" lon="3.34024">
        <ele>331.63506764263</ele>
        <time>2015-03-31T12:20:08Z</time>
      </trkpt>
      <trkpt lat="43.62134" lon="3.34101">
        <ele>323.91182078112</ele>
        <time>2015-03-31T12:21:07Z</time>
      </trkpt>
      <trkpt lat="43.62142" lon="3.34119">
        <ele>316.65338040909</ele>
        <time>2015-03-31T12:21:56Z</time>
      </trkpt>
      <trkpt lat="43.62154" lon="3.34168">
        <ele>307.74771343719</ele>
        <time>2015-03-31T12:22:07Z</time>
      </trkpt>
      <trkpt lat="43.62152" lon="3.34172">
        <ele>307.74771343719</ele>
        <time>2015-03-31T12:22:13Z</time>
      </trkpt>
      <trkpt lat="43.62142" lon="3.34212">
        <ele>298.81599967274</ele>
        <time>2015-03-31T12:22:46Z</time>
      </trkpt>
      <trkpt lat="43.62137" lon="3.3424">
        <ele>290.22140578294</ele>
        <time>2015-03-31T12:23:00Z</time>
      </trkpt>
      <trkpt lat="43.62134" lon="3.34248">
        <ele>290.22140578294</ele>
        <time>2015-03-31T12:23:07Z</time>
      </trkpt>
      <trkpt lat="43.62134" lon="3.34248">
        <ele>290.22140578294</ele>
        <time>2015-03-31T12:23:08Z</time>
      </trkpt>
      <trkpt lat="43.62119" lon="3.34279">
        <ele>280.75696286517</ele>
        <time>2015-03-31T12:24:08Z</time>
      </trkpt>
      <trkpt lat="43.62122" lon="3.34309">
        <ele>272.17409077599</ele>
        <time>2015-03-31T12:25:06Z</time>
      </trkpt>
      <trkpt lat="43.6212" lon="3.34306">
        <ele>272.17409077599</ele>
        <time>2015-03-31T12:25:08Z</time>
      </trkpt>
      <trkpt lat="43.62119" lon="3.34303">
        <ele>272.17409077599</ele>
        <time>2015-03-31T12:25:19Z</time>
      </trkpt>
      <trkpt lat="43.62108" lon="3.34305">
        <ele>264.23351565133</ele>
        <time>2015-03-31T12:25:31Z</time>
      </trkpt>
      <trkpt lat="43.62097" lon="3.34337">
        <ele>256.88414648364</ele>
        <time>2015-03-31T12:26:07Z</time>
      </trkpt>
      <trkpt lat="43.62097" lon="3.34337">
        <ele>256.88414648364</ele>
        <time>2015-03-31T12:26:08Z</time>
      </trkpt>
      <trkpt lat="43.62097" lon="3.34339">
        <ele>256.88414648364</ele>
        <time>2015-03-31T12:26:13Z</time>
      </trkpt>
      <trkpt lat="43.62097" lon="3.3434">
        <ele>256.88414648364</ele>
        <time>2015-03-31T12:26:53Z</time>
      </trkpt>
      <trkpt lat="43.62103" lon="3.34344">
        <ele>250.37910293117</ele>
        <time>2015-03-31T12:26:58Z</time>
      </trkpt>
      <trkpt lat="43.62107" lon="3.34345">
        <ele>250.37910293117</ele>
        <time>2015-03-31T12:27:03Z</time>
      </trkpt>
      <trkpt lat="43.62112" lon="3.34348">
        <ele>244.8347513928</ele>
        <time>2015-03-31T12:27:08Z</time>
      </trkpt>
      <trkpt lat="43.6212" lon="3.34349">
        <ele>244.8347513928</ele>
        <time>2015-03-31T12:27:13Z</time>
      </trkpt>
      <trkpt lat="43.62125" lon="3.34353">
        <ele>240.06751340283</ele>
        <time>2015-03-31T12:27:18Z</time>
      </trkpt>
      <trkpt lat="43.62129" lon="3.34358">
        <ele>240.06751340283</ele>
        <time>2015-03-31T12:27:23Z</time>
      </trkpt>
      <trkpt lat="43.62135" lon="3.34366">
        <ele>236.0199545831</ele>
        <time>2015-03-31T12:27:30Z</time>
      </trkpt>
      <trkpt lat="43.62138" lon="3.34368">
        <ele>236.0199545831</ele>
        <time>2015-03-31T12:27:34Z</time>
      </trkpt>
      <trkpt lat="43.62143" lon="3.34372">
        <ele>232.65083635898</ele>
        <time>2015-03-31T12:27:39Z</time>
      </trkpt>
      <trkpt lat="43.62148" lon="3.34378">
        <ele>232.65083635898</ele>
        <time>2015-03-31T12:27:43Z</time>
      </trkpt>
      <trkpt lat="43.62149" lon="3.34384">
        <ele>229.93408177124</ele>
        <time>2015-03-31T12:27:48Z</time>
      </trkpt>
      <trkpt lat="43.62148" lon="3.34389">
        <ele>229.93408177124</ele>
        <time>2015-03-31T12:27:53Z</time>
      </trkpt>
      <trkpt lat="43.62148" lon="3.34395">
        <ele>229.93408177124</ele>
        <time>2015-03-31T12:27:58Z</time>
      </trkpt>
      <trkpt lat="43.62146" lon="3.34402">
        <ele>227.82895641437</ele>
        <time>2015-03-31T12:28:03Z</time>
      </trkpt>
      <trkpt lat="43.62146" lon="3.34409">
        <ele>227.82895641437</ele>
        <time>2015-03-31T12:28:08Z</time>
      </trkpt>
      <trkpt lat="43.62144" lon="3.34415">
        <ele>226.33895091217</ele>
        <time>2015-03-31T12:28:13Z</time>
      </trkpt>
      <trkpt lat="43.62143" lon="3.34421">
        <ele>226.33895091217</ele>
        <time>2015-03-31T12:28:18Z</time>
      </trkpt>
      <trkpt lat="43.62139" lon="3.34431">
        <ele>225.39328298632</ele>
        <time>2015-03-31T12:28:23Z</time>
      </trkpt>
      <trkpt lat="43.62137" lon="3.3444">
        <ele>225.39328298632</ele>
        <time>2015-03-31T12:28:28Z</time>
      </trkpt>
      <trkpt lat="43.62133" lon="3.34447">
        <ele>224.92465905251</ele>
        <time>2015-03-31T12:28:33Z</time>
      </trkpt>
      <trkpt lat="43.62131" lon="3.34452">
        <ele>224.92465905251</ele>
        <time>2015-03-31T12:28:38Z</time>
      </trkpt>
      <trkpt lat="43.62131" lon="3.34454">
        <ele>224.92465905251</ele>
        <time>2015-03-31T12:28:43Z</time>
      </trkpt>
      <trkpt lat="43.62129" lon="3.34462">
        <ele>224.36486933751</ele>
        <time>2015-03-31T12:29:03Z</time>
      </trkpt>
      <trkpt lat="43.62126" lon="3.34465">
        <ele>224.36486933751</ele>
        <time>2015-03-31T12:29:08Z</time>
      </trkpt>
      <trkpt lat="43.62122" lon="3.34471">
        <ele>224.21080889144</ele>
        <time>2015-03-31T12:29:13Z</time>
      </trkpt>
      <trkpt lat="43.62117" lon="3.34477">
        <ele>224.21080889144</ele>
        <time>2015-03-31T12:29:18Z</time>
      </trkpt>
      <trkpt lat="43.62112" lon="3.34481">
        <ele>224.40290279121</ele>
        <time>2015-03-31T12:29:23Z</time>
      </trkpt>
      <trkpt lat="43.62108" lon="3.34483">
        <ele>224.40290279121</ele>
        <time>2015-03-31T12:29:30Z</time>
      </trkpt>
      <trkpt lat="43.621" lon="3.34488">
        <ele>224.88500052157</ele>
        <time>2015-03-31T12:29:35Z</time>
      </trkpt>
      <trkpt lat="43.62096" lon="3.34491">
        <ele>224.88500052157</ele>
        <time>2015-03-31T12:29:38Z</time>
      </trkpt>
      <trkpt lat="43.62087" lon="3.34498">
        <ele>225.58991829288</ele>
        <time>2015-03-31T12:29:46Z</time>
      </trkpt>
      <trkpt lat="43.62074" lon="3.34511">
        <ele>226.42607290689</ele>
        <time>2015-03-31T12:29:58Z</time>
      </trkpt>
      <trkpt lat="43.62071" lon="3.34519">
        <ele>226.42607290689</ele>
        <time>2015-03-31T12:30:05Z</time>
      </trkpt>
      <trkpt lat="43.6207" lon="3.34521">
        <ele>226.42607290689</ele>
        <time>2015-03-31T12:30:08Z</time>
      </trkpt>
      <trkpt lat="43.62067" lon="3.34525">
        <ele>227.49574204415</ele>
        <time>2015-03-31T12:30:13Z</time>
      </trkpt>
      <trkpt lat="43.62066" lon="3.34525">
        <ele>227.49574204415</ele>
        <time>2015-03-31T12:30:18Z</time>
      </trkpt>
      <trkpt lat="43.62063" lon="3.34525">
        <ele>227.49574204415</ele>
        <time>2015-03-31T12:30:48Z</time>
      </trkpt>
      <trkpt lat="43.62059" lon="3.34521">
        <ele>227.49574204415</ele>
        <time>2015-03-31T12:30:56Z</time>
      </trkpt>
      <trkpt lat="43.62059" lon="3.34523">
        <ele>228.83558975097</ele>
        <time>2015-03-31T12:31:03Z</time>
      </trkpt>
      <trkpt lat="43.62057" lon="3.34521">
        <ele>228.83558975097</ele>
        <time>2015-03-31T12:31:13Z</time>
      </trkpt>
      <trkpt lat="43.62053" lon="3.34514">
        <ele>228.83558975097</ele>
        <time>2015-03-31T12:31:18Z</time>
      </trkpt>
      <trkpt lat="43.62052" lon="3.34506">
        <ele>230.16202327648</ele>
        <time>2015-03-31T12:31:23Z</time>
      </trkpt>
      <trkpt lat="43.62051" lon="3.345">
        <ele>230.16202327648</ele>
        <time>2015-03-31T12:31:32Z</time>
      </trkpt>
      <trkpt lat="43.62049" lon="3.34492">
        <ele>231.57287441034</ele>
        <time>2015-03-31T12:31:33Z</time>
      </trkpt>
      <trkpt lat="43.62042" lon="3.34466">
        <ele>233.04357373687</ele>
        <time>2015-03-31T12:31:48Z</time>
      </trkpt>
      <trkpt lat="43.62036" lon="3.34447">
        <ele>234.58035413564</ele>
        <time>2015-03-31T12:32:00Z</time>
      </trkpt>
      <trkpt lat="43.62036" lon="3.34444">
        <ele>234.58035413564</ele>
        <time>2015-03-31T12:32:06Z</time>
      </trkpt>
      <trkpt lat="43.62033" lon="3.34437">
        <ele>234.58035413564</ele>
        <time>2015-03-31T12:32:08Z</time>
      </trkpt>
      <trkpt lat="43.62031" lon="3.3443">
        <ele>236.23241067595</ele>
        <time>2015-03-31T12:32:13Z</time>
      </trkpt>
      <trkpt lat="43.62028" lon="3.34424">
        <ele>236.23241067595</ele>
        <time>2015-03-31T12:32:18Z</time>
      </trkpt>
      <trkpt lat="43.62026" lon="3.34416">
        <ele>237.93011059907</ele>
        <time>2015-03-31T12:32:23Z</time>
      </trkpt>
      <trkpt lat="43.62022" lon="3.34407">
        <ele>237.93011059907</ele>
        <time>2015-03-31T12:32:28Z</time>
      </trkpt>
      <trkpt lat="43.62015" lon="3.34401">
        <ele>239.73893041115</ele>
        <time>2015-03-31T12:32:43Z</time>
      </trkpt>
      <trkpt lat="43.61984" lon="3.34394">
        <ele>241.54673492503</ele>
        <time>2015-03-31T12:33:05Z</time>
      </trkpt>
      <trkpt lat="43.61981" lon="3.34392">
        <ele>241.54673492503</ele>
        <time>2015-03-31T12:33:08Z</time>
      </trkpt>
      <trkpt lat="43.61976" lon="3.34376">
        <ele>243.26450217795</ele>
        <time>2015-03-31T12:33:21Z</time>
      </trkpt>
      <trkpt lat="43.61966" lon="3.34363">
        <ele>244.88253549835</ele>
        <time>2015-03-31T12:33:29Z</time>
      </trkpt>
      <trkpt lat="43.61965" lon="3.34361">
        <ele>244.88253549835</ele>
        <time>2015-03-31T12:33:40Z</time>
      </trkpt>
      <trkpt lat="43.6196" lon="3.34356">
        <ele>244.88253549835</ele>
        <time>2015-03-31T12:33:40Z</time>
      </trkpt>
      <trkpt lat="43.61949" lon="3.3435">
        <ele>246.07557556454</ele>
        <time>2015-03-31T12:34:01Z</time>
      </trkpt>
      <trkpt lat="43.61947" lon="3.34349">
        <ele>246.07557556454</ele>
        <time>2015-03-31T12:34:03Z</time>
      </trkpt>
      <trkpt lat="43.61942" lon="3.34346">
        <ele>246.07557556454</ele>
        <time>2015-03-31T12:34:08Z</time>
      </trkpt>
      <trkpt lat="43.61917" lon="3.34319">
        <ele>247.0339248518</ele>
        <time>2015-03-31T12:34:33Z</time>
      </trkpt>
      <trkpt lat="43.61913" lon="3.3431">
        <ele>247.0339248518</ele>
        <time>2015-03-31T12:34:39Z</time>
      </trkpt>
      <trkpt lat="43.61912" lon="3.34306">
        <ele>247.96388988793</ele>
        <time>2015-03-31T12:34:44Z</time>
      </trkpt>
      <trkpt lat="43.61911" lon="3.34306">
        <ele>247.96388988793</ele>
        <time>2015-03-31T12:34:48Z</time>
      </trkpt>
      <trkpt lat="43.61905" lon="3.34305">
        <ele>247.96388988793</ele>
        <time>2015-03-31T12:35:18Z</time>
      </trkpt>
      <trkpt lat="43.61899" lon="3.34307">
        <ele>248.94191709626</ele>
        <time>2015-03-31T12:35:23Z</time>
      </trkpt>
      <trkpt lat="43.61895" lon="3.34304">
        <ele>248.94191709626</ele>
        <time>2015-03-31T12:35:28Z</time>
      </trkpt>
      <trkpt lat="43.61896" lon="3.34298">
        <ele>248.94191709626</ele>
        <time>2015-03-31T12:35:33Z</time>
      </trkpt>
      <trkpt lat="43.61896" lon="3.34289">
        <ele>249.86627196377</ele>
        <time>2015-03-31T12:35:38Z</time>
      </trkpt>
      <trkpt lat="43.61895" lon="3.34281">
        <ele>249.86627196377</ele>
        <time>2015-03-31T12:35:43Z</time>
      </trkpt>
      <trkpt lat="43.61893" lon="3.34273">
        <ele>250.85951064805</ele>
        <time>2015-03-31T12:35:48Z</time>
      </trkpt>
      <trkpt lat="43.61888" lon="3.34265">
        <ele>250.85951064805</ele>
        <time>2015-03-31T12:35:54Z</time>
      </trkpt>
      <trkpt lat="43.61884" lon="3.34258">
        <ele>251.90578895322</ele>
        <time>2015-03-31T12:36:05Z</time>
      </trkpt>
      <trkpt lat="43.61879" lon="3.34254">
        <ele>251.90578895322</ele>
        <time>2015-03-31T12:36:05Z</time>
      </trkpt>
      <trkpt lat="43.61876" lon="3.34251">
        <ele>252.88989054166</ele>
        <time>2015-03-31T12:36:08Z</time>
      </trkpt>
      <trkpt lat="43.61871" lon="3.34248">
        <ele>252.88989054166</ele>
        <time>2015-03-31T12:36:13Z</time>
      </trkpt>
      <trkpt lat="43.61866" lon="3.34244">
        <ele>253.80659921525</ele>
        <time>2015-03-31T12:36:18Z</time>
      </trkpt>
      <trkpt lat="43.61862" lon="3.34237">
        <ele>253.80659921525</ele>
        <time>2015-03-31T12:36:23Z</time>
      </trkpt>
      <trkpt lat="43.61857" lon="3.34231">
        <ele>254.65174767753</ele>
        <time>2015-03-31T12:36:28Z</time>
      </trkpt>
      <trkpt lat="43.61853" lon="3.34226">
        <ele>254.65174767753</ele>
        <time>2015-03-31T12:36:33Z</time>
      </trkpt>
      <trkpt lat="43.61848" lon="3.34221">
        <ele>255.49419908608</ele>
        <time>2015-03-31T12:36:38Z</time>
      </trkpt>
      <trkpt lat="43.61848" lon="3.3422">
        <ele>255.49419908608</ele>
        <time>2015-03-31T12:36:43Z</time>
      </trkpt>
      <trkpt lat="43.61848" lon="3.34222">
        <ele>255.49419908608</ele>
        <time>2015-03-31T12:36:53Z</time>
      </trkpt>
      <trkpt lat="43.61847" lon="3.34222">
        <ele>255.49419908608</ele>
        <time>2015-03-31T12:36:58Z</time>
      </trkpt>
      <trkpt lat="43.61843" lon="3.34223">
        <ele>255.49419908608</ele>
        <time>2015-03-31T12:37:33Z</time>
      </trkpt>
      <trkpt lat="43.6184" lon="3.34216">
        <ele>256.36940154268</ele>
        <time>2015-03-31T12:37:38Z</time>
      </trkpt>
      <trkpt lat="43.61836" lon="3.34211">
        <ele>256.36940154268</ele>
        <time>2015-03-31T12:37:43Z</time>
      </trkpt>
      <trkpt lat="43.61832" lon="3.34202">
        <ele>257.16644365451</ele>
        <time>2015-03-31T12:37:48Z</time>
      </trkpt>
      <trkpt lat="43.6183" lon="3.34194">
        <ele>257.16644365451</ele>
        <time>2015-03-31T12:37:53Z</time>
      </trkpt>
      <trkpt lat="43.61824" lon="3.34184">
        <ele>257.89850575162</ele>
        <time>2015-03-31T12:38:00Z</time>
      </trkpt>
      <trkpt lat="43.6182" lon="3.34182">
        <ele>257.89850575162</ele>
        <time>2015-03-31T12:38:05Z</time>
      </trkpt>
      <trkpt lat="43.61818" lon="3.34181">
        <ele>257.89850575162</ele>
        <time>2015-03-31T12:38:08Z</time>
      </trkpt>
      <trkpt lat="43.61808" lon="3.34181">
        <ele>258.47752805863</ele>
        <time>2015-03-31T12:38:25Z</time>
      </trkpt>
      <trkpt lat="43.6178" lon="3.34173">
        <ele>259.03892611713</ele>
        <time>2015-03-31T12:38:38Z</time>
      </trkpt>
      <trkpt lat="43.61759" lon="3.34141">
        <ele>259.47803568617</ele>
        <time>2015-03-31T12:39:03Z</time>
      </trkpt>
      <trkpt lat="43.61755" lon="3.34136">
        <ele>259.47803568617</ele>
        <time>2015-03-31T12:39:08Z</time>
      </trkpt>
      <trkpt lat="43.61751" lon="3.34132">
        <ele>259.7706607268</ele>
        <time>2015-03-31T12:39:13Z</time>
      </trkpt>
      <trkpt lat="43.61744" lon="3.34126">
        <ele>259.7706607268</ele>
        <time>2015-03-31T12:39:18Z</time>
      </trkpt>
      <trkpt lat="43.61729" lon="3.34113">
        <ele>259.80869152238</ele>
        <time>2015-03-31T12:39:33Z</time>
      </trkpt>
      <trkpt lat="43.61722" lon="3.34105">
        <ele>259.69477718064</ele>
        <time>2015-03-31T12:39:52Z</time>
      </trkpt>
      <trkpt lat="43.6171" lon="3.341">
        <ele>259.53919259129</ele>
        <time>2015-03-31T12:39:56Z</time>
      </trkpt>
      <trkpt lat="43.61696" lon="3.34086">
        <ele>259.60306141802</ele>
        <time>2015-03-31T12:40:08Z</time>
      </trkpt>
      <trkpt lat="43.61693" lon="3.34083">
        <ele>259.60306141802</ele>
        <time>2015-03-31T12:40:13Z</time>
      </trkpt>
      <trkpt lat="43.61688" lon="3.34077">
        <ele>259.85419053971</ele>
        <time>2015-03-31T12:40:19Z</time>
      </trkpt>
      <trkpt lat="43.6168" lon="3.34072">
        <ele>260.11838996731</ele>
        <time>2015-03-31T12:40:24Z</time>
      </trkpt>
      <trkpt lat="43.61641" lon="3.34042">
        <ele>260.26330964727</ele>
        <time>2015-03-31T12:41:08Z</time>
      </trkpt>
      <trkpt lat="43.61601" lon="3.34076">
        <ele>260.1668992912</ele>
        <time>2015-03-31T12:41:43Z</time>
      </trkpt>
      <trkpt lat="43.61596" lon="3.34082">
        <ele>260.1668992912</ele>
        <time>2015-03-31T12:41:48Z</time>
      </trkpt>
      <trkpt lat="43.6159" lon="3.34087">
        <ele>259.94755629222</ele>
        <time>2015-03-31T12:41:53Z</time>
      </trkpt>
      <trkpt lat="43.61586" lon="3.3409">
        <ele>259.94755629222</ele>
        <time>2015-03-31T12:41:58Z</time>
      </trkpt>
      <trkpt lat="43.61577" lon="3.34098">
        <ele>259.75876988453</ele>
        <time>2015-03-31T12:42:07Z</time>
      </trkpt>
      <trkpt lat="43.61576" lon="3.34099">
        <ele>259.75876988453</ele>
        <time>2015-03-31T12:42:08Z</time>
      </trkpt>
      <trkpt lat="43.61566" lon="3.34117">
        <ele>259.56992967541</ele>
        <time>2015-03-31T12:42:19Z</time>
      </trkpt>
      <trkpt lat="43.61564" lon="3.34129">
        <ele>259.56992967541</ele>
        <time>2015-03-31T12:42:27Z</time>
      </trkpt>
      <trkpt lat="43.61564" lon="3.34135">
        <ele>259.19432999331</ele>
        <time>2015-03-31T12:42:31Z</time>
      </trkpt>
      <trkpt lat="43.61565" lon="3.34171">
        <ele>258.12820959061</ele>
        <time>2015-03-31T12:42:48Z</time>
      </trkpt>
      <trkpt lat="43.61566" lon="3.342">
        <ele>256.82920453844</ele>
        <time>2015-03-31T12:43:03Z</time>
      </trkpt>
      <trkpt lat="43.61565" lon="3.34201">
        <ele>256.82920453844</ele>
        <time>2015-03-31T12:43:03Z</time>
      </trkpt>
      <trkpt lat="43.61565" lon="3.34211">
        <ele>256.82920453844</ele>
        <time>2015-03-31T12:43:08Z</time>
      </trkpt>
      <trkpt lat="43.61568" lon="3.34277">
        <ele>254.68450808483</ele>
        <time>2015-03-31T12:43:45Z</time>
      </trkpt>
      <trkpt lat="43.61569" lon="3.34282">
        <ele>254.68450808483</ele>
        <time>2015-03-31T12:43:48Z</time>
      </trkpt>
      <trkpt lat="43.6157" lon="3.3429">
        <ele>252.65638000678</ele>
        <time>2015-03-31T12:43:53Z</time>
      </trkpt>
      <trkpt lat="43.61573" lon="3.34299">
        <ele>252.65638000678</ele>
        <time>2015-03-31T12:43:58Z</time>
      </trkpt>
      <trkpt lat="43.61576" lon="3.34309">
        <ele>250.67059644172</ele>
        <time>2015-03-31T12:44:03Z</time>
      </trkpt>
      <trkpt lat="43.61575" lon="3.3432">
        <ele>250.67059644172</ele>
        <time>2015-03-31T12:44:08Z</time>
      </trkpt>
      <trkpt lat="43.61576" lon="3.3433">
        <ele>248.71596272337</ele>
        <time>2015-03-31T12:44:13Z</time>
      </trkpt>
      <trkpt lat="43.61576" lon="3.3434">
        <ele>248.71596272337</ele>
        <time>2015-03-31T12:44:18Z</time>
      </trkpt>
      <trkpt lat="43.61577" lon="3.34349">
        <ele>246.76763588007</ele>
        <time>2015-03-31T12:44:23Z</time>
      </trkpt>
      <trkpt lat="43.61578" lon="3.34359">
        <ele>246.76763588007</ele>
        <time>2015-03-31T12:44:29Z</time>
      </trkpt>
      <trkpt lat="43.61582" lon="3.34417">
        <ele>244.84582020369</ele>
        <time>2015-03-31T12:44:58Z</time>
      </trkpt>
      <trkpt lat="43.6158" lon="3.34435">
        <ele>243.07002672293</ele>
        <time>2015-03-31T12:45:08Z</time>
      </trkpt>
      <trkpt lat="43.61573" lon="3.34482">
        <ele>241.23350307292</ele>
        <time>2015-03-31T12:45:33Z</time>
      </trkpt>
      <trkpt lat="43.61572" lon="3.34491">
        <ele>241.23350307292</ele>
        <time>2015-03-31T12:45:38Z</time>
      </trkpt>
      <trkpt lat="43.61572" lon="3.345">
        <ele>239.57714322652</ele>
        <time>2015-03-31T12:45:43Z</time>
      </trkpt>
      <trkpt lat="43.61573" lon="3.3451">
        <ele>239.57714322652</ele>
        <time>2015-03-31T12:45:48Z</time>
      </trkpt>
      <trkpt lat="43.61572" lon="3.34519">
        <ele>237.97771398541</ele>
        <time>2015-03-31T12:45:53Z</time>
      </trkpt>
      <trkpt lat="43.6157" lon="3.34529">
        <ele>237.97771398541</ele>
        <time>2015-03-31T12:45:58Z</time>
      </trkpt>
      <trkpt lat="43.61567" lon="3.34538">
        <ele>236.56579350749</ele>
        <time>2015-03-31T12:46:03Z</time>
      </trkpt>
      <trkpt lat="43.61567" lon="3.34549">
        <ele>236.56579350749</ele>
        <time>2015-03-31T12:46:08Z</time>
      </trkpt>
      <trkpt lat="43.61563" lon="3.34557">
        <ele>235.31765050801</ele>
        <time>2015-03-31T12:46:13Z</time>
      </trkpt>
      <trkpt lat="43.61562" lon="3.34568">
        <ele>235.31765050801</ele>
        <time>2015-03-31T12:46:18Z</time>
      </trkpt>
      <trkpt lat="43.61561" lon="3.34576">
        <ele>234.052227592</ele>
        <time>2015-03-31T12:46:23Z</time>
      </trkpt>
      <trkpt lat="43.61562" lon="3.34586">
        <ele>234.052227592</ele>
        <time>2015-03-31T12:46:28Z</time>
      </trkpt>
      <trkpt lat="43.61564" lon="3.34596">
        <ele>232.88994505758</ele>
        <time>2015-03-31T12:46:33Z</time>
      </trkpt>
      <trkpt lat="43.61564" lon="3.34605">
        <ele>232.88994505758</ele>
        <time>2015-03-31T12:46:38Z</time>
      </trkpt>
      <trkpt lat="43.61565" lon="3.34613">
        <ele>231.82670120804</ele>
        <time>2015-03-31T12:46:43Z</time>
      </trkpt>
      <trkpt lat="43.61565" lon="3.34619">
        <ele>231.82670120804</ele>
        <time>2015-03-31T12:46:48Z</time>
      </trkpt>
      <trkpt lat="43.61569" lon="3.34632">
        <ele>230.75743919541</ele>
        <time>2015-03-31T12:46:56Z</time>
      </trkpt>
      <trkpt lat="43.6157" lon="3.34635">
        <ele>230.75743919541</ele>
        <time>2015-03-31T12:47:00Z</time>
      </trkpt>
      <trkpt lat="43.61573" lon="3.34654">
        <ele>229.62796673041</ele>
        <time>2015-03-31T12:47:08Z</time>
      </trkpt>
      <trkpt lat="43.61572" lon="3.34656">
        <ele>229.62796673041</ele>
        <time>2015-03-31T12:47:08Z</time>
      </trkpt>
      <trkpt lat="43.61572" lon="3.34664">
        <ele>229.62796673041</ele>
        <time>2015-03-31T12:47:13Z</time>
      </trkpt>
      <trkpt lat="43.61572" lon="3.34672">
        <ele>228.50342567102</ele>
        <time>2015-03-31T12:47:18Z</time>
      </trkpt>
      <trkpt lat="43.61572" lon="3.3468">
        <ele>228.50342567102</ele>
        <time>2015-03-31T12:47:23Z</time>
      </trkpt>
      <trkpt lat="43.61572" lon="3.34688">
        <ele>227.37199743543</ele>
        <time>2015-03-31T12:47:28Z</time>
      </trkpt>
      <trkpt lat="43.61573" lon="3.34697">
        <ele>227.37199743543</ele>
        <time>2015-03-31T12:47:33Z</time>
      </trkpt>
      <trkpt lat="43.61576" lon="3.34706">
        <ele>226.1938220593</ele>
        <time>2015-03-31T12:47:38Z</time>
      </trkpt>
      <trkpt lat="43.61579" lon="3.3472">
        <ele>225.07610275103</ele>
        <time>2015-03-31T12:47:43Z</time>
      </trkpt>
      <trkpt lat="43.61581" lon="3.34728">
        <ele>225.07610275103</ele>
        <time>2015-03-31T12:47:48Z</time>
      </trkpt>
      <trkpt lat="43.61583" lon="3.34737">
        <ele>224.00260173659</ele>
        <time>2015-03-31T12:47:53Z</time>
      </trkpt>
      <trkpt lat="43.61585" lon="3.34746">
        <ele>224.00260173659</ele>
        <time>2015-03-31T12:47:58Z</time>
      </trkpt>
      <trkpt lat="43.61587" lon="3.34757">
        <ele>223.00127639451</ele>
        <time>2015-03-31T12:48:03Z</time>
      </trkpt>
      <trkpt lat="43.61589" lon="3.34766">
        <ele>223.00127639451</ele>
        <time>2015-03-31T12:48:08Z</time>
      </trkpt>
      <trkpt lat="43.61593" lon="3.34774">
        <ele>221.99684404151</ele>
        <time>2015-03-31T12:48:13Z</time>
      </trkpt>
      <trkpt lat="43.61596" lon="3.34782">
        <ele>221.99684404151</ele>
        <time>2015-03-31T12:48:18Z</time>
      </trkpt>
      <trkpt lat="43.61598" lon="3.3479">
        <ele>221.00592311219</ele>
        <time>2015-03-31T12:48:23Z</time>
      </trkpt>
      <trkpt lat="43.61601" lon="3.34797">
        <ele>221.00592311219</ele>
        <time>2015-03-31T12:48:33Z</time>
      </trkpt>
      <trkpt lat="43.61613" lon="3.34815">
        <ele>219.97171511382</ele>
        <time>2015-03-31T12:48:44Z</time>
      </trkpt>
      <trkpt lat="43.6162" lon="3.34824">
        <ele>218.91367034237</ele>
        <time>2015-03-31T12:49:00Z</time>
      </trkpt>
      <trkpt lat="43.61639" lon="3.3484">
        <ele>217.63361150711</ele>
        <time>2015-03-31T12:49:07Z</time>
      </trkpt>
      <trkpt lat="43.61641" lon="3.3484">
        <ele>217.63361150711</ele>
        <time>2015-03-31T12:49:08Z</time>
      </trkpt>
      <trkpt lat="43.61647" lon="3.34847">
        <ele>216.42401165912</ele>
        <time>2015-03-31T12:49:23Z</time>
      </trkpt>
      <trkpt lat="43.61658" lon="3.34869">
        <ele>215.32498760258</ele>
        <time>2015-03-31T12:49:36Z</time>
      </trkpt>
      <trkpt lat="43.61661" lon="3.34903">
        <ele>214.80563915167</ele>
        <time>2015-03-31T12:49:48Z</time>
      </trkpt>
      <trkpt lat="43.6166" lon="3.34923">
        <ele>214.59274607053</ele>
        <time>2015-03-31T12:50:07Z</time>
      </trkpt>
      <trkpt lat="43.6166" lon="3.34933">
        <ele>214.59274607053</ele>
        <time>2015-03-31T12:50:08Z</time>
      </trkpt>
      <trkpt lat="43.61663" lon="3.34945">
        <ele>214.72043841908</ele>
        <time>2015-03-31T12:50:21Z</time>
      </trkpt>
      <trkpt lat="43.61662" lon="3.34959">
        <ele>215.11843194865</ele>
        <time>2015-03-31T12:50:27Z</time>
      </trkpt>
      <trkpt lat="43.61662" lon="3.3497">
        <ele>215.11843194865</ele>
        <time>2015-03-31T12:50:28Z</time>
      </trkpt>
      <trkpt lat="43.61669" lon="3.34989">
        <ele>216.03782982952</ele>
        <time>2015-03-31T12:50:43Z</time>
      </trkpt>
      <trkpt lat="43.61693" lon="3.35031">
        <ele>216.97481140541</ele>
        <time>2015-03-31T12:51:08Z</time>
      </trkpt>
      <trkpt lat="43.617" lon="3.35038">
        <ele>216.97481140541</ele>
        <time>2015-03-31T12:51:14Z</time>
      </trkpt>
      <trkpt lat="43.61724" lon="3.35079">
        <ele>217.76511678814</ele>
        <time>2015-03-31T12:51:49Z</time>
      </trkpt>
      <trkpt lat="43.61737" lon="3.351">
        <ele>218.47311168433</ele>
        <time>2015-03-31T12:51:58Z</time>
      </trkpt>
      <trkpt lat="43.61741" lon="3.35108">
        <ele>218.47311168433</ele>
        <time>2015-03-31T12:52:03Z</time>
      </trkpt>
      <trkpt lat="43.61746" lon="3.35115">
        <ele>219.072192424</ele>
        <time>2015-03-31T12:52:08Z</time>
      </trkpt>
      <trkpt lat="43.61751" lon="3.35121">
        <ele>219.072192424</ele>
        <time>2015-03-31T12:52:13Z</time>
      </trkpt>
      <trkpt lat="43.61755" lon="3.3513">
        <ele>219.61007745431</ele>
        <time>2015-03-31T12:52:18Z</time>
      </trkpt>
      <trkpt lat="43.61759" lon="3.35137">
        <ele>219.61007745431</ele>
        <time>2015-03-31T12:52:23Z</time>
      </trkpt>
      <trkpt lat="43.61763" lon="3.35145">
        <ele>220.04470176949</ele>
        <time>2015-03-31T12:52:28Z</time>
      </trkpt>
      <trkpt lat="43.61767" lon="3.35152">
        <ele>220.04470176949</ele>
        <time>2015-03-31T12:52:33Z</time>
      </trkpt>
      <trkpt lat="43.61771" lon="3.35158">
        <ele>220.59680617034</ele>
        <time>2015-03-31T12:52:38Z</time>
      </trkpt>
      <trkpt lat="43.61775" lon="3.35166">
        <ele>220.59680617034</ele>
        <time>2015-03-31T12:52:43Z</time>
      </trkpt>
      <trkpt lat="43.61781" lon="3.35172">
        <ele>221.15357572791</ele>
        <time>2015-03-31T12:52:48Z</time>
      </trkpt>
      <trkpt lat="43.61784" lon="3.3518">
        <ele>221.15357572791</ele>
        <time>2015-03-31T12:52:53Z</time>
      </trkpt>
      <trkpt lat="43.61787" lon="3.35187">
        <ele>221.639332931</ele>
        <time>2015-03-31T12:52:58Z</time>
      </trkpt>
      <trkpt lat="43.6179" lon="3.35194">
        <ele>221.639332931</ele>
        <time>2015-03-31T12:53:03Z</time>
      </trkpt>
      <trkpt lat="43.61794" lon="3.35201">
        <ele>222.08508381143</ele>
        <time>2015-03-31T12:53:08Z</time>
      </trkpt>
      <trkpt lat="43.61798" lon="3.35207">
        <ele>222.08508381143</ele>
        <time>2015-03-31T12:53:13Z</time>
      </trkpt>
      <trkpt lat="43.61805" lon="3.35213">
        <ele>222.56295532188</ele>
        <time>2015-03-31T12:53:18Z</time>
      </trkpt>
      <trkpt lat="43.61808" lon="3.3522">
        <ele>222.56295532188</ele>
        <time>2015-03-31T12:53:23Z</time>
      </trkpt>
      <trkpt lat="43.61813" lon="3.35226">
        <ele>223.02445493174</ele>
        <time>2015-03-31T12:53:28Z</time>
      </trkpt>
      <trkpt lat="43.61817" lon="3.35232">
        <ele>223.02445493174</ele>
        <time>2015-03-31T12:53:33Z</time>
      </trkpt>
      <trkpt lat="43.61819" lon="3.3524">
        <ele>223.42476037738</ele>
        <time>2015-03-31T12:53:38Z</time>
      </trkpt>
      <trkpt lat="43.61822" lon="3.35249">
        <ele>223.42476037738</ele>
        <time>2015-03-31T12:53:43Z</time>
      </trkpt>
      <trkpt lat="43.61825" lon="3.35256">
        <ele>223.76581256786</ele>
        <time>2015-03-31T12:53:48Z</time>
      </trkpt>
      <trkpt lat="43.61829" lon="3.35262">
        <ele>223.76581256786</ele>
        <time>2015-03-31T12:53:53Z</time>
      </trkpt>
      <trkpt lat="43.61831" lon="3.35271">
        <ele>223.94876628092</ele>
        <time>2015-03-31T12:53:58Z</time>
      </trkpt>
      <trkpt lat="43.6183" lon="3.35277">
        <ele>223.94876628092</ele>
        <time>2015-03-31T12:54:03Z</time>
      </trkpt>
      <trkpt lat="43.61828" lon="3.35286">
        <ele>224.14195070444</ele>
        <time>2015-03-31T12:54:08Z</time>
      </trkpt>
      <trkpt lat="43.61828" lon="3.35296">
        <ele>224.14195070444</ele>
        <time>2015-03-31T12:54:13Z</time>
      </trkpt>
      <trkpt lat="43.61828" lon="3.35305">
        <ele>224.40049374194</ele>
        <time>2015-03-31T12:54:18Z</time>
      </trkpt>
      <trkpt lat="43.61828" lon="3.35315">
        <ele>224.40049374194</ele>
        <time>2015-03-31T12:54:23Z</time>
      </trkpt>
      <trkpt lat="43.61827" lon="3.35325">
        <ele>224.74653913759</ele>
        <time>2015-03-31T12:54:28Z</time>
      </trkpt>
      <trkpt lat="43.61827" lon="3.35334">
        <ele>224.74653913759</ele>
        <time>2015-03-31T12:54:33Z</time>
      </trkpt>
      <trkpt lat="43.61827" lon="3.3534">
        <ele>225.1139632209</ele>
        <time>2015-03-31T12:54:38Z</time>
      </trkpt>
      <trkpt lat="43.61828" lon="3.3535">
        <ele>225.1139632209</ele>
        <time>2015-03-31T12:54:43Z</time>
      </trkpt>
      <trkpt lat="43.61829" lon="3.35353">
        <ele>225.3694558429</ele>
        <time>2015-03-31T12:54:48Z</time>
      </trkpt>
      <trkpt lat="43.61833" lon="3.35362">
        <ele>225.3694558429</ele>
        <time>2015-03-31T12:55:13Z</time>
      </trkpt>
      <trkpt lat="43.61833" lon="3.3537">
        <ele>225.11607348345</ele>
        <time>2015-03-31T12:55:18Z</time>
      </trkpt>
      <trkpt lat="43.61837" lon="3.35378">
        <ele>225.11607348345</ele>
        <time>2015-03-31T12:55:23Z</time>
      </trkpt>
      <trkpt lat="43.61838" lon="3.35386">
        <ele>224.79455115285</ele>
        <time>2015-03-31T12:55:28Z</time>
      </trkpt>
      <trkpt lat="43.61839" lon="3.35394">
        <ele>224.79455115285</ele>
        <time>2015-03-31T12:55:33Z</time>
      </trkpt>
      <trkpt lat="43.61844" lon="3.35405">
        <ele>224.35234900027</ele>
        <time>2015-03-31T12:55:38Z</time>
      </trkpt>
      <trkpt lat="43.61847" lon="3.35415">
        <ele>224.35234900027</ele>
        <time>2015-03-31T12:55:43Z</time>
      </trkpt>
      <trkpt lat="43.61849" lon="3.35424">
        <ele>223.91411975086</ele>
        <time>2015-03-31T12:55:48Z</time>
      </trkpt>
      <trkpt lat="43.61852" lon="3.35432">
        <ele>223.91411975086</ele>
        <time>2015-03-31T12:55:53Z</time>
      </trkpt>
      <trkpt lat="43.61856" lon="3.3544">
        <ele>223.40805886335</ele>
        <time>2015-03-31T12:55:58Z</time>
      </trkpt>
      <trkpt lat="43.61861" lon="3.35449">
        <ele>223.40805886335</ele>
        <time>2015-03-31T12:56:03Z</time>
      </trkpt>
      <trkpt lat="43.61862" lon="3.35457">
        <ele>222.91198737971</ele>
        <time>2015-03-31T12:56:08Z</time>
      </trkpt>
      <trkpt lat="43.61861" lon="3.35466">
        <ele>222.91198737971</ele>
        <time>2015-03-31T12:56:13Z</time>
      </trkpt>
      <trkpt lat="43.6186" lon="3.35474">
        <ele>222.3250915994</ele>
        <time>2015-03-31T12:56:18Z</time>
      </trkpt>
      <trkpt lat="43.61859" lon="3.3548">
        <ele>222.3250915994</ele>
        <time>2015-03-31T12:56:23Z</time>
      </trkpt>
      <trkpt lat="43.61859" lon="3.35481">
        <ele>222.3250915994</ele>
        <time>2015-03-31T12:56:28Z</time>
      </trkpt>
      <trkpt lat="43.61855" lon="3.35487">
        <ele>221.55425543184</ele>
        <time>2015-03-31T12:56:33Z</time>
      </trkpt>
      <trkpt lat="43.61851" lon="3.35494">
        <ele>221.55425543184</ele>
        <time>2015-03-31T12:56:38Z</time>
      </trkpt>
      <trkpt lat="43.6185" lon="3.35501">
        <ele>220.77314983135</ele>
        <time>2015-03-31T12:56:43Z</time>
      </trkpt>
      <trkpt lat="43.61849" lon="3.35508">
        <ele>220.77314983135</ele>
        <time>2015-03-31T12:56:48Z</time>
      </trkpt>
      <trkpt lat="43.61848" lon="3.35516">
        <ele>220.01304088229</ele>
        <time>2015-03-31T12:56:53Z</time>
      </trkpt>
      <trkpt lat="43.61844" lon="3.35524">
        <ele>220.01304088229</ele>
        <time>2015-03-31T12:56:58Z</time>
      </trkpt>
      <trkpt lat="43.6184" lon="3.35532">
        <ele>219.28844545725</ele>
        <time>2015-03-31T12:57:03Z</time>
      </trkpt>
      <trkpt lat="43.61838" lon="3.3554">
        <ele>219.28844545725</ele>
        <time>2015-03-31T12:57:08Z</time>
      </trkpt>
      <trkpt lat="43.61837" lon="3.35547">
        <ele>218.69919265574</ele>
        <time>2015-03-31T12:57:13Z</time>
      </trkpt>
      <trkpt lat="43.61834" lon="3.35554">
        <ele>218.69919265574</ele>
        <time>2015-03-31T12:57:18Z</time>
      </trkpt>
      <trkpt lat="43.61832" lon="3.35561">
        <ele>218.13564914697</ele>
        <time>2015-03-31T12:57:23Z</time>
      </trkpt>
      <trkpt lat="43.61836" lon="3.35568">
        <ele>218.13564914697</ele>
        <time>2015-03-31T12:57:28Z</time>
      </trkpt>
      <trkpt lat="43.6184" lon="3.35575">
        <ele>217.553809287</ele>
        <time>2015-03-31T12:57:33Z</time>
      </trkpt>
      <trkpt lat="43.61843" lon="3.35583">
        <ele>217.553809287</ele>
        <time>2015-03-31T12:57:38Z</time>
      </trkpt>
      <trkpt lat="43.61845" lon="3.35591">
        <ele>217.02823832334</ele>
        <time>2015-03-31T12:57:43Z</time>
      </trkpt>
      <trkpt lat="43.61849" lon="3.356">
        <ele>217.02823832334</ele>
        <time>2015-03-31T12:57:48Z</time>
      </trkpt>
      <trkpt lat="43.6185" lon="3.35604">
        <ele>216.59903889512</ele>
        <time>2015-03-31T12:57:53Z</time>
      </trkpt>
      <trkpt lat="43.61851" lon="3.35612">
        <ele>216.59903889512</ele>
        <time>2015-03-31T12:57:58Z</time>
      </trkpt>
      <trkpt lat="43.61857" lon="3.35616">
        <ele>216.31750122322</ele>
        <time>2015-03-31T12:58:03Z</time>
      </trkpt>
      <trkpt lat="43.61858" lon="3.35617">
        <ele>216.31750122322</ele>
        <time>2015-03-31T12:58:08Z</time>
      </trkpt>
      <trkpt lat="43.6186" lon="3.35613">
        <ele>216.31750122322</ele>
        <time>2015-03-31T12:58:13Z</time>
      </trkpt>
      <trkpt lat="43.61861" lon="3.3561">
        <ele>216.31750122322</ele>
        <time>2015-03-31T12:58:18Z</time>
      </trkpt>
      <trkpt lat="43.61862" lon="3.35606">
        <ele>216.23072502998</ele>
        <time>2015-03-31T12:58:23Z</time>
      </trkpt>
      <trkpt lat="43.61867" lon="3.35614">
        <ele>216.23072502998</ele>
        <time>2015-03-31T12:58:28Z</time>
      </trkpt>
      <trkpt lat="43.61871" lon="3.35621">
        <ele>216.25209508857</ele>
        <time>2015-03-31T12:58:33Z</time>
      </trkpt>
      <trkpt lat="43.61875" lon="3.35626">
        <ele>216.25209508857</ele>
        <time>2015-03-31T12:58:38Z</time>
      </trkpt>
      <trkpt lat="43.61877" lon="3.3563">
        <ele>216.27222554145</ele>
        <time>2015-03-31T12:58:43Z</time>
      </trkpt>
      <trkpt lat="43.61877" lon="3.35632">
        <ele>216.27222554145</ele>
        <time>2015-03-31T12:58:48Z</time>
      </trkpt>
      <trkpt lat="43.61883" lon="3.35634">
        <ele>216.27222554145</ele>
        <time>2015-03-31T12:59:03Z</time>
      </trkpt>
      <trkpt lat="43.61882" lon="3.35642">
        <ele>216.17535205386</ele>
        <time>2015-03-31T12:59:08Z</time>
      </trkpt>
      <trkpt lat="43.61889" lon="3.35641">
        <ele>216.17535205386</ele>
        <time>2015-03-31T12:59:13Z</time>
      </trkpt>
      <trkpt lat="43.61898" lon="3.35636">
        <ele>215.94100439197</ele>
        <time>2015-03-31T12:59:18Z</time>
      </trkpt>
      <trkpt lat="43.61902" lon="3.35637">
        <ele>215.94100439197</ele>
        <time>2015-03-31T12:59:23Z</time>
      </trkpt>
      <trkpt lat="43.61906" lon="3.35637">
        <ele>215.94100439197</ele>
        <time>2015-03-31T12:59:28Z</time>
      </trkpt>
      <trkpt lat="43.6191" lon="3.35637">
        <ele>215.91087624337</ele>
        <time>2015-03-31T12:59:33Z</time>
      </trkpt>
      <trkpt lat="43.61915" lon="3.35638">
        <ele>215.91087624337</ele>
        <time>2015-03-31T12:59:38Z</time>
      </trkpt>
      <trkpt lat="43.6192" lon="3.35639">
        <ele>216.06953013101</ele>
        <time>2015-03-31T12:59:43Z</time>
      </trkpt>
      <trkpt lat="43.61927" lon="3.35638">
        <ele>216.06953013101</ele>
        <time>2015-03-31T12:59:48Z</time>
      </trkpt>
      <trkpt lat="43.61932" lon="3.35639">
        <ele>216.56065546159</ele>
        <time>2015-03-31T12:59:53Z</time>
      </trkpt>
      <trkpt lat="43.61937" lon="3.35638">
        <ele>216.56065546159</ele>
        <time>2015-03-31T12:59:58Z</time>
      </trkpt>
      <trkpt lat="43.61942" lon="3.35638">
        <ele>216.98324537074</ele>
        <time>2015-03-31T13:00:03Z</time>
      </trkpt>
      <trkpt lat="43.61947" lon="3.35633">
        <ele>216.98324537074</ele>
        <time>2015-03-31T13:00:08Z</time>
      </trkpt>
      <trkpt lat="43.61952" lon="3.35629">
        <ele>217.45592802073</ele>
        <time>2015-03-31T13:00:13Z</time>
      </trkpt>
      <trkpt lat="43.61954" lon="3.35626">
        <ele>217.45592802073</ele>
        <time>2015-03-31T13:00:18Z</time>
      </trkpt>
      <trkpt lat="43.61958" lon="3.35625">
        <ele>217.45592802073</ele>
        <time>2015-03-31T13:00:23Z</time>
      </trkpt>
      <trkpt lat="43.61964" lon="3.35628">
        <ele>217.92996600667</ele>
        <time>2015-03-31T13:00:28Z</time>
      </trkpt>
      <trkpt lat="43.61969" lon="3.35628">
        <ele>217.92996600667</ele>
        <time>2015-03-31T13:00:33Z</time>
      </trkpt>
      <trkpt lat="43.61972" lon="3.3563">
        <ele>217.92996600667</ele>
        <time>2015-03-31T13:00:38Z</time>
      </trkpt>
      <trkpt lat="43.61976" lon="3.35632">
        <ele>218.5043258453</ele>
        <time>2015-03-31T13:00:43Z</time>
      </trkpt>
      <trkpt lat="43.61979" lon="3.35633">
        <ele>218.5043258453</ele>
        <time>2015-03-31T13:00:48Z</time>
      </trkpt>
      <trkpt lat="43.61984" lon="3.35635">
        <ele>218.5043258453</ele>
        <time>2015-03-31T13:00:53Z</time>
      </trkpt>
      <trkpt lat="43.61987" lon="3.35636">
        <ele>219.16956574982</ele>
        <time>2015-03-31T13:00:58Z</time>
      </trkpt>
      <trkpt lat="43.6199" lon="3.35634">
        <ele>219.16956574982</ele>
        <time>2015-03-31T13:01:03Z</time>
      </trkpt>
      <trkpt lat="43.61993" lon="3.35632">
        <ele>219.16956574982</ele>
        <time>2015-03-31T13:01:08Z</time>
      </trkpt>
      <trkpt lat="43.61996" lon="3.35631">
        <ele>219.94553058334</ele>
        <time>2015-03-31T13:01:13Z</time>
      </trkpt>
      <trkpt lat="43.62" lon="3.35633">
        <ele>219.94553058334</ele>
        <time>2015-03-31T13:01:18Z</time>
      </trkpt>
      <trkpt lat="43.62004" lon="3.35637">
        <ele>220.83591655632</ele>
        <time>2015-03-31T13:01:23Z</time>
      </trkpt>
      <trkpt lat="43.62012" lon="3.35646">
        <ele>221.6853412051</ele>
        <time>2015-03-31T13:01:28Z</time>
      </trkpt>
      <trkpt lat="43.62017" lon="3.35653">
        <ele>221.6853412051</ele>
        <time>2015-03-31T13:01:33Z</time>
      </trkpt>
      <trkpt lat="43.62021" lon="3.35657">
        <ele>222.43645918255</ele>
        <time>2015-03-31T13:01:38Z</time>
      </trkpt>
      <trkpt lat="43.62022" lon="3.35658">
        <ele>222.43645918255</ele>
        <time>2015-03-31T13:01:43Z</time>
      </trkpt>
      <trkpt lat="43.62023" lon="3.35661">
        <ele>222.43645918255</ele>
        <time>2015-03-31T13:01:48Z</time>
      </trkpt>
      <trkpt lat="43.62023" lon="3.35661">
        <ele>222.43645918255</ele>
        <time>2015-03-31T13:01:53Z</time>
      </trkpt>
      <trkpt lat="43.6202" lon="3.35678">
        <ele>222.77705860406</ele>
        <time>2015-03-31T13:02:23Z</time>
      </trkpt>
      <trkpt lat="43.62018" lon="3.35689">
        <ele>222.77705860406</ele>
        <time>2015-03-31T13:02:33Z</time>
      </trkpt>
      <trkpt lat="43.62018" lon="3.35691">
        <ele>223.09638468635</ele>
        <time>2015-03-31T13:02:38Z</time>
      </trkpt>
      <trkpt lat="43.62022" lon="3.35671">
        <ele>223.25080869677</ele>
        <time>2015-03-31T13:02:53Z</time>
      </trkpt>
      <trkpt lat="43.62026" lon="3.35671">
        <ele>223.25080869677</ele>
        <time>2015-03-31T13:02:58Z</time>
      </trkpt>
      <trkpt lat="43.62031" lon="3.3567">
        <ele>223.25080869677</ele>
        <time>2015-03-31T13:03:03Z</time>
      </trkpt>
      <trkpt lat="43.62033" lon="3.35668">
        <ele>223.56892022161</ele>
        <time>2015-03-31T13:03:09Z</time>
      </trkpt>
      <trkpt lat="43.62034" lon="3.35677">
        <ele>223.56892022161</ele>
        <time>2015-03-31T13:03:48Z</time>
      </trkpt>
      <trkpt lat="43.62043" lon="3.35685">
        <ele>223.89360410304</ele>
        <time>2015-03-31T13:04:03Z</time>
      </trkpt>
      <trkpt lat="43.62048" lon="3.35687">
        <ele>223.89360410304</ele>
        <time>2015-03-31T13:04:03Z</time>
      </trkpt>
      <trkpt lat="43.62049" lon="3.35688">
        <ele>223.89360410304</ele>
        <time>2015-03-31T13:04:07Z</time>
      </trkpt>
      <trkpt lat="43.62053" lon="3.35689">
        <ele>224.20901553131</ele>
        <time>2015-03-31T13:04:08Z</time>
      </trkpt>
      <trkpt lat="43.62058" lon="3.35692">
        <ele>224.20901553131</ele>
        <time>2015-03-31T13:04:13Z</time>
      </trkpt>
      <trkpt lat="43.62079" lon="3.35696">
        <ele>224.28437864978</ele>
        <time>2015-03-31T13:04:47Z</time>
      </trkpt>
      <trkpt lat="43.62085" lon="3.35692">
        <ele>224.28437864978</ele>
        <time>2015-03-31T13:04:48Z</time>
      </trkpt>
      <trkpt lat="43.62092" lon="3.35689">
        <ele>224.38215475117</ele>
        <time>2015-03-31T13:04:57Z</time>
      </trkpt>
      <trkpt lat="43.62095" lon="3.35688">
        <ele>224.38215475117</ele>
        <time>2015-03-31T13:04:58Z</time>
      </trkpt>
      <trkpt lat="43.62107" lon="3.35682">
        <ele>224.57257099877</ele>
        <time>2015-03-31T13:05:06Z</time>
      </trkpt>
      <trkpt lat="43.62109" lon="3.35682">
        <ele>224.57257099877</ele>
        <time>2015-03-31T13:05:08Z</time>
      </trkpt>
      <trkpt lat="43.62111" lon="3.35679">
        <ele>224.57257099877</ele>
        <time>2015-03-31T13:05:13Z</time>
      </trkpt>
      <trkpt lat="43.62113" lon="3.35676">
        <ele>224.57257099877</ele>
        <time>2015-03-31T13:05:18Z</time>
      </trkpt>
      <trkpt lat="43.62119" lon="3.35678">
        <ele>224.94929863581</ele>
        <time>2015-03-31T13:05:23Z</time>
      </trkpt>
      <trkpt lat="43.62123" lon="3.35679">
        <ele>224.94929863581</ele>
        <time>2015-03-31T13:05:28Z</time>
      </trkpt>
      <trkpt lat="43.62127" lon="3.35679">
        <ele>224.94929863581</ele>
        <time>2015-03-31T13:05:33Z</time>
      </trkpt>
      <trkpt lat="43.62132" lon="3.35678">
        <ele>225.36806634825</ele>
        <time>2015-03-31T13:05:38Z</time>
      </trkpt>
      <trkpt lat="43.62135" lon="3.35679">
        <ele>225.36806634825</ele>
        <time>2015-03-31T13:05:43Z</time>
      </trkpt>
      <trkpt lat="43.6214" lon="3.35681">
        <ele>225.36806634825</ele>
        <time>2015-03-31T13:05:48Z</time>
      </trkpt>
      <trkpt lat="43.62147" lon="3.35684">
        <ele>225.983343733</ele>
        <time>2015-03-31T13:05:53Z</time>
      </trkpt>
      <trkpt lat="43.62149" lon="3.35688">
        <ele>225.983343733</ele>
        <time>2015-03-31T13:05:58Z</time>
      </trkpt>
      <trkpt lat="43.62153" lon="3.35692">
        <ele>225.983343733</ele>
        <time>2015-03-31T13:06:13Z</time>
      </trkpt>
      <trkpt lat="43.62154" lon="3.35693">
        <ele>226.93774108974</ele>
        <time>2015-03-31T13:06:18Z</time>
      </trkpt>
      <trkpt lat="43.62156" lon="3.35693">
        <ele>226.93774108974</ele>
        <time>2015-03-31T13:06:23Z</time>
      </trkpt>
      <trkpt lat="43.6216" lon="3.35694">
        <ele>226.93774108974</ele>
        <time>2015-03-31T13:06:28Z</time>
      </trkpt>
      <trkpt lat="43.62162" lon="3.35694">
        <ele>226.93774108974</ele>
        <time>2015-03-31T13:06:39Z</time>
      </trkpt>
      <trkpt lat="43.62165" lon="3.35692">
        <ele>227.54104808104</ele>
        <time>2015-03-31T13:06:48Z</time>
      </trkpt>
      <trkpt lat="43.62169" lon="3.3569">
        <ele>227.54104808104</ele>
        <time>2015-03-31T13:07:33Z</time>
      </trkpt>
      <trkpt lat="43.62169" lon="3.3569">
        <ele>227.54104808104</ele>
        <time>2015-03-31T13:07:38Z</time>
      </trkpt>
      <trkpt lat="43.62174" lon="3.35687">
        <ele>227.87533916241</ele>
        <time>2015-03-31T13:07:49Z</time>
      </trkpt>
      <trkpt lat="43.62173" lon="3.35683">
        <ele>227.87533916241</ele>
        <time>2015-03-31T13:08:07Z</time>
      </trkpt>
      <trkpt lat="43.62171" lon="3.35682">
        <ele>227.87533916241</ele>
        <time>2015-03-31T13:08:08Z</time>
      </trkpt>
      <trkpt lat="43.62172" lon="3.35681">
        <ele>227.87533916241</ele>
        <time>2015-03-31T13:08:33Z</time>
      </trkpt>
      <trkpt lat="43.62176" lon="3.35679">
        <ele>227.90216728552</ele>
        <time>2015-03-31T13:08:38Z</time>
      </trkpt>
      <trkpt lat="43.62179" lon="3.3568">
        <ele>227.90216728552</ele>
        <time>2015-03-31T13:08:43Z</time>
      </trkpt>
      <trkpt lat="43.62183" lon="3.3568">
        <ele>227.90216728552</ele>
        <time>2015-03-31T13:08:48Z</time>
      </trkpt>
      <trkpt lat="43.62186" lon="3.3568">
        <ele>227.99032444245</ele>
        <time>2015-03-31T13:08:53Z</time>
      </trkpt>
      <trkpt lat="43.62189" lon="3.35681">
        <ele>227.99032444245</ele>
        <time>2015-03-31T13:08:58Z</time>
      </trkpt>
      <trkpt lat="43.6219" lon="3.35681">
        <ele>227.99032444245</ele>
        <time>2015-03-31T13:09:03Z</time>
      </trkpt>
      <trkpt lat="43.62192" lon="3.35685">
        <ele>227.99032444245</ele>
        <time>2015-03-31T13:09:18Z</time>
      </trkpt>
      <trkpt lat="43.62195" lon="3.35687">
        <ele>228.236389016</ele>
        <time>2015-03-31T13:09:23Z</time>
      </trkpt>
      <trkpt lat="43.62199" lon="3.3569">
        <ele>228.236389016</ele>
        <time>2015-03-31T13:09:28Z</time>
      </trkpt>
      <trkpt lat="43.62219" lon="3.35702">
        <ele>229.16177229191</ele>
        <time>2015-03-31T13:10:08Z</time>
      </trkpt>
      <trkpt lat="43.6222" lon="3.35702">
        <ele>229.16177229191</ele>
        <time>2015-03-31T13:10:16Z</time>
      </trkpt>
      <trkpt lat="43.62225" lon="3.35704">
        <ele>229.16177229191</ele>
        <time>2015-03-31T13:10:35Z</time>
      </trkpt>
      <trkpt lat="43.62227" lon="3.35705">
        <ele>229.16177229191</ele>
        <time>2015-03-31T13:10:40Z</time>
      </trkpt>
      <trkpt lat="43.62231" lon="3.35707">
        <ele>230.49833618723</ele>
        <time>2015-03-31T13:10:43Z</time>
      </trkpt>
      <trkpt lat="43.62236" lon="3.3571">
        <ele>230.49833618723</ele>
        <time>2015-03-31T13:10:48Z</time>
      </trkpt>
      <trkpt lat="43.62238" lon="3.3571">
        <ele>230.49833618723</ele>
        <time>2015-03-31T13:10:53Z</time>
      </trkpt>
      <trkpt lat="43.62239" lon="3.35715">
        <ele>231.79476987074</ele>
        <time>2015-03-31T13:10:58Z</time>
      </trkpt>
      <trkpt lat="43.62241" lon="3.35718">
        <ele>231.79476987074</ele>
        <time>2015-03-31T13:11:03Z</time>
      </trkpt>
      <trkpt lat="43.62242" lon="3.35718">
        <ele>231.79476987074</ele>
        <time>2015-03-31T13:11:08Z</time>
      </trkpt>
      <trkpt lat="43.62244" lon="3.35716">
        <ele>231.79476987074</ele>
        <time>2015-03-31T13:11:38Z</time>
      </trkpt>
      <trkpt lat="43.62244" lon="3.3572">
        <ele>233.35362773442</ele>
        <time>2015-03-31T13:11:43Z</time>
      </trkpt>
      <trkpt lat="43.62248" lon="3.35725">
        <ele>233.35362773442</ele>
        <time>2015-03-31T13:11:48Z</time>
      </trkpt>
      <trkpt lat="43.62251" lon="3.35728">
        <ele>234.83487436534</ele>
        <time>2015-03-31T13:11:53Z</time>
      </trkpt>
      <trkpt lat="43.62255" lon="3.35731">
        <ele>234.83487436534</ele>
        <time>2015-03-31T13:11:58Z</time>
      </trkpt>
      <trkpt lat="43.62259" lon="3.35732">
        <ele>234.83487436534</ele>
        <time>2015-03-31T13:12:07Z</time>
      </trkpt>
      <trkpt lat="43.62262" lon="3.35741">
        <ele>236.29841610412</ele>
        <time>2015-03-31T13:12:33Z</time>
      </trkpt>
      <trkpt lat="43.62268" lon="3.35751">
        <ele>237.92957078435</ele>
        <time>2015-03-31T13:12:58Z</time>
      </trkpt>
      <trkpt lat="43.62269" lon="3.35753">
        <ele>237.92957078435</ele>
        <time>2015-03-31T13:13:03Z</time>
      </trkpt>
      <trkpt lat="43.6227" lon="3.35754">
        <ele>237.92957078435</ele>
        <time>2015-03-31T13:13:08Z</time>
      </trkpt>
      <trkpt lat="43.62272" lon="3.35755">
        <ele>237.92957078435</ele>
        <time>2015-03-31T13:13:13Z</time>
      </trkpt>
      <trkpt lat="43.62274" lon="3.35757">
        <ele>237.92957078435</ele>
        <time>2015-03-31T13:13:18Z</time>
      </trkpt>
      <trkpt lat="43.62278" lon="3.35758">
        <ele>239.78435259985</ele>
        <time>2015-03-31T13:13:23Z</time>
      </trkpt>
      <trkpt lat="43.6228" lon="3.35762">
        <ele>239.78435259985</ele>
        <time>2015-03-31T13:13:28Z</time>
      </trkpt>
      <trkpt lat="43.62282" lon="3.35762">
        <ele>239.78435259985</ele>
        <time>2015-03-31T13:13:33Z</time>
      </trkpt>
      <trkpt lat="43.62284" lon="3.35762">
        <ele>239.78435259985</ele>
        <time>2015-03-31T13:13:38Z</time>
      </trkpt>
      <trkpt lat="43.62287" lon="3.35762">
        <ele>241.69794200896</ele>
        <time>2015-03-31T13:13:43Z</time>
      </trkpt>
      <trkpt lat="43.6229" lon="3.35763">
        <ele>241.69794200896</ele>
        <time>2015-03-31T13:13:48Z</time>
      </trkpt>
      <trkpt lat="43.62294" lon="3.35767">
        <ele>241.69794200896</ele>
        <time>2015-03-31T13:13:53Z</time>
      </trkpt>
      <trkpt lat="43.62299" lon="3.35769">
        <ele>243.40225430119</ele>
        <time>2015-03-31T13:13:58Z</time>
      </trkpt>
      <trkpt lat="43.62302" lon="3.35768">
        <ele>243.40225430119</ele>
        <time>2015-03-31T13:14:03Z</time>
      </trkpt>
      <trkpt lat="43.62303" lon="3.35766">
        <ele>243.40225430119</ele>
        <time>2015-03-31T13:14:08Z</time>
      </trkpt>
      <trkpt lat="43.62304" lon="3.35765">
        <ele>243.40225430119</ele>
        <time>2015-03-31T13:14:13Z</time>
      </trkpt>
      <trkpt lat="43.62309" lon="3.3577">
        <ele>244.70721602955</ele>
        <time>2015-03-31T13:14:33Z</time>
      </trkpt>
      <trkpt lat="43.62312" lon="3.35773">
        <ele>244.70721602955</ele>
        <time>2015-03-31T13:14:38Z</time>
      </trkpt>
      <trkpt lat="43.62315" lon="3.35776">
        <ele>244.70721602955</ele>
        <time>2015-03-31T13:14:43Z</time>
      </trkpt>
      <trkpt lat="43.62316" lon="3.35778">
        <ele>246.05760516532</ele>
        <time>2015-03-31T13:14:48Z</time>
      </trkpt>
      <trkpt lat="43.62318" lon="3.3578">
        <ele>246.05760516532</ele>
        <time>2015-03-31T13:14:53Z</time>
      </trkpt>
      <trkpt lat="43.6232" lon="3.35782">
        <ele>246.05760516532</ele>
        <time>2015-03-31T13:14:58Z</time>
      </trkpt>
      <trkpt lat="43.62321" lon="3.35784">
        <ele>246.05760516532</ele>
        <time>2015-03-31T13:15:03Z</time>
      </trkpt>
      <trkpt lat="43.62325" lon="3.35784">
        <ele>247.54844758854</ele>
        <time>2015-03-31T13:15:08Z</time>
      </trkpt>
      <trkpt lat="43.62325" lon="3.35787">
        <ele>247.54844758854</ele>
        <time>2015-03-31T13:15:13Z</time>
      </trkpt>
      <trkpt lat="43.62324" lon="3.35788">
        <ele>247.54844758854</ele>
        <time>2015-03-31T13:15:22Z</time>
      </trkpt>
      <trkpt lat="43.62327" lon="3.35793">
        <ele>247.54844758854</ele>
        <time>2015-03-31T13:15:33Z</time>
      </trkpt>
      <trkpt lat="43.6233" lon="3.35793">
        <ele>249.45483423936</ele>
        <time>2015-03-31T13:15:38Z</time>
      </trkpt>
      <trkpt lat="43.62335" lon="3.35792">
        <ele>249.45483423936</ele>
        <time>2015-03-31T13:15:43Z</time>
      </trkpt>
      <trkpt lat="43.62338" lon="3.35792">
        <ele>249.45483423936</ele>
        <time>2015-03-31T13:15:48Z</time>
      </trkpt>
      <trkpt lat="43.6234" lon="3.35794">
        <ele>251.41090149789</ele>
        <time>2015-03-31T13:15:53Z</time>
      </trkpt>
      <trkpt lat="43.62342" lon="3.35799">
        <ele>251.41090149789</ele>
        <time>2015-03-31T13:15:58Z</time>
      </trkpt>
      <trkpt lat="43.62345" lon="3.35803">
        <ele>251.41090149789</ele>
        <time>2015-03-31T13:16:03Z</time>
      </trkpt>
      <trkpt lat="43.6235" lon="3.35804">
        <ele>253.48113407171</ele>
        <time>2015-03-31T13:16:08Z</time>
      </trkpt>
      <trkpt lat="43.62352" lon="3.35804">
        <ele>253.48113407171</ele>
        <time>2015-03-31T13:16:13Z</time>
      </trkpt>
      <trkpt lat="43.62352" lon="3.35804">
        <ele>253.48113407171</ele>
        <time>2015-03-31T13:16:18Z</time>
      </trkpt>
      <trkpt lat="43.62357" lon="3.3581">
        <ele>255.26390730218</ele>
        <time>2015-03-31T13:17:03Z</time>
      </trkpt>
      <trkpt lat="43.62359" lon="3.35815">
        <ele>255.26390730218</ele>
        <time>2015-03-31T13:17:08Z</time>
      </trkpt>
      <trkpt lat="43.62361" lon="3.35819">
        <ele>255.26390730218</ele>
        <time>2015-03-31T13:17:13Z</time>
      </trkpt>
      <trkpt lat="43.62363" lon="3.35822">
        <ele>256.89240179108</ele>
        <time>2015-03-31T13:17:18Z</time>
      </trkpt>
      <trkpt lat="43.62365" lon="3.35826">
        <ele>256.89240179108</ele>
        <time>2015-03-31T13:17:23Z</time>
      </trkpt>
      <trkpt lat="43.62364" lon="3.35827">
        <ele>256.89240179108</ele>
        <time>2015-03-31T13:17:28Z</time>
      </trkpt>
      <trkpt lat="43.62368" lon="3.3583">
        <ele>256.89240179108</ele>
        <time>2015-03-31T13:17:43Z</time>
      </trkpt>
      <trkpt lat="43.62371" lon="3.35837">
        <ele>258.44732270838</ele>
        <time>2015-03-31T13:17:48Z</time>
      </trkpt>
      <trkpt lat="43.62374" lon="3.35844">
        <ele>258.44732270838</ele>
        <time>2015-03-31T13:17:53Z</time>
      </trkpt>
      <trkpt lat="43.62379" lon="3.35847">
        <ele>259.84523952804</ele>
        <time>2015-03-31T13:17:58Z</time>
      </trkpt>
      <trkpt lat="43.62384" lon="3.35851">
        <ele>259.84523952804</ele>
        <time>2015-03-31T13:18:03Z</time>
      </trkpt>
      <trkpt lat="43.62387" lon="3.35857">
        <ele>261.11027610345</ele>
        <time>2015-03-31T13:18:08Z</time>
      </trkpt>
      <trkpt lat="43.62388" lon="3.35861">
        <ele>261.11027610345</ele>
        <time>2015-03-31T13:18:13Z</time>
      </trkpt>
      <trkpt lat="43.62388" lon="3.35861">
        <ele>261.11027610345</ele>
        <time>2015-03-31T13:18:18Z</time>
      </trkpt>
      <trkpt lat="43.6239" lon="3.35864">
        <ele>261.11027610345</ele>
        <time>2015-03-31T13:18:23Z</time>
      </trkpt>
      <trkpt lat="43.62391" lon="3.35869">
        <ele>262.30849506847</ele>
        <time>2015-03-31T13:18:28Z</time>
      </trkpt>
      <trkpt lat="43.62391" lon="3.35873">
        <ele>262.30849506847</ele>
        <time>2015-03-31T13:18:37Z</time>
      </trkpt>
      <trkpt lat="43.6239" lon="3.35881">
        <ele>262.30849506847</ele>
        <time>2015-03-31T13:19:13Z</time>
      </trkpt>
      <trkpt lat="43.62391" lon="3.35887">
        <ele>263.22758318952</ele>
        <time>2015-03-31T13:19:18Z</time>
      </trkpt>
      <trkpt lat="43.62392" lon="3.35895">
        <ele>263.22758318952</ele>
        <time>2015-03-31T13:19:23Z</time>
      </trkpt>
      <trkpt lat="43.62391" lon="3.35898">
        <ele>263.22758318952</ele>
        <time>2015-03-31T13:19:28Z</time>
      </trkpt>
      <trkpt lat="43.62391" lon="3.35904">
        <ele>264.0031579926</ele>
        <time>2015-03-31T13:19:33Z</time>
      </trkpt>
      <trkpt lat="43.62392" lon="3.35911">
        <ele>264.0031579926</ele>
        <time>2015-03-31T13:19:38Z</time>
      </trkpt>
      <trkpt lat="43.62389" lon="3.35916">
        <ele>264.6316663641</ele>
        <time>2015-03-31T13:19:43Z</time>
      </trkpt>
      <trkpt lat="43.62388" lon="3.35924">
        <ele>264.6316663641</ele>
        <time>2015-03-31T13:19:48Z</time>
      </trkpt>
      <trkpt lat="43.62391" lon="3.35935">
        <ele>265.06707692641</ele>
        <time>2015-03-31T13:19:53Z</time>
      </trkpt>
      <trkpt lat="43.62391" lon="3.35942">
        <ele>265.06707692641</ele>
        <time>2015-03-31T13:19:58Z</time>
      </trkpt>
      <trkpt lat="43.6239" lon="3.35947">
        <ele>265.06707692641</ele>
        <time>2015-03-31T13:20:03Z</time>
      </trkpt>
      <trkpt lat="43.62392" lon="3.35956">
        <ele>265.39705424159</ele>
        <time>2015-03-31T13:20:08Z</time>
      </trkpt>
      <trkpt lat="43.62394" lon="3.35962">
        <ele>265.39705424159</ele>
        <time>2015-03-31T13:20:13Z</time>
      </trkpt>
      <trkpt lat="43.62394" lon="3.35963">
        <ele>265.39705424159</ele>
        <time>2015-03-31T13:20:18Z</time>
      </trkpt>
      <trkpt lat="43.62395" lon="3.35968">
        <ele>265.65994880956</ele>
        <time>2015-03-31T13:20:28Z</time>
      </trkpt>
      <trkpt lat="43.62395" lon="3.3597">
        <ele>265.65994880956</ele>
        <time>2015-03-31T13:20:33Z</time>
      </trkpt>
      <trkpt lat="43.62393" lon="3.35973">
        <ele>265.65994880956</ele>
        <time>2015-03-31T13:20:38Z</time>
      </trkpt>
      <trkpt lat="43.62393" lon="3.35974">
        <ele>265.65994880956</ele>
        <time>2015-03-31T13:20:43Z</time>
      </trkpt>
      <trkpt lat="43.62396" lon="3.35977">
        <ele>265.65994880956</ele>
        <time>2015-03-31T13:21:18Z</time>
      </trkpt>
      <trkpt lat="43.624" lon="3.35979">
        <ele>265.80506869647</ele>
        <time>2015-03-31T13:21:23Z</time>
      </trkpt>
      <trkpt lat="43.62403" lon="3.35981">
        <ele>265.80506869647</ele>
        <time>2015-03-31T13:21:28Z</time>
      </trkpt>
      <trkpt lat="43.62407" lon="3.35981">
        <ele>265.80506869647</ele>
        <time>2015-03-31T13:21:33Z</time>
      </trkpt>
      <trkpt lat="43.6241" lon="3.35984">
        <ele>265.85787468321</ele>
        <time>2015-03-31T13:21:38Z</time>
      </trkpt>
      <trkpt lat="43.62412" lon="3.35986">
        <ele>265.85787468321</ele>
        <time>2015-03-31T13:21:43Z</time>
      </trkpt>
      <trkpt lat="43.62413" lon="3.35988">
        <ele>265.85787468321</ele>
        <time>2015-03-31T13:21:48Z</time>
      </trkpt>
      <trkpt lat="43.62415" lon="3.35991">
        <ele>265.85787468321</ele>
        <time>2015-03-31T13:21:53Z</time>
      </trkpt>
      <trkpt lat="43.62419" lon="3.35997">
        <ele>265.94312666689</ele>
        <time>2015-03-31T13:21:58Z</time>
      </trkpt>
      <trkpt lat="43.62422" lon="3.36">
        <ele>265.94312666689</ele>
        <time>2015-03-31T13:22:03Z</time>
      </trkpt>
      <trkpt lat="43.62425" lon="3.36">
        <ele>265.94312666689</ele>
        <time>2015-03-31T13:22:08Z</time>
      </trkpt>
      <trkpt lat="43.62428" lon="3.36001">
        <ele>266.04665132224</ele>
        <time>2015-03-31T13:22:13Z</time>
      </trkpt>
      <trkpt lat="43.6243" lon="3.36">
        <ele>266.04665132224</ele>
        <time>2015-03-31T13:22:18Z</time>
      </trkpt>
      <trkpt lat="43.62433" lon="3.36003">
        <ele>266.04665132224</ele>
        <time>2015-03-31T13:22:23Z</time>
      </trkpt>
      <trkpt lat="43.62437" lon="3.36004">
        <ele>266.21292285485</ele>
        <time>2015-03-31T13:22:28Z</time>
      </trkpt>
      <trkpt lat="43.6244" lon="3.36004">
        <ele>266.21292285485</ele>
        <time>2015-03-31T13:22:43Z</time>
      </trkpt>
      <trkpt lat="43.62443" lon="3.36003">
        <ele>266.21292285485</ele>
        <time>2015-03-31T13:22:48Z</time>
      </trkpt>
      <trkpt lat="43.62444" lon="3.36003">
        <ele>266.21292285485</ele>
        <time>2015-03-31T13:22:53Z</time>
      </trkpt>
      <trkpt lat="43.62449" lon="3.36">
        <ele>266.45415472243</ele>
        <time>2015-03-31T13:23:03Z</time>
      </trkpt>
      <trkpt lat="43.62451" lon="3.36001">
        <ele>266.45415472243</ele>
        <time>2015-03-31T13:23:09Z</time>
      </trkpt>
      <trkpt lat="43.62452" lon="3.36002">
        <ele>266.45415472243</ele>
        <time>2015-03-31T13:23:15Z</time>
      </trkpt>
      <trkpt lat="43.62455" lon="3.36005">
        <ele>266.45415472243</ele>
        <time>2015-03-31T13:23:38Z</time>
      </trkpt>
      <trkpt lat="43.6247" lon="3.36003">
        <ele>266.96879480322</ele>
        <time>2015-03-31T13:24:13Z</time>
      </trkpt>
      <trkpt lat="43.6247" lon="3.36003">
        <ele>266.96879480322</ele>
        <time>2015-03-31T13:24:24Z</time>
      </trkpt>
      <trkpt lat="43.62483" lon="3.36001">
        <ele>267.53642638078</ele>
        <time>2015-03-31T13:24:33Z</time>
      </trkpt>
      <trkpt lat="43.62485" lon="3.36002">
        <ele>267.53642638078</ele>
        <time>2015-03-31T13:24:38Z</time>
      </trkpt>
      <trkpt lat="43.62488" lon="3.36001">
        <ele>267.53642638078</ele>
        <time>2015-03-31T13:24:43Z</time>
      </trkpt>
      <trkpt lat="43.62491" lon="3.35999">
        <ele>267.53642638078</ele>
        <time>2015-03-31T13:24:48Z</time>
      </trkpt>
      <trkpt lat="43.62492" lon="3.35997">
        <ele>268.12559621222</ele>
        <time>2015-03-31T13:24:53Z</time>
      </trkpt>
      <trkpt lat="43.62493" lon="3.35998">
        <ele>268.12559621222</ele>
        <time>2015-03-31T13:24:58Z</time>
      </trkpt>
      <trkpt lat="43.62497" lon="3.36002">
        <ele>268.12559621222</ele>
        <time>2015-03-31T13:25:18Z</time>
      </trkpt>
      <trkpt lat="43.625" lon="3.36004">
        <ele>268.82237402536</ele>
        <time>2015-03-31T13:25:23Z</time>
      </trkpt>
      <trkpt lat="43.62502" lon="3.36007">
        <ele>268.82237402536</ele>
        <time>2015-03-31T13:25:28Z</time>
      </trkpt>
      <trkpt lat="43.62503" lon="3.36007">
        <ele>268.82237402536</ele>
        <time>2015-03-31T13:25:33Z</time>
      </trkpt>
      <trkpt lat="43.62505" lon="3.36004">
        <ele>268.82237402536</ele>
        <time>2015-03-31T13:25:58Z</time>
      </trkpt>
      <trkpt lat="43.62509" lon="3.36009">
        <ele>269.79265396831</ele>
        <time>2015-03-31T13:26:03Z</time>
      </trkpt>
      <trkpt lat="43.6251" lon="3.36014">
        <ele>269.79265396831</ele>
        <time>2015-03-31T13:26:08Z</time>
      </trkpt>
      <trkpt lat="43.6251" lon="3.36016">
        <ele>269.79265396831</ele>
        <time>2015-03-31T13:26:13Z</time>
      </trkpt>
      <trkpt lat="43.62513" lon="3.36022">
        <ele>270.88672462672</ele>
        <time>2015-03-31T13:26:18Z</time>
      </trkpt>
      <trkpt lat="43.62514" lon="3.36025">
        <ele>270.88672462672</ele>
        <time>2015-03-31T13:26:23Z</time>
      </trkpt>
      <trkpt lat="43.62515" lon="3.36027">
        <ele>270.88672462672</ele>
        <time>2015-03-31T13:26:28Z</time>
      </trkpt>
      <trkpt lat="43.62516" lon="3.36029">
        <ele>270.88672462672</ele>
        <time>2015-03-31T13:26:33Z</time>
      </trkpt>
      <trkpt lat="43.62516" lon="3.36029">
        <ele>270.88672462672</ele>
        <time>2015-03-31T13:26:45Z</time>
      </trkpt>
      <trkpt lat="43.62522" lon="3.36028">
        <ele>272.97428702765</ele>
        <time>2015-03-31T13:26:59Z</time>
      </trkpt>
      <trkpt lat="43.62525" lon="3.36027">
        <ele>272.97428702765</ele>
        <time>2015-03-31T13:27:03Z</time>
      </trkpt>
      <trkpt lat="43.62525" lon="3.36027">
        <ele>272.97428702765</ele>
        <time>2015-03-31T13:27:08Z</time>
      </trkpt>
      <trkpt lat="43.62529" lon="3.36025">
        <ele>272.97428702765</ele>
        <time>2015-03-31T13:27:18Z</time>
      </trkpt>
      <trkpt lat="43.62532" lon="3.36024">
        <ele>275.70546741885</ele>
        <time>2015-03-31T13:27:23Z</time>
      </trkpt>
      <trkpt lat="43.62534" lon="3.36022">
        <ele>275.70546741885</ele>
        <time>2015-03-31T13:27:28Z</time>
      </trkpt>
      <trkpt lat="43.62536" lon="3.36023">
        <ele>275.70546741885</ele>
        <time>2015-03-31T13:27:33Z</time>
      </trkpt>
      <trkpt lat="43.62539" lon="3.36025">
        <ele>275.70546741885</ele>
        <time>2015-03-31T13:27:38Z</time>
      </trkpt>
      <trkpt lat="43.6254" lon="3.36025">
        <ele>278.4516525461</ele>
        <time>2015-03-31T13:27:43Z</time>
      </trkpt>
      <trkpt lat="43.62541" lon="3.36024">
        <ele>278.4516525461</ele>
        <time>2015-03-31T13:27:48Z</time>
      </trkpt>
      <trkpt lat="43.6255" lon="3.3603">
        <ele>281.20681875901</ele>
        <time>2015-03-31T13:28:13Z</time>
      </trkpt>
      <trkpt lat="43.62554" lon="3.36036">
        <ele>281.20681875901</ele>
        <time>2015-03-31T13:29:00Z</time>
      </trkpt>
      <trkpt lat="43.62555" lon="3.36041">
        <ele>284.00861588188</ele>
        <time>2015-03-31T13:29:05Z</time>
      </trkpt>
      <trkpt lat="43.62557" lon="3.36042">
        <ele>284.00861588188</ele>
        <time>2015-03-31T13:29:08Z</time>
      </trkpt>
      <trkpt lat="43.62559" lon="3.36044">
        <ele>284.00861588188</ele>
        <time>2015-03-31T13:29:13Z</time>
      </trkpt>
      <trkpt lat="43.62559" lon="3.36045">
        <ele>284.00861588188</ele>
        <time>2015-03-31T13:29:18Z</time>
      </trkpt>
      <trkpt lat="43.62564" lon="3.36055">
        <ele>286.60361057737</ele>
        <time>2015-03-31T13:29:43Z</time>
      </trkpt>
      <trkpt lat="43.62566" lon="3.36058">
        <ele>286.60361057737</ele>
        <time>2015-03-31T13:29:48Z</time>
      </trkpt>
      <trkpt lat="43.62568" lon="3.36057">
        <ele>286.60361057737</ele>
        <time>2015-03-31T13:29:53Z</time>
      </trkpt>
      <trkpt lat="43.62569" lon="3.36055">
        <ele>286.60361057737</ele>
        <time>2015-03-31T13:29:58Z</time>
      </trkpt>
      <trkpt lat="43.62576" lon="3.36059">
        <ele>288.97378045048</ele>
        <time>2015-03-31T13:30:08Z</time>
      </trkpt>
      <trkpt lat="43.62578" lon="3.3606">
        <ele>288.97378045048</ele>
        <time>2015-03-31T13:30:13Z</time>
      </trkpt>
      <trkpt lat="43.62581" lon="3.36062">
        <ele>288.97378045048</ele>
        <time>2015-03-31T13:30:18Z</time>
      </trkpt>
      <trkpt lat="43.62582" lon="3.36062">
        <ele>288.97378045048</ele>
        <time>2015-03-31T13:30:23Z</time>
      </trkpt>
      <trkpt lat="43.62586" lon="3.36062">
        <ele>291.16075850014</ele>
        <time>2015-03-31T13:30:28Z</time>
      </trkpt>
      <trkpt lat="43.62589" lon="3.36061">
        <ele>291.16075850014</ele>
        <time>2015-03-31T13:30:33Z</time>
      </trkpt>
      <trkpt lat="43.6259" lon="3.36061">
        <ele>291.16075850014</ele>
        <time>2015-03-31T13:30:38Z</time>
      </trkpt>
      <trkpt lat="43.62593" lon="3.36063">
        <ele>291.16075850014</ele>
        <time>2015-03-31T13:30:45Z</time>
      </trkpt>
      <trkpt lat="43.62594" lon="3.36063">
        <ele>293.18928560481</ele>
        <time>2015-03-31T13:30:55Z</time>
      </trkpt>
      <trkpt lat="43.62595" lon="3.36063">
        <ele>293.18928560481</ele>
        <time>2015-03-31T13:30:58Z</time>
      </trkpt>
      <trkpt lat="43.62602" lon="3.36073">
        <ele>295.14044251008</ele>
        <time>2015-03-31T13:31:15Z</time>
      </trkpt>
      <trkpt lat="43.62603" lon="3.36075">
        <ele>295.14044251008</ele>
        <time>2015-03-31T13:31:18Z</time>
      </trkpt>
      <trkpt lat="43.62606" lon="3.3608">
        <ele>295.14044251008</ele>
        <time>2015-03-31T13:31:27Z</time>
      </trkpt>
      <trkpt lat="43.62608" lon="3.36088">
        <ele>296.91670875104</ele>
        <time>2015-03-31T13:31:35Z</time>
      </trkpt>
      <trkpt lat="43.62611" lon="3.36121">
        <ele>298.58681320384</ele>
        <time>2015-03-31T13:32:05Z</time>
      </trkpt>
      <trkpt lat="43.6261" lon="3.36121">
        <ele>298.58681320384</ele>
        <time>2015-03-31T13:32:08Z</time>
      </trkpt>
      <trkpt lat="43.62611" lon="3.36128">
        <ele>298.58681320384</ele>
        <time>2015-03-31T13:32:13Z</time>
      </trkpt>
      <trkpt lat="43.6261" lon="3.36132">
        <ele>298.58681320384</ele>
        <time>2015-03-31T13:32:18Z</time>
      </trkpt>
      <trkpt lat="43.62611" lon="3.36136">
        <ele>300.22921764746</ele>
        <time>2015-03-31T13:32:23Z</time>
      </trkpt>
      <trkpt lat="43.62612" lon="3.3614">
        <ele>300.22921764746</ele>
        <time>2015-03-31T13:32:28Z</time>
      </trkpt>
      <trkpt lat="43.62611" lon="3.36145">
        <ele>300.22921764746</ele>
        <time>2015-03-31T13:32:33Z</time>
      </trkpt>
      <trkpt lat="43.6261" lon="3.3615">
        <ele>301.67178040869</ele>
        <time>2015-03-31T13:32:38Z</time>
      </trkpt>
      <trkpt lat="43.62609" lon="3.36153">
        <ele>301.67178040869</ele>
        <time>2015-03-31T13:32:43Z</time>
      </trkpt>
      <trkpt lat="43.62605" lon="3.36159">
        <ele>301.67178040869</ele>
        <time>2015-03-31T13:32:50Z</time>
      </trkpt>
      <trkpt lat="43.62604" lon="3.36162">
        <ele>302.9429795793</ele>
        <time>2015-03-31T13:32:57Z</time>
      </trkpt>
      <trkpt lat="43.62604" lon="3.36171">
        <ele>302.9429795793</ele>
        <time>2015-03-31T13:33:00Z</time>
      </trkpt>
      <trkpt lat="43.62608" lon="3.36195">
        <ele>304.35797054125</ele>
        <time>2015-03-31T13:33:18Z</time>
      </trkpt>
      <trkpt lat="43.62609" lon="3.36207">
        <ele>304.35797054125</ele>
        <time>2015-03-31T13:33:38Z</time>
      </trkpt>
      <trkpt lat="43.62607" lon="3.36211">
        <ele>305.96342817311</ele>
        <time>2015-03-31T13:33:55Z</time>
      </trkpt>
      <trkpt lat="43.62612" lon="3.36224">
        <ele>307.44184594442</ele>
        <time>2015-03-31T13:33:55Z</time>
      </trkpt>
      <trkpt lat="43.62613" lon="3.36226">
        <ele>307.44184594442</ele>
        <time>2015-03-31T13:33:57Z</time>
      </trkpt>
      <trkpt lat="43.62617" lon="3.36233">
        <ele>307.44184594442</ele>
        <time>2015-03-31T13:34:03Z</time>
      </trkpt>
      <trkpt lat="43.62623" lon="3.36242">
        <ele>308.98943207316</ele>
        <time>2015-03-31T13:34:14Z</time>
      </trkpt>
      <trkpt lat="43.6266" lon="3.36298">
        <ele>311.71015494523</ele>
        <time>2015-03-31T13:35:20Z</time>
      </trkpt>
      <trkpt lat="43.62662" lon="3.363">
        <ele>311.71015494523</ele>
        <time>2015-03-31T13:35:27Z</time>
      </trkpt>
      <trkpt lat="43.62665" lon="3.36302">
        <ele>311.71015494523</ele>
        <time>2015-03-31T13:35:28Z</time>
      </trkpt>
      <trkpt lat="43.62672" lon="3.36297">
        <ele>314.57727396709</ele>
        <time>2015-03-31T13:36:24Z</time>
      </trkpt>
      <trkpt lat="43.6267" lon="3.36289">
        <ele>314.57727396709</ele>
        <time>2015-03-31T13:36:28Z</time>
      </trkpt>
      <trkpt lat="43.62671" lon="3.36282">
        <ele>317.08586672734</ele>
        <time>2015-03-31T13:36:33Z</time>
      </trkpt>
      <trkpt lat="43.62671" lon="3.36274">
        <ele>317.08586672734</ele>
        <time>2015-03-31T13:36:38Z</time>
      </trkpt>
      <trkpt lat="43.62671" lon="3.3627">
        <ele>317.08586672734</ele>
        <time>2015-03-31T13:36:43Z</time>
      </trkpt>
      <trkpt lat="43.62671" lon="3.36264">
        <ele>319.28797292583</ele>
        <time>2015-03-31T13:36:48Z</time>
      </trkpt>
      <trkpt lat="43.62671" lon="3.36259">
        <ele>319.28797292583</ele>
        <time>2015-03-31T13:36:53Z</time>
      </trkpt>
      <trkpt lat="43.62671" lon="3.36256">
        <ele>319.28797292583</ele>
        <time>2015-03-31T13:36:58Z</time>
      </trkpt>
      <trkpt lat="43.62679" lon="3.36242">
        <ele>321.42008302846</ele>
        <time>2015-03-31T13:37:14Z</time>
      </trkpt>
      <trkpt lat="43.62688" lon="3.36219">
        <ele>323.64393901897</ele>
        <time>2015-03-31T13:37:43Z</time>
      </trkpt>
      <trkpt lat="43.6269" lon="3.36221">
        <ele>323.64393901897</ele>
        <time>2015-03-31T13:37:53Z</time>
      </trkpt>
      <trkpt lat="43.62706" lon="3.36233">
        <ele>326.00833979335</ele>
        <time>2015-03-31T13:38:19Z</time>
      </trkpt>
      <trkpt lat="43.62708" lon="3.36233">
        <ele>326.00833979335</ele>
        <time>2015-03-31T13:38:19Z</time>
      </trkpt>
      <trkpt lat="43.62727" lon="3.36228">
        <ele>328.68788039498</ele>
        <time>2015-03-31T13:39:18Z</time>
      </trkpt>
      <trkpt lat="43.62743" lon="3.36237">
        <ele>331.65617923558</ele>
        <time>2015-03-31T13:40:00Z</time>
      </trkpt>
      <trkpt lat="43.62748" lon="3.3625">
        <ele>334.57101909059</ele>
        <time>2015-03-31T13:40:18Z</time>
      </trkpt>
      <trkpt lat="43.62758" lon="3.36254">
        <ele>337.5767129248</ele>
        <time>2015-03-31T13:40:38Z</time>
      </trkpt>
      <trkpt lat="43.62762" lon="3.36254">
        <ele>337.5767129248</ele>
        <time>2015-03-31T13:40:55Z</time>
      </trkpt>
      <trkpt lat="43.62764" lon="3.36245">
        <ele>340.46094091371</ele>
        <time>2015-03-31T13:40:58Z</time>
      </trkpt>
      <trkpt lat="43.62764" lon="3.36245">
        <ele>340.46094091371</ele>
        <time>2015-03-31T13:41:14Z</time>
      </trkpt>
      <trkpt lat="43.62777" lon="3.36244">
        <ele>343.90649429076</ele>
        <time>2015-03-31T13:41:42Z</time>
      </trkpt>
      <trkpt lat="43.62781" lon="3.36251">
        <ele>343.90649429076</ele>
        <time>2015-03-31T13:42:15Z</time>
      </trkpt>
      <trkpt lat="43.62791" lon="3.36252">
        <ele>347.82397765473</ele>
        <time>2015-03-31T13:42:43Z</time>
      </trkpt>
      <trkpt lat="43.62784" lon="3.36224">
        <ele>351.78348015456</ele>
        <time>2015-03-31T13:43:07Z</time>
      </trkpt>
      <trkpt lat="43.62784" lon="3.36223">
        <ele>351.78348015456</ele>
        <time>2015-03-31T13:43:08Z</time>
      </trkpt>
      <trkpt lat="43.62786" lon="3.36219">
        <ele>351.78348015456</ele>
        <time>2015-03-31T13:43:13Z</time>
      </trkpt>
      <trkpt lat="43.62787" lon="3.36211">
        <ele>355.50195901001</ele>
        <time>2015-03-31T13:43:18Z</time>
      </trkpt>
      <trkpt lat="43.6279" lon="3.36208">
        <ele>355.50195901001</ele>
        <time>2015-03-31T13:43:23Z</time>
      </trkpt>
      <trkpt lat="43.62792" lon="3.36203">
        <ele>355.50195901001</ele>
        <time>2015-03-31T13:43:28Z</time>
      </trkpt>
      <trkpt lat="43.62792" lon="3.36201">
        <ele>355.50195901001</ele>
        <time>2015-03-31T13:43:33Z</time>
      </trkpt>
      <trkpt lat="43.62805" lon="3.36198">
        <ele>359.68350960006</ele>
        <time>2015-03-31T13:44:11Z</time>
      </trkpt>
      <trkpt lat="43.62816" lon="3.36213">
        <ele>364.37407366186</ele>
        <time>2015-03-31T13:45:18Z</time>
      </trkpt>
      <trkpt lat="43.62818" lon="3.36226">
        <ele>368.87996738221</ele>
        <time>2015-03-31T13:45:26Z</time>
      </trkpt>
      <trkpt lat="43.62819" lon="3.36228">
        <ele>368.87996738221</ele>
        <time>2015-03-31T13:45:28Z</time>
      </trkpt>
      <trkpt lat="43.62819" lon="3.36238">
        <ele>368.87996738221</ele>
        <time>2015-03-31T13:45:33Z</time>
      </trkpt>
      <trkpt lat="43.62819" lon="3.3626">
        <ele>373.26528097948</ele>
        <time>2015-03-31T13:46:00Z</time>
      </trkpt>
      <trkpt lat="43.62815" lon="3.36282">
        <ele>377.4746087075</ele>
        <time>2015-03-31T13:46:12Z</time>
      </trkpt>
      <trkpt lat="43.62814" lon="3.36281">
        <ele>377.4746087075</ele>
        <time>2015-03-31T13:46:13Z</time>
      </trkpt>
      <trkpt lat="43.62811" lon="3.36288">
        <ele>377.4746087075</ele>
        <time>2015-03-31T13:46:21Z</time>
      </trkpt>
      <trkpt lat="43.62808" lon="3.36312">
        <ele>381.94725747957</ele>
        <time>2015-03-31T13:46:43Z</time>
      </trkpt>
      <trkpt lat="43.62805" lon="3.36343">
        <ele>386.49884612037</ele>
        <time>2015-03-31T13:47:15Z</time>
      </trkpt>
      <trkpt lat="43.62812" lon="3.36368">
        <ele>391.11702232434</ele>
        <time>2015-03-31T13:48:03Z</time>
      </trkpt>
      <trkpt lat="43.62821" lon="3.36378">
        <ele>395.47329828501</ele>
        <time>2015-03-31T13:48:15Z</time>
      </trkpt>
      <trkpt lat="43.62822" lon="3.36379">
        <ele>395.47329828501</ele>
        <time>2015-03-31T13:48:16Z</time>
      </trkpt>
      <trkpt lat="43.62822" lon="3.36378">
        <ele>395.47329828501</ele>
        <time>2015-03-31T13:48:18Z</time>
      </trkpt>
      <trkpt lat="43.62823" lon="3.36375">
        <ele>395.47329828501</ele>
        <time>2015-03-31T13:48:23Z</time>
      </trkpt>
      <trkpt lat="43.62841" lon="3.36368">
        <ele>400.44595684978</ele>
        <time>2015-03-31T13:49:15Z</time>
      </trkpt>
      <trkpt lat="43.62843" lon="3.36369">
        <ele>400.44595684978</ele>
        <time>2015-03-31T13:49:21Z</time>
      </trkpt>
      <trkpt lat="43.62845" lon="3.36366">
        <ele>400.44595684978</ele>
        <time>2015-03-31T13:49:27Z</time>
      </trkpt>
      <trkpt lat="43.62857" lon="3.36348">
        <ele>407.04899083738</ele>
        <time>2015-03-31T13:50:24Z</time>
      </trkpt>
      <trkpt lat="43.62858" lon="3.36349">
        <ele>407.04899083738</ele>
        <time>2015-03-31T13:51:18Z</time>
      </trkpt>
      <trkpt lat="43.62853" lon="3.36361">
        <ele>413.89735390409</ele>
        <time>2015-03-31T13:51:49Z</time>
      </trkpt>
      <trkpt lat="43.62855" lon="3.36386">
        <ele>420.38460280628</ele>
        <time>2015-03-31T13:52:09Z</time>
      </trkpt>
      <trkpt lat="43.62855" lon="3.36389">
        <ele>420.38460280628</ele>
        <time>2015-03-31T13:52:16Z</time>
      </trkpt>
      <trkpt lat="43.62855" lon="3.36389">
        <ele>420.38460280628</ele>
        <time>2015-03-31T13:52:22Z</time>
      </trkpt>
      <trkpt lat="43.62857" lon="3.36395">
        <ele>420.38460280628</ele>
        <time>2015-03-31T13:52:29Z</time>
      </trkpt>
      <trkpt lat="43.62858" lon="3.36404">
        <ele>426.58418407919</ele>
        <time>2015-03-31T13:53:15Z</time>
      </trkpt>
      <trkpt lat="43.62851" lon="3.3643">
        <ele>433.58839949226</ele>
        <time>2015-03-31T13:54:18Z</time>
      </trkpt>
      <trkpt lat="43.62839" lon="3.36451">
        <ele>441.15355564499</ele>
        <time>2015-03-31T13:55:16Z</time>
      </trkpt>
      <trkpt lat="43.62839" lon="3.36476">
        <ele>448.9805152053</ele>
        <time>2015-03-31T13:57:15Z</time>
      </trkpt>
      <trkpt lat="43.62839" lon="3.36479">
        <ele>448.9805152053</ele>
        <time>2015-03-31T13:57:18Z</time>
      </trkpt>
      <trkpt lat="43.62838" lon="3.36481">
        <ele>448.9805152053</ele>
        <time>2015-03-31T13:57:29Z</time>
      </trkpt>
      <trkpt lat="43.62834" lon="3.36485">
        <ele>448.9805152053</ele>
        <time>2015-03-31T13:58:00Z</time>
      </trkpt>
      <trkpt lat="43.62825" lon="3.36501">
        <ele>457.0943138545</ele>
        <time>2015-03-31T13:59:07Z</time>
      </trkpt>
      <trkpt lat="43.62826" lon="3.36503">
        <ele>457.0943138545</ele>
        <time>2015-03-31T13:59:59Z</time>
      </trkpt>
      <trkpt lat="43.62834" lon="3.36516">
        <ele>464.40800255626</ele>
        <time>2015-03-31T14:00:18Z</time>
      </trkpt>
      <trkpt lat="43.62837" lon="3.36519">
        <ele>464.40800255626</ele>
        <time>2015-03-31T14:00:23Z</time>
      </trkpt>
      <trkpt lat="43.62852" lon="3.36534">
        <ele>471.01229628518</ele>
        <time>2015-03-31T14:01:22Z</time>
      </trkpt>
      <trkpt lat="43.62859" lon="3.36539">
        <ele>471.01229628518</ele>
        <time>2015-03-31T14:01:50Z</time>
      </trkpt>
      <trkpt lat="43.62876" lon="3.36544">
        <ele>477.20973949172</ele>
        <time>2015-03-31T14:01:52Z</time>
      </trkpt>
      <trkpt lat="43.62879" lon="3.36551">
        <ele>477.20973949172</ele>
        <time>2015-03-31T14:02:15Z</time>
      </trkpt>
      <trkpt lat="43.62891" lon="3.36559">
        <ele>483.28213322631</ele>
        <time>2015-03-31T14:02:20Z</time>
      </trkpt>
      <trkpt lat="43.62911" lon="3.36557">
        <ele>489.67861215207</ele>
        <time>2015-03-31T14:02:52Z</time>
      </trkpt>
      <trkpt lat="43.62929" lon="3.36564">
        <ele>497.20384662465</ele>
        <time>2015-03-31T14:03:18Z</time>
      </trkpt>
      <trkpt lat="43.62947" lon="3.36529">
        <ele>504.90005538615</ele>
        <time>2015-03-31T14:04:24Z</time>
      </trkpt>
      <trkpt lat="43.62947" lon="3.36521">
        <ele>504.90005538615</ele>
        <time>2015-03-31T14:04:24Z</time>
      </trkpt>
      <trkpt lat="43.62947" lon="3.36508">
        <ele>511.38969422716</ele>
        <time>2015-03-31T14:04:40Z</time>
      </trkpt>
      <trkpt lat="43.62943" lon="3.36494">
        <ele>516.89888813701</ele>
        <time>2015-03-31T14:04:44Z</time>
      </trkpt>
      <trkpt lat="43.62942" lon="3.36488">
        <ele>516.89888813701</ele>
        <time>2015-03-31T14:04:51Z</time>
      </trkpt>
      <trkpt lat="43.62942" lon="3.36486">
        <ele>516.89888813701</ele>
        <time>2015-03-31T14:05:00Z</time>
      </trkpt>
      <trkpt lat="43.62944" lon="3.36471">
        <ele>521.5681744883</ele>
        <time>2015-03-31T14:05:12Z</time>
      </trkpt>
      <trkpt lat="43.62944" lon="3.36462">
        <ele>521.5681744883</ele>
        <time>2015-03-31T14:05:13Z</time>
      </trkpt>
      <trkpt lat="43.62945" lon="3.36456">
        <ele>525.53043836</ele>
        <time>2015-03-31T14:05:19Z</time>
      </trkpt>
      <trkpt lat="43.62957" lon="3.36425">
        <ele>528.91108143454</ele>
        <time>2015-03-31T14:05:43Z</time>
      </trkpt>
      <trkpt lat="43.62958" lon="3.36421">
        <ele>528.91108143454</ele>
        <time>2015-03-31T14:05:48Z</time>
      </trkpt>
      <trkpt lat="43.62963" lon="3.364">
        <ele>531.6840826844</ele>
        <time>2015-03-31T14:06:06Z</time>
      </trkpt>
      <trkpt lat="43.62966" lon="3.36394">
        <ele>531.6840826844</ele>
        <time>2015-03-31T14:06:09Z</time>
      </trkpt>
      <trkpt lat="43.62976" lon="3.36389">
        <ele>534.01462023523</ele>
        <time>2015-03-31T14:06:17Z</time>
      </trkpt>
      <trkpt lat="43.62976" lon="3.36388">
        <ele>534.01462023523</ele>
        <time>2015-03-31T14:06:18Z</time>
      </trkpt>
      <trkpt lat="43.62987" lon="3.36382">
        <ele>536.04277383696</ele>
        <time>2015-03-31T14:06:46Z</time>
      </trkpt>
      <trkpt lat="43.62993" lon="3.36368">
        <ele>537.62554018022</ele>
        <time>2015-03-31T14:07:16Z</time>
      </trkpt>
      <trkpt lat="43.62987" lon="3.36357">
        <ele>539.28030469047</ele>
        <time>2015-03-31T14:08:02Z</time>
      </trkpt>
      <trkpt lat="43.62987" lon="3.36357">
        <ele>539.28030469047</ele>
        <time>2015-03-31T14:08:03Z</time>
      </trkpt>
      <trkpt lat="43.62985" lon="3.36352">
        <ele>539.28030469047</ele>
        <time>2015-03-31T14:08:14Z</time>
      </trkpt>
      <trkpt lat="43.62984" lon="3.36352">
        <ele>539.28030469047</ele>
        <time>2015-03-31T14:08:18Z</time>
      </trkpt>
      <trkpt lat="43.62986" lon="3.36358">
        <ele>540.60726376506</ele>
        <time>2015-03-31T14:08:49Z</time>
      </trkpt>
      <trkpt lat="43.62994" lon="3.36352">
        <ele>540.60726376506</ele>
        <time>2015-03-31T14:09:06Z</time>
      </trkpt>
      <trkpt lat="43.62997" lon="3.36351">
        <ele>541.84223202618</ele>
        <time>2015-03-31T14:09:36Z</time>
      </trkpt>
      <trkpt lat="43.62993" lon="3.36346">
        <ele>541.84223202618</ele>
        <time>2015-03-31T14:10:21Z</time>
      </trkpt>
      <trkpt lat="43.62991" lon="3.3634">
        <ele>542.68518663219</ele>
        <time>2015-03-31T14:10:26Z</time>
      </trkpt>
      <trkpt lat="43.6297" lon="3.36325">
        <ele>543.2627486292</ele>
        <time>2015-03-31T14:11:16Z</time>
      </trkpt>
      <trkpt lat="43.62972" lon="3.36322">
        <ele>543.2627486292</ele>
        <time>2015-03-31T14:12:07Z</time>
      </trkpt>
      <trkpt lat="43.6297" lon="3.36332">
        <ele>543.37589684759</ele>
        <time>2015-03-31T14:12:18Z</time>
      </trkpt>
      <trkpt lat="43.6297" lon="3.36335">
        <ele>543.37589684759</ele>
        <time>2015-03-31T14:12:23Z</time>
      </trkpt>
      <trkpt lat="43.62969" lon="3.36335">
        <ele>543.37589684759</ele>
        <time>2015-03-31T14:12:30Z</time>
      </trkpt>
      <trkpt lat="43.62992" lon="3.36342">
        <ele>543.40349225954</ele>
        <time>2015-03-31T14:19:19Z</time>
      </trkpt>
      <trkpt lat="43.62994" lon="3.36352">
        <ele>543.40349225954</ele>
        <time>2015-03-31T14:20:21Z</time>
      </trkpt>
      <trkpt lat="43.62995" lon="3.36352">
        <ele>543.40349225954</ele>
        <time>2015-03-31T14:21:45Z</time>
      </trkpt>
      <trkpt lat="43.6299" lon="3.36357">
        <ele>543.09143033527</ele>
        <time>2015-03-31T14:21:57Z</time>
      </trkpt>
      <trkpt lat="43.62991" lon="3.36358">
        <ele>543.09143033527</ele>
        <time>2015-03-31T14:22:14Z</time>
      </trkpt>
      <trkpt lat="43.62991" lon="3.36367">
        <ele>543.09143033527</ele>
        <time>2015-03-31T14:22:33Z</time>
      </trkpt>
      <trkpt lat="43.6299" lon="3.36368">
        <ele>543.09143033527</ele>
        <time>2015-03-31T14:22:33Z</time>
      </trkpt>
      <trkpt lat="43.6299" lon="3.36369">
        <ele>542.33478479736</ele>
        <time>2015-03-31T14:22:34Z</time>
      </trkpt>
      <trkpt lat="43.62988" lon="3.36373">
        <ele>542.33478479736</ele>
        <time>2015-03-31T14:22:43Z</time>
      </trkpt>
      <trkpt lat="43.62989" lon="3.36374">
        <ele>542.33478479736</ele>
        <time>2015-03-31T14:22:44Z</time>
      </trkpt>
      <trkpt lat="43.62974" lon="3.36381">
        <ele>541.25357712194</ele>
        <time>2015-03-31T14:23:12Z</time>
      </trkpt>
      <trkpt lat="43.62963" lon="3.36401">
        <ele>540.07500522598</ele>
        <time>2015-03-31T14:23:19Z</time>
      </trkpt>
      <trkpt lat="43.62945" lon="3.36445">
        <ele>538.79344579803</ele>
        <time>2015-03-31T14:24:09Z</time>
      </trkpt>
      <trkpt lat="43.62936" lon="3.36478">
        <ele>537.37488728436</ele>
        <time>2015-03-31T14:24:20Z</time>
      </trkpt>
      <trkpt lat="43.62935" lon="3.36483">
        <ele>537.37488728436</ele>
        <time>2015-03-31T14:24:23Z</time>
      </trkpt>
      <trkpt lat="43.62935" lon="3.36493">
        <ele>535.85996020257</ele>
        <time>2015-03-31T14:24:28Z</time>
      </trkpt>
      <trkpt lat="43.62936" lon="3.36531">
        <ele>534.08450233576</ele>
        <time>2015-03-31T14:25:01Z</time>
      </trkpt>
      <trkpt lat="43.62922" lon="3.36599">
        <ele>531.68062658707</ele>
        <time>2015-03-31T14:26:23Z</time>
      </trkpt>
      <trkpt lat="43.6289" lon="3.36649">
        <ele>529.15911668442</ele>
        <time>2015-03-31T14:27:11Z</time>
      </trkpt>
      <trkpt lat="43.62889" lon="3.36649">
        <ele>529.15911668442</ele>
        <time>2015-03-31T14:27:14Z</time>
      </trkpt>
      <trkpt lat="43.62882" lon="3.36654">
        <ele>529.15911668442</ele>
        <time>2015-03-31T14:27:21Z</time>
      </trkpt>
      <trkpt lat="43.62881" lon="3.36654">
        <ele>526.64730139778</ele>
        <time>2015-03-31T14:27:23Z</time>
      </trkpt>
      <trkpt lat="43.62876" lon="3.36658">
        <ele>526.64730139778</ele>
        <time>2015-03-31T14:27:42Z</time>
      </trkpt>
      <trkpt lat="43.62865" lon="3.36669">
        <ele>524.24829920007</ele>
        <time>2015-03-31T14:27:57Z</time>
      </trkpt>
      <trkpt lat="43.62855" lon="3.36686">
        <ele>521.9271985054</ele>
        <time>2015-03-31T14:28:07Z</time>
      </trkpt>
      <trkpt lat="43.62856" lon="3.36687">
        <ele>521.9271985054</ele>
        <time>2015-03-31T14:28:08Z</time>
      </trkpt>
      <trkpt lat="43.62859" lon="3.36698">
        <ele>519.7518563583</ele>
        <time>2015-03-31T14:28:20Z</time>
      </trkpt>
      <trkpt lat="43.62867" lon="3.36731">
        <ele>517.64015640421</ele>
        <time>2015-03-31T14:28:45Z</time>
      </trkpt>
      <trkpt lat="43.62878" lon="3.3677">
        <ele>515.18390085896</ele>
        <time>2015-03-31T14:29:19Z</time>
      </trkpt>
      <trkpt lat="43.62879" lon="3.36808">
        <ele>512.6970901127</ele>
        <time>2015-03-31T14:29:48Z</time>
      </trkpt>
      <trkpt lat="43.62873" lon="3.3686">
        <ele>509.61999226445</ele>
        <time>2015-03-31T14:30:22Z</time>
      </trkpt>
      <trkpt lat="43.62873" lon="3.3686">
        <ele>509.61999226445</ele>
        <time>2015-03-31T14:30:23Z</time>
      </trkpt>
      <trkpt lat="43.62872" lon="3.36883">
        <ele>506.55921298368</ele>
        <time>2015-03-31T14:30:42Z</time>
      </trkpt>
      <trkpt lat="43.62871" lon="3.36894">
        <ele>506.55921298368</ele>
        <time>2015-03-31T14:31:00Z</time>
      </trkpt>
      <trkpt lat="43.62866" lon="3.36914">
        <ele>503.54303014905</ele>
        <time>2015-03-31T14:31:11Z</time>
      </trkpt>
      <trkpt lat="43.62878" lon="3.3697">
        <ele>500.42407004537</ele>
        <time>2015-03-31T14:31:41Z</time>
      </trkpt>
      <trkpt lat="43.62879" lon="3.36973">
        <ele>500.42407004537</ele>
        <time>2015-03-31T14:31:48Z</time>
      </trkpt>
      <trkpt lat="43.62883" lon="3.36997">
        <ele>497.06555222927</ele>
        <time>2015-03-31T14:32:08Z</time>
      </trkpt>
      <trkpt lat="43.62885" lon="3.37015">
        <ele>493.57146902348</ele>
        <time>2015-03-31T14:32:19Z</time>
      </trkpt>
      <trkpt lat="43.62882" lon="3.37043">
        <ele>489.70656972901</ele>
        <time>2015-03-31T14:32:50Z</time>
      </trkpt>
      <trkpt lat="43.62876" lon="3.3707">
        <ele>485.7001382066</ele>
        <time>2015-03-31T14:33:07Z</time>
      </trkpt>
      <trkpt lat="43.62876" lon="3.37073">
        <ele>485.7001382066</ele>
        <time>2015-03-31T14:33:11Z</time>
      </trkpt>
      <trkpt lat="43.62876" lon="3.3708">
        <ele>485.7001382066</ele>
        <time>2015-03-31T14:33:15Z</time>
      </trkpt>
      <trkpt lat="43.62873" lon="3.3709">
        <ele>481.73565550632</ele>
        <time>2015-03-31T14:33:23Z</time>
      </trkpt>
      <trkpt lat="43.62857" lon="3.37131">
        <ele>477.78071421591</ele>
        <time>2015-03-31T14:33:58Z</time>
      </trkpt>
      <trkpt lat="43.62855" lon="3.3714">
        <ele>477.78071421591</ele>
        <time>2015-03-31T14:34:00Z</time>
      </trkpt>
      <trkpt lat="43.62851" lon="3.37152">
        <ele>474.02089005766</ele>
        <time>2015-03-31T14:34:08Z</time>
      </trkpt>
      <trkpt lat="43.62849" lon="3.37167">
        <ele>470.48293196802</ele>
        <time>2015-03-31T14:34:23Z</time>
      </trkpt>
      <trkpt lat="43.62839" lon="3.37193">
        <ele>466.97430263478</ele>
        <time>2015-03-31T14:34:45Z</time>
      </trkpt>
      <trkpt lat="43.6283" lon="3.37222">
        <ele>463.60422263595</ele>
        <time>2015-03-31T14:35:08Z</time>
      </trkpt>
      <trkpt lat="43.62824" lon="3.37249">
        <ele>460.41533896007</ele>
        <time>2015-03-31T14:35:26Z</time>
      </trkpt>
      <trkpt lat="43.62823" lon="3.37251">
        <ele>460.41533896007</ele>
        <time>2015-03-31T14:35:30Z</time>
      </trkpt>
      <trkpt lat="43.62822" lon="3.37255">
        <ele>460.41533896007</ele>
        <time>2015-03-31T14:35:40Z</time>
      </trkpt>
      <trkpt lat="43.62821" lon="3.37252">
        <ele>460.41533896007</ele>
        <time>2015-03-31T14:35:51Z</time>
      </trkpt>
      <trkpt lat="43.62803" lon="3.37286">
        <ele>456.68236062854</ele>
        <time>2015-03-31T14:36:23Z</time>
      </trkpt>
      <trkpt lat="43.62795" lon="3.37372">
        <ele>452.19545951494</ele>
        <time>2015-03-31T14:37:21Z</time>
      </trkpt>
      <trkpt lat="43.62799" lon="3.37377">
        <ele>452.19545951494</ele>
        <time>2015-03-31T14:37:48Z</time>
      </trkpt>
      <trkpt lat="43.62799" lon="3.3738">
        <ele>452.19545951494</ele>
        <time>2015-03-31T14:37:53Z</time>
      </trkpt>
      <trkpt lat="43.628" lon="3.37383">
        <ele>446.58891051768</ele>
        <time>2015-03-31T14:38:00Z</time>
      </trkpt>
      <trkpt lat="43.62809" lon="3.37399">
        <ele>441.25584089412</ele>
        <time>2015-03-31T14:38:25Z</time>
      </trkpt>
      <trkpt lat="43.6281" lon="3.37397">
        <ele>441.25584089412</ele>
        <time>2015-03-31T14:38:28Z</time>
      </trkpt>
      <trkpt lat="43.62838" lon="3.37365">
        <ele>435.81409502284</ele>
        <time>2015-03-31T14:39:00Z</time>
      </trkpt>
      <trkpt lat="43.62862" lon="3.37357">
        <ele>430.29850652228</ele>
        <time>2015-03-31T14:39:18Z</time>
      </trkpt>
      <trkpt lat="43.62869" lon="3.37353">
        <ele>430.29850652228</ele>
        <time>2015-03-31T14:39:23Z</time>
      </trkpt>
      <trkpt lat="43.62873" lon="3.37352">
        <ele>425.07252417226</ele>
        <time>2015-03-31T14:39:28Z</time>
      </trkpt>
      <trkpt lat="43.6288" lon="3.37351">
        <ele>425.07252417226</ele>
        <time>2015-03-31T14:39:33Z</time>
      </trkpt>
      <trkpt lat="43.62877" lon="3.37351">
        <ele>420.31307707154</ele>
        <time>2015-03-31T14:39:38Z</time>
      </trkpt>
      <trkpt lat="43.62875" lon="3.37353">
        <ele>420.31307707154</ele>
        <time>2015-03-31T14:39:43Z</time>
      </trkpt>
      <trkpt lat="43.62875" lon="3.37352">
        <ele>420.31307707154</ele>
        <time>2015-03-31T14:39:48Z</time>
      </trkpt>
      <trkpt lat="43.62867" lon="3.37346">
        <ele>414.97177218126</ele>
        <time>2015-03-31T14:39:58Z</time>
      </trkpt>
      <trkpt lat="43.62869" lon="3.37344">
        <ele>414.97177218126</ele>
        <time>2015-03-31T14:40:03Z</time>
      </trkpt>
      <trkpt lat="43.62869" lon="3.37343">
        <ele>414.97177218126</ele>
        <time>2015-03-31T14:40:08Z</time>
      </trkpt>
      <trkpt lat="43.62874" lon="3.37341">
        <ele>414.97177218126</ele>
        <time>2015-03-31T14:40:15Z</time>
      </trkpt>
      <trkpt lat="43.62877" lon="3.37342">
        <ele>409.72125367504</ele>
        <time>2015-03-31T14:40:19Z</time>
      </trkpt>
      <trkpt lat="43.62878" lon="3.37348">
        <ele>409.72125367504</ele>
        <time>2015-03-31T14:40:25Z</time>
      </trkpt>
      <trkpt lat="43.62877" lon="3.37348">
        <ele>409.72125367504</ele>
        <time>2015-03-31T14:40:34Z</time>
      </trkpt>
      <trkpt lat="43.62884" lon="3.37352">
        <ele>404.14642834013</ele>
        <time>2015-03-31T14:40:42Z</time>
      </trkpt>
      <trkpt lat="43.62885" lon="3.3735">
        <ele>404.14642834013</ele>
        <time>2015-03-31T14:40:48Z</time>
      </trkpt>
      <trkpt lat="43.62889" lon="3.37343">
        <ele>404.14642834013</ele>
        <time>2015-03-31T14:40:58Z</time>
      </trkpt>
      <trkpt lat="43.62893" lon="3.37343">
        <ele>398.94397598298</ele>
        <time>2015-03-31T14:41:03Z</time>
      </trkpt>
      <trkpt lat="43.62897" lon="3.37339">
        <ele>398.94397598298</ele>
        <time>2015-03-31T14:41:15Z</time>
      </trkpt>
      <trkpt lat="43.62902" lon="3.37337">
        <ele>394.28233250774</ele>
        <time>2015-03-31T14:41:20Z</time>
      </trkpt>
      <trkpt lat="43.62906" lon="3.37338">
        <ele>394.28233250774</ele>
        <time>2015-03-31T14:41:23Z</time>
      </trkpt>
      <trkpt lat="43.62909" lon="3.37329">
        <ele>389.89767681487</ele>
        <time>2015-03-31T14:41:32Z</time>
      </trkpt>
      <trkpt lat="43.62909" lon="3.37328">
        <ele>389.89767681487</ele>
        <time>2015-03-31T14:41:33Z</time>
      </trkpt>
      <trkpt lat="43.6291" lon="3.37328">
        <ele>389.89767681487</ele>
        <time>2015-03-31T14:41:45Z</time>
      </trkpt>
      <trkpt lat="43.62911" lon="3.37319">
        <ele>389.89767681487</ele>
        <time>2015-03-31T14:41:48Z</time>
      </trkpt>
      <trkpt lat="43.62913" lon="3.37314">
        <ele>385.5587706124</ele>
        <time>2015-03-31T14:41:53Z</time>
      </trkpt>
      <trkpt lat="43.6291" lon="3.37311">
        <ele>385.5587706124</ele>
        <time>2015-03-31T14:41:58Z</time>
      </trkpt>
      <trkpt lat="43.62912" lon="3.37309">
        <ele>385.5587706124</ele>
        <time>2015-03-31T14:42:03Z</time>
      </trkpt>
      <trkpt lat="43.62916" lon="3.37311">
        <ele>381.68490782792</ele>
        <time>2015-03-31T14:42:08Z</time>
      </trkpt>
      <trkpt lat="43.62913" lon="3.37311">
        <ele>381.68490782792</ele>
        <time>2015-03-31T14:42:13Z</time>
      </trkpt>
      <trkpt lat="43.62913" lon="3.37313">
        <ele>381.68490782792</ele>
        <time>2015-03-31T14:42:18Z</time>
      </trkpt>
      <trkpt lat="43.6291" lon="3.3731">
        <ele>381.68490782792</ele>
        <time>2015-03-31T14:42:23Z</time>
      </trkpt>
      <trkpt lat="43.62907" lon="3.37306">
        <ele>377.65410132259</ele>
        <time>2015-03-31T14:42:28Z</time>
      </trkpt>
      <trkpt lat="43.62908" lon="3.37308">
        <ele>377.65410132259</ele>
        <time>2015-03-31T14:42:33Z</time>
      </trkpt>
      <trkpt lat="43.6291" lon="3.37307">
        <ele>377.65410132259</ele>
        <time>2015-03-31T14:42:38Z</time>
      </trkpt>
      <trkpt lat="43.62912" lon="3.37309">
        <ele>377.65410132259</ele>
        <time>2015-03-31T14:42:43Z</time>
      </trkpt>
      <trkpt lat="43.62913" lon="3.37309">
        <ele>377.65410132259</ele>
        <time>2015-03-31T14:42:48Z</time>
      </trkpt>
      <trkpt lat="43.6291" lon="3.37319">
        <ele>374.43210771248</ele>
        <time>2015-03-31T14:42:53Z</time>
      </trkpt>
      <trkpt lat="43.62916" lon="3.37318">
        <ele>374.43210771248</ele>
        <time>2015-03-31T14:42:58Z</time>
      </trkpt>
      <trkpt lat="43.62915" lon="3.37315">
        <ele>374.43210771248</ele>
        <time>2015-03-31T14:43:03Z</time>
      </trkpt>
      <trkpt lat="43.62914" lon="3.37313">
        <ele>371.67176045848</ele>
        <time>2015-03-31T14:43:08Z</time>
      </trkpt>
      <trkpt lat="43.6291" lon="3.37309">
        <ele>371.67176045848</ele>
        <time>2015-03-31T14:43:13Z</time>
      </trkpt>
      <trkpt lat="43.6291" lon="3.37303">
        <ele>371.67176045848</ele>
        <time>2015-03-31T14:43:18Z</time>
      </trkpt>
      <trkpt lat="43.62907" lon="3.37305">
        <ele>369.49651651231</ele>
        <time>2015-03-31T14:43:23Z</time>
      </trkpt>
      <trkpt lat="43.62909" lon="3.37306">
        <ele>369.49651651231</ele>
        <time>2015-03-31T14:43:28Z</time>
      </trkpt>
      <trkpt lat="43.62907" lon="3.37306">
        <ele>369.49651651231</ele>
        <time>2015-03-31T14:43:33Z</time>
      </trkpt>
      <trkpt lat="43.62906" lon="3.37306">
        <ele>369.49651651231</ele>
        <time>2015-03-31T14:43:38Z</time>
      </trkpt>
      <trkpt lat="43.62905" lon="3.37306">
        <ele>369.49651651231</ele>
        <time>2015-03-31T14:43:43Z</time>
      </trkpt>
      <trkpt lat="43.62901" lon="3.37306">
        <ele>367.91794457488</ele>
        <time>2015-03-31T14:43:48Z</time>
      </trkpt>
      <trkpt lat="43.62907" lon="3.37306">
        <ele>367.91794457488</ele>
        <time>2015-03-31T14:43:53Z</time>
      </trkpt>
      <trkpt lat="43.62909" lon="3.37304">
        <ele>367.91794457488</ele>
        <time>2015-03-31T14:43:58Z</time>
      </trkpt>
      <trkpt lat="43.62909" lon="3.37303">
        <ele>367.91794457488</ele>
        <time>2015-03-31T14:44:03Z</time>
      </trkpt>
      <trkpt lat="43.62904" lon="3.37305">
        <ele>366.97364452838</ele>
        <time>2015-03-31T14:44:08Z</time>
      </trkpt>
      <trkpt lat="43.62902" lon="3.37303">
        <ele>366.97364452838</ele>
        <time>2015-03-31T14:44:13Z</time>
      </trkpt>
      <trkpt lat="43.62904" lon="3.37309">
        <ele>366.97364452838</ele>
        <time>2015-03-31T14:44:19Z</time>
      </trkpt>
      <trkpt lat="43.62903" lon="3.37304">
        <ele>366.52350973496</ele>
        <time>2015-03-31T14:44:23Z</time>
      </trkpt>
      <trkpt lat="43.62902" lon="3.37304">
        <ele>366.52350973496</ele>
        <time>2015-03-31T14:44:28Z</time>
      </trkpt>
      <trkpt lat="43.629" lon="3.37302">
        <ele>366.52350973496</ele>
        <time>2015-03-31T14:44:33Z</time>
      </trkpt>
      <trkpt lat="43.629" lon="3.37303">
        <ele>366.52350973496</ele>
        <time>2015-03-31T14:44:38Z</time>
      </trkpt>
      <trkpt lat="43.62898" lon="3.37302">
        <ele>366.52350973496</ele>
        <time>2015-03-31T14:44:43Z</time>
      </trkpt>
      <trkpt lat="43.62898" lon="3.37302">
        <ele>366.52350973496</ele>
        <time>2015-03-31T14:44:48Z</time>
      </trkpt>
      <trkpt lat="43.62898" lon="3.37303">
        <ele>366.52350973496</ele>
        <time>2015-03-31T14:44:53Z</time>
      </trkpt>
      <trkpt lat="43.62894" lon="3.37307">
        <ele>366.30644562986</ele>
        <time>2015-03-31T14:44:58Z</time>
      </trkpt>
      <trkpt lat="43.62897" lon="3.37306">
        <ele>366.30644562986</ele>
        <time>2015-03-31T14:45:03Z</time>
      </trkpt>
      <trkpt lat="43.629" lon="3.37301">
        <ele>366.30644562986</ele>
        <time>2015-03-31T14:45:08Z</time>
      </trkpt>
      <trkpt lat="43.629" lon="3.37297">
        <ele>366.23825154268</ele>
        <time>2015-03-31T14:45:13Z</time>
      </trkpt>
      <trkpt lat="43.62909" lon="3.37301">
        <ele>366.47095782242</ele>
        <time>2015-03-31T14:45:18Z</time>
      </trkpt>
      <trkpt lat="43.62925" lon="3.37297">
        <ele>366.92834073905</ele>
        <time>2015-03-31T14:45:23Z</time>
      </trkpt>
      <trkpt lat="43.62934" lon="3.37302">
        <ele>367.53910889693</ele>
        <time>2015-03-31T14:45:28Z</time>
      </trkpt>
      <trkpt lat="43.62907" lon="3.37301">
        <ele>368.39530068609</ele>
        <time>2015-03-31T14:45:33Z</time>
      </trkpt>
      <trkpt lat="43.62907" lon="3.37302">
        <ele>368.39530068609</ele>
        <time>2015-03-31T14:45:38Z</time>
      </trkpt>
      <trkpt lat="43.62912" lon="3.37298">
        <ele>368.39530068609</ele>
        <time>2015-03-31T14:45:43Z</time>
      </trkpt>
      <trkpt lat="43.629" lon="3.37297">
        <ele>369.37978642481</ele>
        <time>2015-03-31T14:45:48Z</time>
      </trkpt>
      <trkpt lat="43.62926" lon="3.37301">
        <ele>370.77285356603</ele>
        <time>2015-03-31T14:46:04Z</time>
      </trkpt>
      <trkpt lat="43.62908" lon="3.37307">
        <ele>373.49607396991</ele>
        <time>2015-03-31T14:46:27Z</time>
      </trkpt>
      <trkpt lat="43.62886" lon="3.37319">
        <ele>377.41978152135</ele>
        <time>2015-03-31T14:47:11Z</time>
      </trkpt>
      <trkpt lat="43.62884" lon="3.37322">
        <ele>377.41978152135</ele>
        <time>2015-03-31T14:47:19Z</time>
      </trkpt>
      <trkpt lat="43.62888" lon="3.37326">
        <ele>377.41978152135</ele>
        <time>2015-03-31T14:47:28Z</time>
      </trkpt>
      <trkpt lat="43.62888" lon="3.37328">
        <ele>377.41978152135</ele>
        <time>2015-03-31T14:48:00Z</time>
      </trkpt>
      <trkpt lat="43.62893" lon="3.37337">
        <ele>379.86988544857</ele>
        <time>2015-03-31T14:48:23Z</time>
      </trkpt>
      <trkpt lat="43.62896" lon="3.37342">
        <ele>379.86988544857</ele>
        <time>2015-03-31T14:48:28Z</time>
      </trkpt>
      <trkpt lat="43.62896" lon="3.37343">
        <ele>379.86988544857</ele>
        <time>2015-03-31T14:48:33Z</time>
      </trkpt>
      <trkpt lat="43.62899" lon="3.37341">
        <ele>379.86988544857</ele>
        <time>2015-03-31T14:48:43Z</time>
      </trkpt>
      <trkpt lat="43.62896" lon="3.37343">
        <ele>382.22085769831</ele>
        <time>2015-03-31T14:48:48Z</time>
      </trkpt>
      <trkpt lat="43.62893" lon="3.37342">
        <ele>382.22085769831</ele>
        <time>2015-03-31T14:48:53Z</time>
      </trkpt>
      <trkpt lat="43.62889" lon="3.37342">
        <ele>382.22085769831</ele>
        <time>2015-03-31T14:48:58Z</time>
      </trkpt>
      <trkpt lat="43.62884" lon="3.3734">
        <ele>384.46414987237</ele>
        <time>2015-03-31T14:49:03Z</time>
      </trkpt>
      <trkpt lat="43.62881" lon="3.37339">
        <ele>384.46414987237</ele>
        <time>2015-03-31T14:49:08Z</time>
      </trkpt>
      <trkpt lat="43.62879" lon="3.37335">
        <ele>384.46414987237</ele>
        <time>2015-03-31T14:49:13Z</time>
      </trkpt>
      <trkpt lat="43.62878" lon="3.37333">
        <ele>384.46414987237</ele>
        <time>2015-03-31T14:49:18Z</time>
      </trkpt>
      <trkpt lat="43.62875" lon="3.37331">
        <ele>386.85183297321</ele>
        <time>2015-03-31T14:49:23Z</time>
      </trkpt>
      <trkpt lat="43.62872" lon="3.37322">
        <ele>386.85183297321</ele>
        <time>2015-03-31T14:49:48Z</time>
      </trkpt>
      <trkpt lat="43.62867" lon="3.3732">
        <ele>389.67501544602</ele>
        <time>2015-03-31T14:50:20Z</time>
      </trkpt>
      <trkpt lat="43.62866" lon="3.37321">
        <ele>389.67501544602</ele>
        <time>2015-03-31T14:50:20Z</time>
      </trkpt>
      <trkpt lat="43.62864" lon="3.37322">
        <ele>389.67501544602</ele>
        <time>2015-03-31T14:50:25Z</time>
      </trkpt>
      <trkpt lat="43.62856" lon="3.37331">
        <ele>392.84226045262</ele>
        <time>2015-03-31T14:50:40Z</time>
      </trkpt>
      <trkpt lat="43.62854" lon="3.37332">
        <ele>392.84226045262</ele>
        <time>2015-03-31T14:50:43Z</time>
      </trkpt>
      <trkpt lat="43.62854" lon="3.37331">
        <ele>392.84226045262</ele>
        <time>2015-03-31T14:50:48Z</time>
      </trkpt>
      <trkpt lat="43.62853" lon="3.37331">
        <ele>392.84226045262</ele>
        <time>2015-03-31T14:50:53Z</time>
      </trkpt>
      <trkpt lat="43.6285" lon="3.37329">
        <ele>392.84226045262</ele>
        <time>2015-03-31T14:51:00Z</time>
      </trkpt>
      <trkpt lat="43.6285" lon="3.37331">
        <ele>392.84226045262</ele>
        <time>2015-03-31T14:51:09Z</time>
      </trkpt>
      <trkpt lat="43.62857" lon="3.37329">
        <ele>396.16736691949</ele>
        <time>2015-03-31T14:51:21Z</time>
      </trkpt>
      <trkpt lat="43.62858" lon="3.37328">
        <ele>396.16736691949</ele>
        <time>2015-03-31T14:51:28Z</time>
      </trkpt>
      <trkpt lat="43.62858" lon="3.37328">
        <ele>396.16736691949</ele>
        <time>2015-03-31T14:51:33Z</time>
      </trkpt>
      <trkpt lat="43.62858" lon="3.37328">
        <ele>396.16736691949</ele>
        <time>2015-03-31T14:51:40Z</time>
      </trkpt>
      <trkpt lat="43.62859" lon="3.37333">
        <ele>396.16736691949</ele>
        <time>2015-03-31T14:52:08Z</time>
      </trkpt>
      <trkpt lat="43.62863" lon="3.37334">
        <ele>399.52098646068</ele>
        <time>2015-03-31T14:52:20Z</time>
      </trkpt>
      <trkpt lat="43.62868" lon="3.37332">
        <ele>399.52098646068</ele>
        <time>2015-03-31T14:52:25Z</time>
      </trkpt>
      <trkpt lat="43.62867" lon="3.37333">
        <ele>399.52098646068</ele>
        <time>2015-03-31T14:52:31Z</time>
      </trkpt>
      <trkpt lat="43.62874" lon="3.37338">
        <ele>402.75477495849</ele>
        <time>2015-03-31T14:53:12Z</time>
      </trkpt>
      <trkpt lat="43.62875" lon="3.37339">
        <ele>402.75477495849</ele>
        <time>2015-03-31T14:53:13Z</time>
      </trkpt>
      <trkpt lat="43.62874" lon="3.37341">
        <ele>402.75477495849</ele>
        <time>2015-03-31T14:53:26Z</time>
      </trkpt>
      <trkpt lat="43.6288" lon="3.37351">
        <ele>405.19883221992</ele>
        <time>2015-03-31T14:53:43Z</time>
      </trkpt>
      <trkpt lat="43.62889" lon="3.37352">
        <ele>405.19883221992</ele>
        <time>2015-03-31T14:53:53Z</time>
      </trkpt>
      <trkpt lat="43.62892" lon="3.37348">
        <ele>407.1862522222</ele>
        <time>2015-03-31T14:53:58Z</time>
      </trkpt>
      <trkpt lat="43.62895" lon="3.37344">
        <ele>407.1862522222</ele>
        <time>2015-03-31T14:54:03Z</time>
      </trkpt>
      <trkpt lat="43.62897" lon="3.37341">
        <ele>407.1862522222</ele>
        <time>2015-03-31T14:54:08Z</time>
      </trkpt>
      <trkpt lat="43.629" lon="3.37338">
        <ele>408.72474942914</ele>
        <time>2015-03-31T14:54:13Z</time>
      </trkpt>
      <trkpt lat="43.62902" lon="3.37336">
        <ele>408.72474942914</ele>
        <time>2015-03-31T14:54:18Z</time>
      </trkpt>
      <trkpt lat="43.62906" lon="3.37334">
        <ele>408.72474942914</ele>
        <time>2015-03-31T14:54:23Z</time>
      </trkpt>
      <trkpt lat="43.62912" lon="3.37334">
        <ele>410.03934123287</ele>
        <time>2015-03-31T14:54:28Z</time>
      </trkpt>
      <trkpt lat="43.62932" lon="3.37327">
        <ele>410.7487272009</ele>
        <time>2015-03-31T14:54:54Z</time>
      </trkpt>
      <trkpt lat="43.62933" lon="3.37331">
        <ele>410.7487272009</ele>
        <time>2015-03-31T14:55:07Z</time>
      </trkpt>
      <trkpt lat="43.62932" lon="3.37351">
        <ele>411.19347956423</ele>
        <time>2015-03-31T14:55:16Z</time>
      </trkpt>
      <trkpt lat="43.62931" lon="3.37354">
        <ele>411.19347956423</ele>
        <time>2015-03-31T14:55:19Z</time>
      </trkpt>
      <trkpt lat="43.62928" lon="3.37361">
        <ele>411.19347956423</ele>
        <time>2015-03-31T14:55:24Z</time>
      </trkpt>
      <trkpt lat="43.62926" lon="3.37378">
        <ele>411.2291577941</ele>
        <time>2015-03-31T14:55:39Z</time>
      </trkpt>
      <trkpt lat="43.62918" lon="3.37386">
        <ele>411.04052718761</ele>
        <time>2015-03-31T14:55:46Z</time>
      </trkpt>
      <trkpt lat="43.62914" lon="3.37392">
        <ele>411.04052718761</ele>
        <time>2015-03-31T14:56:07Z</time>
      </trkpt>
      <trkpt lat="43.62914" lon="3.37406">
        <ele>409.81983680524</ele>
        <time>2015-03-31T14:56:22Z</time>
      </trkpt>
      <trkpt lat="43.62914" lon="3.37407">
        <ele>409.81983680524</ele>
        <time>2015-03-31T14:56:23Z</time>
      </trkpt>
      <trkpt lat="43.62915" lon="3.37414">
        <ele>409.81983680524</ele>
        <time>2015-03-31T14:56:37Z</time>
      </trkpt>
      <trkpt lat="43.62926" lon="3.37424">
        <ele>407.90276094656</ele>
        <time>2015-03-31T14:56:49Z</time>
      </trkpt>
      <trkpt lat="43.62938" lon="3.37431">
        <ele>405.35761114097</ele>
        <time>2015-03-31T14:57:17Z</time>
      </trkpt>
      <trkpt lat="43.62949" lon="3.3743">
        <ele>402.71089761523</ele>
        <time>2015-03-31T14:57:23Z</time>
      </trkpt>
      <trkpt lat="43.62951" lon="3.37429">
        <ele>402.71089761523</ele>
        <time>2015-03-31T14:57:34Z</time>
      </trkpt>
      <trkpt lat="43.62948" lon="3.37426">
        <ele>402.71089761523</ele>
        <time>2015-03-31T14:57:47Z</time>
      </trkpt>
      <trkpt lat="43.62948" lon="3.37427">
        <ele>402.71089761523</ele>
        <time>2015-03-31T14:57:48Z</time>
      </trkpt>
      <trkpt lat="43.62946" lon="3.37437">
        <ele>398.82254458109</ele>
        <time>2015-03-31T14:58:07Z</time>
      </trkpt>
      <trkpt lat="43.62946" lon="3.37438">
        <ele>398.82254458109</ele>
        <time>2015-03-31T14:58:08Z</time>
      </trkpt>
      <trkpt lat="43.62947" lon="3.3744">
        <ele>398.82254458109</ele>
        <time>2015-03-31T14:58:15Z</time>
      </trkpt>
      <trkpt lat="43.62945" lon="3.37445">
        <ele>398.82254458109</ele>
        <time>2015-03-31T14:58:20Z</time>
      </trkpt>
      <trkpt lat="43.62945" lon="3.37448">
        <ele>398.82254458109</ele>
        <time>2015-03-31T14:58:23Z</time>
      </trkpt>
      <trkpt lat="43.62942" lon="3.37454">
        <ele>394.87365523341</ele>
        <time>2015-03-31T14:58:28Z</time>
      </trkpt>
      <trkpt lat="43.6293" lon="3.37485">
        <ele>390.34487646944</ele>
        <time>2015-03-31T14:58:53Z</time>
      </trkpt>
      <trkpt lat="43.62929" lon="3.37491">
        <ele>390.34487646944</ele>
        <time>2015-03-31T14:59:06Z</time>
      </trkpt>
      <trkpt lat="43.62938" lon="3.37504">
        <ele>385.13146099294</ele>
        <time>2015-03-31T14:59:08Z</time>
      </trkpt>
      <trkpt lat="43.62956" lon="3.37519">
        <ele>379.34012558046</ele>
        <time>2015-03-31T14:59:23Z</time>
      </trkpt>
      <trkpt lat="43.62964" lon="3.37527">
        <ele>373.54698317813</ele>
        <time>2015-03-31T14:59:30Z</time>
      </trkpt>
      <trkpt lat="43.62982" lon="3.37526">
        <ele>366.91677505948</ele>
        <time>2015-03-31T14:59:57Z</time>
      </trkpt>
      <trkpt lat="43.62982" lon="3.37526">
        <ele>366.91677505948</ele>
        <time>2015-03-31T14:59:57Z</time>
      </trkpt>
      <trkpt lat="43.62982" lon="3.37527">
        <ele>366.91677505948</ele>
        <time>2015-03-31T14:59:58Z</time>
      </trkpt>
      <trkpt lat="43.62986" lon="3.37529">
        <ele>366.91677505948</ele>
        <time>2015-03-31T15:00:03Z</time>
      </trkpt>
      <trkpt lat="43.62988" lon="3.37532">
        <ele>366.91677505948</ele>
        <time>2015-03-31T15:00:08Z</time>
      </trkpt>
      <trkpt lat="43.62991" lon="3.37534">
        <ele>360.19106888066</ele>
        <time>2015-03-31T15:00:13Z</time>
      </trkpt>
      <trkpt lat="43.62992" lon="3.37536">
        <ele>360.19106888066</ele>
        <time>2015-03-31T15:00:18Z</time>
      </trkpt>
      <trkpt lat="43.62998" lon="3.37537">
        <ele>360.19106888066</ele>
        <time>2015-03-31T15:00:23Z</time>
      </trkpt>
      <trkpt lat="43.63005" lon="3.37536">
        <ele>353.26452073937</ele>
        <time>2015-03-31T15:00:29Z</time>
      </trkpt>
      <trkpt lat="43.63008" lon="3.37537">
        <ele>353.26452073937</ele>
        <time>2015-03-31T15:00:42Z</time>
      </trkpt>
      <trkpt lat="43.63025" lon="3.37538">
        <ele>345.69408326453</ele>
        <time>2015-03-31T15:01:00Z</time>
      </trkpt>
      <trkpt lat="43.63029" lon="3.37545">
        <ele>345.69408326453</ele>
        <time>2015-03-31T15:01:14Z</time>
      </trkpt>
      <trkpt lat="43.6303" lon="3.3757">
        <ele>337.8923116649</ele>
        <time>2015-03-31T15:01:28Z</time>
      </trkpt>
      <trkpt lat="43.63073" lon="3.37621">
        <ele>328.2675515547</ele>
        <time>2015-03-31T15:02:24Z</time>
      </trkpt>
      <trkpt lat="43.6311" lon="3.37609">
        <ele>317.9727307117</ele>
        <time>2015-03-31T15:03:00Z</time>
      </trkpt>
      <trkpt lat="43.63136" lon="3.37576">
        <ele>307.32825838666</ele>
        <time>2015-03-31T15:03:30Z</time>
      </trkpt>
      <trkpt lat="43.63138" lon="3.37566">
        <ele>307.32825838666</ele>
        <time>2015-03-31T15:03:44Z</time>
      </trkpt>
      <trkpt lat="43.63144" lon="3.3754">
        <ele>297.4242228351</ele>
        <time>2015-03-31T15:04:00Z</time>
      </trkpt>
      <trkpt lat="43.63166" lon="3.37482">
        <ele>287.30822142266</ele>
        <time>2015-03-31T15:04:28Z</time>
      </trkpt>
      <trkpt lat="43.63211" lon="3.37414">
        <ele>278.18755426666</ele>
        <time>2015-03-31T15:05:26Z</time>
      </trkpt>
      <trkpt lat="43.63212" lon="3.37414">
        <ele>278.18755426666</ele>
        <time>2015-03-31T15:05:33Z</time>
      </trkpt>
      <trkpt lat="43.63229" lon="3.37415">
        <ele>269.89495148624</ele>
        <time>2015-03-31T15:06:11Z</time>
      </trkpt>
      <trkpt lat="43.63282" lon="3.37387">
        <ele>262.24375954537</ele>
        <time>2015-03-31T15:06:29Z</time>
      </trkpt>
      <trkpt lat="43.6334" lon="3.37336">
        <ele>255.56308440537</ele>
        <time>2015-03-31T15:07:29Z</time>
      </trkpt>
      <trkpt lat="43.63351" lon="3.37325">
        <ele>249.76548596573</ele>
        <time>2015-03-31T15:08:11Z</time>
      </trkpt>
      <trkpt lat="43.63391" lon="3.37286">
        <ele>244.7525149631</ele>
        <time>2015-03-31T15:08:26Z</time>
      </trkpt>
      <trkpt lat="43.63396" lon="3.37283">
        <ele>244.7525149631</ele>
        <time>2015-03-31T15:08:30Z</time>
      </trkpt>
      <trkpt lat="43.63435" lon="3.37212">
        <ele>240.11317548599</ele>
        <time>2015-03-31T15:09:30Z</time>
      </trkpt>
      <trkpt lat="43.63434" lon="3.37209">
        <ele>240.11317548599</ele>
        <time>2015-03-31T15:09:36Z</time>
      </trkpt>
      <trkpt lat="43.63446" lon="3.37134">
        <ele>235.73891069841</ele>
        <time>2015-03-31T15:10:24Z</time>
      </trkpt>
      <trkpt lat="43.63448" lon="3.37131">
        <ele>235.73891069841</ele>
        <time>2015-03-31T15:10:28Z</time>
      </trkpt>
      <trkpt lat="43.63471" lon="3.37115">
        <ele>231.85935730181</ele>
        <time>2015-03-31T15:11:00Z</time>
      </trkpt>
      <trkpt lat="43.63479" lon="3.37111">
        <ele>231.85935730181</ele>
        <time>2015-03-31T15:11:00Z</time>
      </trkpt>
      <trkpt lat="43.63487" lon="3.37103">
        <ele>228.33956123818</ele>
        <time>2015-03-31T15:11:12Z</time>
      </trkpt>
      <trkpt lat="43.63492" lon="3.37099">
        <ele>228.33956123818</ele>
        <time>2015-03-31T15:11:12Z</time>
      </trkpt>
      <trkpt lat="43.63508" lon="3.37094">
        <ele>224.05866518549</ele>
        <time>2015-03-31T15:11:32Z</time>
      </trkpt>
      <trkpt lat="43.63553" lon="3.3705">
        <ele>218.42661299433</ele>
        <time>2015-03-31T15:12:27Z</time>
      </trkpt>
      <trkpt lat="43.63554" lon="3.37047">
        <ele>218.42661299433</ele>
        <time>2015-03-31T15:12:29Z</time>
      </trkpt>
      <trkpt lat="43.63575" lon="3.36962">
        <ele>212.65824596439</ele>
        <time>2015-03-31T15:13:26Z</time>
      </trkpt>
      <trkpt lat="43.63576" lon="3.36959">
        <ele>212.65824596439</ele>
        <time>2015-03-31T15:13:28Z</time>
      </trkpt>
      <trkpt lat="43.63577" lon="3.36947">
        <ele>207.47565893916</ele>
        <time>2015-03-31T15:13:44Z</time>
      </trkpt>
      <trkpt lat="43.63577" lon="3.36926">
        <ele>202.99827634958</ele>
        <time>2015-03-31T15:13:50Z</time>
      </trkpt>
      <trkpt lat="43.63576" lon="3.36924">
        <ele>202.99827634958</ele>
        <time>2015-03-31T15:13:53Z</time>
      </trkpt>
      <trkpt lat="43.63573" lon="3.36919">
        <ele>202.99827634958</ele>
        <time>2015-03-31T15:13:58Z</time>
      </trkpt>
      <trkpt lat="43.63572" lon="3.36916">
        <ele>199.20472852449</ele>
        <time>2015-03-31T15:14:03Z</time>
      </trkpt>
      <trkpt lat="43.63571" lon="3.36915">
        <ele>199.20472852449</ele>
        <time>2015-03-31T15:14:08Z</time>
      </trkpt>
    </trkseg>
  </trk>
</gpx>